Provisional Data: West Branch Pine Creek near Galeton, PA


Please select a monitoring station.
Please select start date.
Please select start date.

Toggle Unit: C/F Toggle Unit: C/F
Sample Time Temperature (C) Temperature (F) Specific Conductivity (mS/cm) pH   Turbidity (NTU+) DO (mg/L)
9/6/2021 12:00:00 AM 15.08 59.144 0.049 6.93 4.95 9.38
9/6/2021 12:15:00 AM 15.05 59.09 0.049 6.89 5.74 9.38
9/6/2021 12:30:00 AM 15.02 59.036 0.048 6.91 10.31 9.38
9/6/2021 12:45:00 AM 14.99 58.982 0.048 6.92 12.16 9.4
9/6/2021 1:00:00 AM 14.95 58.91 0.049 6.91 8.51 9.4
9/6/2021 1:15:00 AM 14.92 58.856 0.048 6.94 13.62 9.41
9/6/2021 1:30:00 AM 14.88 58.784 0.048 6.9 11.94 9.41
9/6/2021 1:45:00 AM 14.84 58.712 0.048 6.91 9.06 9.42
9/6/2021 2:00:00 AM 14.8 58.64 0.048 6.89 8.27 9.43
9/6/2021 2:15:00 AM 14.76 58.568 0.049 6.92 6.78 9.44
9/6/2021 2:30:00 AM 14.72 58.496 0.048 6.92 12.19 9.44
9/6/2021 2:45:00 AM 14.68 58.424 0.048 6.93 8.88 9.45
9/6/2021 3:00:00 AM 14.64 58.352 0.045 6.92 14.06 9.46
9/6/2021 3:15:00 AM 14.6 58.28 0.049 6.91 7.18 9.47
9/6/2021 3:30:00 AM 14.55 58.19 0.048 6.91 7.47 9.48
9/6/2021 3:45:00 AM 14.51 58.118 0.048 6.92 5.62 9.49
9/6/2021 4:00:00 AM 14.47 58.046 0.049 6.92 6.56 9.5
9/6/2021 4:15:00 AM 14.43 57.974 0.049 6.92 5.13 9.5
9/6/2021 4:30:00 AM 14.4 57.92 0.049 6.9 5.03 9.51
9/6/2021 4:45:00 AM 14.37 57.866 0.049 6.9 12.06 9.52
9/6/2021 5:00:00 AM 14.33 57.794 0.049 6.91 4.78 9.53
9/6/2021 5:15:00 AM 14.29 57.722 0.049 6.91 3.74 9.54
9/6/2021 5:30:00 AM 14.26 57.668 0.046 6.92 6.18 9.55
9/6/2021 5:45:00 AM 14.22 57.596 0.049 6.91 4.92 9.56
9/6/2021 6:00:00 AM 14.19 57.542 0.049 6.91 3.68 9.56
9/6/2021 6:15:00 AM 14.15 57.47 0.049 6.91 3.86 9.57
9/6/2021 6:30:00 AM 14.11 57.398 0.049 6.9 2.9 9.58
9/6/2021 6:45:00 AM 14.07 57.326 0.046 6.9 5.09 9.59
9/6/2021 7:00:00 AM 14.03 57.254 0.046 6.88 3.72 9.61
9/6/2021 7:15:00 AM 13.98 57.164 0.049 6.92 2.52 9.63
9/6/2021 7:30:00 AM 13.93 57.074 0.046 6.91 3.86 9.67
9/6/2021 7:45:00 AM 13.9 57.02 0.049 6.93 2.7 9.71
9/6/2021 8:00:00 AM 13.89 57.002 0.049 6.94 2.67 9.75
9/6/2021 8:15:00 AM 13.87 56.966 0.049 6.93 2.37 9.77
9/6/2021 8:30:00 AM 13.86 56.948 0.049 6.95 4.24 9.78
9/6/2021 8:45:00 AM 13.85 56.93 0.049 6.96 2.85 9.78
9/6/2021 9:00:00 AM 13.85 56.93 0.049 6.96 2.25 9.8
9/6/2021 9:15:00 AM 13.87 56.966 0.049 6.96 2.48 9.85
9/6/2021 9:30:00 AM 13.87 56.966 0.047 6.99 4.14 9.87
9/6/2021 9:45:00 AM 13.88 56.984 0.049 6.97 2.22 9.87
9/6/2021 10:00:00 AM 13.93 57.074 0.048 6.99 2.62 9.87
9/6/2021 10:15:00 AM 14 57.2 0.046 6.99 4.22 9.87
9/6/2021 10:30:00 AM 14.08 57.344 0.046 6.97 3.98 9.88
9/6/2021 10:45:00 AM 14.17 57.506 0.048 7 2.96 9.88
9/6/2021 11:00:00 AM 14.28 57.704 0.048 7.02 2.65 9.88
9/6/2021 11:15:00 AM 14.42 57.956 0.048 7 3.79 9.87
9/6/2021 11:30:00 AM 14.57 58.226 0.048 7.03 2.05 9.87
9/6/2021 11:45:00 AM 14.7 58.46 0.048 7.05 2.05 9.87
9/6/2021 12:00:00 PM 14.87 58.766 0.048 7.06 2.16 9.86
9/6/2021 12:15:00 PM 14.98 58.964 0.048 7.06 2.07 9.84
9/6/2021 12:30:00 PM 15.12 59.216 0.048 7.05 1.93 9.82
9/6/2021 12:45:00 PM 15.25 59.45 0.046 7.07 3.49 9.81
9/6/2021 1:00:00 PM 15.32 59.576 0.045 7.06 3.59 9.77
9/6/2021 1:15:00 PM 15.4 59.72 0.045 7.03 3.11 9.75
9/6/2021 1:30:00 PM 15.63 60.134 0.048 7.08 2.73 9.7
9/6/2021 1:45:00 PM 15.85 60.53 0.047 7.06 3.3 9.66
9/6/2021 2:00:00 PM 16.01 60.818 0.048 7.08 1.94 9.64
9/6/2021 2:15:00 PM 16.19 61.142 0.048 7.09 1.89 9.6
9/6/2021 2:30:00 PM 16.35 61.43 0.048 7.1 2.16 9.59
9/6/2021 2:45:00 PM 16.62 61.916 0.048 7.12 1.81 9.54
9/6/2021 3:00:00 PM 16.76 62.168 0.048 7.08 2.56 9.5
9/6/2021 3:15:00 PM 16.94 62.492 0.048 7.1 2.13 9.48
9/6/2021 3:30:00 PM 17.02 62.636 0.048 7.09 2.16 9.43
9/6/2021 3:45:00 PM 17.13 62.834 0.048 7.1 2.76 9.41
9/6/2021 4:00:00 PM 17.3 63.14 0.047 7.12 3.67 9.38
9/6/2021 4:15:00 PM 17.38 63.284 0.048 7.11 2.57 9.35
9/6/2021 4:30:00 PM 17.4 63.32 0.048 7.12 2.89 9.34
9/6/2021 4:45:00 PM 17.39 63.302 0.048 7.1 2.34 9.32
9/6/2021 5:00:00 PM 17.36 63.248 0.047 7.11 3.6 9.31
9/6/2021 5:15:00 PM 17.3 63.14 0.048 7.09 3.09 9.29
9/6/2021 5:30:00 PM 17.23 63.014 0.048 7.08 2.09 9.27
9/6/2021 5:45:00 PM 17.16 62.888 0.048 7.07 2.32 9.25
9/6/2021 6:00:00 PM 17.07 62.726 0.048 7.06 2.77 9.25
9/6/2021 6:15:00 PM 16.96 62.528 0.048 7.07 3.21 9.24
9/6/2021 6:30:00 PM 16.85 62.33 0.048 7.05 2.63 9.24
9/6/2021 6:45:00 PM 16.73 62.114 0.048 7.02 2.84 9.24
9/6/2021 7:00:00 PM 16.6 61.88 0.048 7.01 1.88 9.25
9/6/2021 7:15:00 PM 16.46 61.628 0.047 7.01 3.75 9.24
9/6/2021 7:30:00 PM 16.31 61.358 0.048 6.99 2.66 9.24
9/6/2021 7:45:00 PM 16.18 61.124 0.048 7 3.88 9.23
9/6/2021 8:00:00 PM 16.06 60.908 0.047 7.02 3.74 9.23
9/6/2021 8:15:00 PM 15.95 60.71 0.048 6.98 2.62 9.23
9/6/2021 8:30:00 PM 15.84 60.512 0.048 6.97 3 9.24
9/6/2021 8:45:00 PM 15.73 60.314 0.048 6.95 2.38 9.25
9/6/2021 9:00:00 PM 15.62 60.116 0.049 6.95 2.42 9.27
9/6/2021 9:15:00 PM 15.52 59.936 0.048 6.96 3.7 9.29
9/6/2021 9:30:00 PM 15.42 59.756 0.049 6.95 1.91 9.3
9/6/2021 9:45:00 PM 15.33 59.594 0.049 6.95 5.14 9.32
9/6/2021 10:00:00 PM 15.24 59.432 0.048 6.95 3.08 9.34
9/6/2021 10:15:00 PM 15.14 59.252 0.046 6.93 4.54 9.36
9/6/2021 10:30:00 PM 15.06 59.108 0.049 6.94 2.54 9.38
9/6/2021 10:45:00 PM 14.97 58.946 0.049 6.94 3.14 9.39
9/6/2021 11:00:00 PM 14.88 58.784 0.048 6.93 4.48 9.41
9/6/2021 11:15:00 PM 14.8 58.64 0.049 6.94 3.11 9.43
9/6/2021 11:30:00 PM 14.71 58.478 0.049 6.94 3.75 9.44
9/6/2021 11:45:00 PM 14.63 58.334 0.047 6.92 3.64 9.46
9/7/2021 12:00:00 AM 14.54 58.172 0.049 6.94 2.52 9.49
9/7/2021 12:15:00 AM 14.46 58.028 0.049 6.93 3.44 9.5
9/7/2021 12:30:00 AM 14.38 57.884 0.049 6.92 2.33 9.52
9/7/2021 12:45:00 AM 14.3 57.74 0.049 6.96 2.31 9.54
9/7/2021 1:00:00 AM 14.23 57.614 0.049 6.95 2.4 9.56
9/7/2021 1:15:00 AM 14.15 57.47 0.049 6.94 2.19 9.58
9/7/2021 1:30:00 AM 14.08 57.344 0.048 6.96 3.1 9.6
9/7/2021 1:45:00 AM 14 57.2 0.047 6.92 5.55 9.61
9/7/2021 2:00:00 AM 13.92 57.056 0.049 6.94 2.01 9.63
9/7/2021 2:15:00 AM 13.85 56.93 0.049 6.94 2.51 9.65
9/7/2021 2:30:00 AM 13.78 56.804 0.049 6.92 1.99 9.66
9/7/2021 2:45:00 AM 13.7 56.66 0.049 6.95 2.66 9.67
9/7/2021 3:00:00 AM 13.63 56.534 0.048 6.95 2.74 9.69
9/7/2021 3:15:00 AM 13.55 56.39 0.049 6.95 1.94 9.71
9/7/2021 3:30:00 AM 13.48 56.264 0.047 6.94 3.67 9.73
9/7/2021 3:45:00 AM 13.41 56.138 0.049 6.93 2.04 9.74
9/7/2021 4:00:00 AM 13.33 55.994 0.05 6.94 4.1 9.76
9/7/2021 4:15:00 AM 13.26 55.868 0.048 6.92 3.92 9.77
9/7/2021 4:30:00 AM 13.18 55.724 0.05 6.92 3.64 9.79
9/7/2021 4:45:00 AM 13.11 55.598 0.049 6.93 3.72 9.81
9/7/2021 5:00:00 AM 13.04 55.472 0.05 6.7 3.16 9.83
9/7/2021 5:15:00 AM 12.97 55.346 0.049 6.86 2.12 9.85
9/7/2021 5:30:00 AM 12.9 55.22 0.049 6.88 3.32 9.87
9/7/2021 5:45:00 AM 12.84 55.112 0.05 6.89 4.86 9.88
9/7/2021 6:00:00 AM 12.77 54.986 0.05 6.91 2.49 9.9
9/7/2021 6:15:00 AM 12.71 54.878 0.048 6.92 3.42 9.92
9/7/2021 6:30:00 AM 12.64 54.752 0.049 6.9 5 9.93
9/7/2021 6:45:00 AM 12.58 54.644 0.05 6.92 2.23 9.95
9/7/2021 7:00:00 AM 12.52 54.536 0.049 6.93 1.6 9.98
9/7/2021 7:15:00 AM 12.46 54.428 0.049 6.92 2.1 10.01
9/7/2021 7:30:00 AM 12.41 54.338 0.049 6.91 1.95 10.04
9/7/2021 7:45:00 AM 12.37 54.266 0.048 6.93 3.22 10.07
9/7/2021 8:00:00 AM 12.33 54.194 0.049 6.91 2.74 10.1
9/7/2021 8:15:00 AM 12.29 54.122 0.049 6.93 2.1 10.14
9/7/2021 8:30:00 AM 12.27 54.086 0.048 6.93 3.55 10.17
9/7/2021 8:45:00 AM 12.26 54.068 0.049 6.94 3.15 10.19
9/7/2021 9:00:00 AM 12.27 54.086 0.049 6.98 1.79 10.22
9/7/2021 9:15:00 AM 12.28 54.104 0.049 6.98 2.73 10.23
9/7/2021 9:30:00 AM 12.31 54.158 0.049 7.01 2.08 10.24
9/7/2021 9:45:00 AM 12.36 54.248 0.049 6.99 2.04 10.25
9/7/2021 10:00:00 AM 12.42 54.356 0.049 7.01 2.21 10.25
9/7/2021 10:15:00 AM 12.49 54.482 0.049 7.02 2.65 10.25
9/7/2021 10:30:00 AM 12.6 54.68 0.047 6.99 2.97 10.24
9/7/2021 10:45:00 AM 12.72 54.896 0.046 7.02 5.16 10.23
9/7/2021 11:00:00 AM 12.87 55.166 0.046 7.02 3.54 10.2
9/7/2021 11:15:00 AM 13.04 55.472 0.046 7.02 3.97 10.18
9/7/2021 11:30:00 AM 13.22 55.796 0.046 7.04 3.04 10.15
9/7/2021 11:45:00 AM 13.41 56.138 0.049 7.04 1.5 10.12
9/7/2021 12:00:00 PM 13.61 56.498 0.049 7.06 1.87 10.09
9/7/2021 12:15:00 PM 13.82 56.876 0.049 7.06 3.27 10.06
9/7/2021 12:30:00 PM 14.04 57.272 0.048 7.05 2.74 10.03
9/7/2021 12:45:00 PM 14.27 57.686 0.048 7.07 2.48 9.98
9/7/2021 1:00:00 PM 14.5 58.1 0.049 7.07 1.62 9.93
9/7/2021 1:15:00 PM 14.73 58.514 0.048 7.09 1.8 9.89
9/7/2021 1:30:00 PM 14.97 58.946 0.048 7.09 2.23 9.85
9/7/2021 1:45:00 PM 15.2 59.36 0.047 7.09 3.06 9.8
9/7/2021 2:00:00 PM 15.43 59.774 0.046 7.09 3.22 9.76
9/7/2021 2:15:00 PM 15.67 60.206 0.048 7.09 3.07 9.71
9/7/2021 2:30:00 PM 15.89 60.602 0.048 7.09 1.88 9.67
9/7/2021 2:45:00 PM 16.09 60.962 0.048 7.11 2.47 9.64
9/7/2021 3:00:00 PM 16.27 61.286 0.048 7.1 1.77 9.6
9/7/2021 3:15:00 PM 16.49 61.682 0.048 7.09 1.69 9.56
9/7/2021 3:30:00 PM 16.64 61.952 0.048 7.12 1.79 9.52
9/7/2021 3:45:00 PM 16.78 62.204 0.048 7.12 1.69 9.49
9/7/2021 4:00:00 PM 16.91 62.438 0.048 7.11 2.98 9.45
9/7/2021 4:15:00 PM 17.02 62.636 0.048 7.14 1.63 9.41
9/7/2021 4:30:00 PM 17.11 62.798 0.048 7.09 1.79 9.4
9/7/2021 4:45:00 PM 17.16 62.888 0.048 7.13 2.6 9.36
9/7/2021 5:00:00 PM 17.2 62.96 0.046 7.1 3.62 9.33
9/7/2021 5:15:00 PM 17.22 62.996 0.048 7.1 2.06 9.3
9/7/2021 5:30:00 PM 17.2 62.96 0.048 7.08 1.55 9.27
9/7/2021 5:45:00 PM 17.16 62.888 0.048 7.08 4.5 9.25
9/7/2021 6:00:00 PM 17.1 62.78 0.048 7.08 3.39 9.24
9/7/2021 6:15:00 PM 17.05 62.69 0.048 7.07 3.56 9.22
9/7/2021 6:30:00 PM 16.98 62.564 0.048 7.06 2.65 9.21
9/7/2021 6:45:00 PM 16.91 62.438 0.048 7.03 2.87 9.2
9/7/2021 7:00:00 PM 16.82 62.276 0.048 7.02 3.06 9.19
9/7/2021 7:15:00 PM 16.71 62.078 0.048 7.01 3.97 9.19
9/7/2021 7:30:00 PM 16.6 61.88 0.048 6.99 2.13 9.17
9/7/2021 7:45:00 PM 16.49 61.682 0.048 6.96 7.83 9.16
9/7/2021 8:00:00 PM 16.39 61.502 0.049 6.96 3.09 9.16
9/7/2021 8:15:00 PM 16.3 61.34 0.049 6.97 2.27 9.16
9/7/2021 8:30:00 PM 16.2 61.16 0.049 6.97 2 9.16
9/7/2021 8:45:00 PM 16.11 60.998 0.049 6.98 2.6 9.16
9/7/2021 9:00:00 PM 16.02 60.836 0.047 6.95 4.55 9.17
9/7/2021 9:15:00 PM 15.93 60.674 0.049 6.94 2.11 9.19
9/7/2021 9:30:00 PM 15.85 60.53 0.049 6.97 2.25 9.2
9/7/2021 9:45:00 PM 15.78 60.404 0.049 6.92 1.51 9.22
9/7/2021 10:00:00 PM 15.72 60.296 0.049 6.94 2.1 9.23
9/7/2021 10:15:00 PM 15.67 60.206 0.049 6.95 2.52 9.24
9/7/2021 10:30:00 PM 15.62 60.116 0.049 6.95 2.77 9.25
9/7/2021 10:45:00 PM 15.57 60.026 0.049 6.93 1.7 9.26
9/7/2021 11:00:00 PM 15.52 59.936 0.049 6.93 1.77 9.27
9/7/2021 11:15:00 PM 15.48 59.864 0.049 6.93 2.63 9.28
9/7/2021 11:30:00 PM 15.43 59.774 0.049 6.95 2.11 9.29
9/7/2021 11:45:00 PM 15.38 59.684 0.048 6.93 3.23 9.3
9/8/2021 12:00:00 AM 15.32 59.576 0.047 6.93 2.64 9.31
9/8/2021 12:15:00 AM 15.27 59.486 0.05 6.91 2.25 9.32
9/8/2021 12:30:00 AM 15.22 59.396 0.048 6.92 3.05 9.33
9/8/2021 12:45:00 AM 15.17 59.306 0.047 6.93 2.63 9.34
9/8/2021 1:00:00 AM 15.11 59.198 0.05 6.96 1.98 9.35
9/8/2021 1:15:00 AM 15.06 59.108 0.05 6.92 2.85 9.36
9/8/2021 1:30:00 AM 15.02 59.036 0.05 6.94 1.55 9.36
9/8/2021 1:45:00 AM 14.97 58.946 0.05 6.92 2.49 9.37
9/8/2021 2:00:00 AM 14.92 58.856 0.05 6.9 2.55 9.38
9/8/2021 2:15:00 AM 14.88 58.784 0.05 6.92 1.64 9.39
9/8/2021 2:30:00 AM 14.83 58.694 0.05 6.93 2.15 9.4
9/8/2021 2:45:00 AM 14.78 58.604 0.048 6.92 3.85 9.41
9/8/2021 3:00:00 AM 14.73 58.514 0.047 6.92 3.24 9.41
9/8/2021 3:15:00 AM 14.68 58.424 0.05 6.93 2.59 9.42
9/8/2021 3:30:00 AM 14.63 58.334 0.049 6.91 2.99 9.43
9/8/2021 3:45:00 AM 14.58 58.244 0.05 6.91 1.6 9.44
9/8/2021 4:00:00 AM 14.54 58.172 0.049 6.91 3.25 9.45
9/8/2021 4:15:00 AM 14.49 58.082 0.05 6.9 2.27 9.46
9/8/2021 4:30:00 AM 14.43 57.974 0.05 6.9 1.79 9.47
9/8/2021 4:45:00 AM 14.38 57.884 0.05 6.92 1.98 9.49
9/8/2021 5:00:00 AM 14.33 57.794 0.05 6.9 2.11 9.5
9/8/2021 5:15:00 AM 14.29 57.722 0.047 6.92 5.09 9.51
9/8/2021 5:30:00 AM 14.24 57.632 0.05 6.92 2.19 9.52
9/8/2021 5:45:00 AM 14.2 57.56 0.05 6.91 2.95 9.53
9/8/2021 6:00:00 AM 14.15 57.47 0.05 6.89 1.76 9.54
9/8/2021 6:15:00 AM 14.1 57.38 0.049 6.9 3.33 9.55
9/8/2021 6:30:00 AM 14.06 57.308 0.049 6.9 2.89 9.56
9/8/2021 6:45:00 AM 14.02 57.236 0.047 6.9 3.28 9.57
9/8/2021 7:00:00 AM 13.98 57.164 0.047 6.91 4.65 9.59
9/8/2021 7:15:00 AM 13.95 57.11 0.05 6.9 1.87 9.61
9/8/2021 7:30:00 AM 13.93 57.074 0.05 6.93 2.11 9.64
9/8/2021 7:45:00 AM 13.92 57.056 0.049 6.92 3.78 9.67
9/8/2021 8:00:00 AM 13.9 57.02 0.047 6.9 4.07 9.69
9/8/2021 8:15:00 AM 13.89 57.002 0.05 6.92 2.35 9.72
9/8/2021 8:30:00 AM 13.91 57.038 0.05 6.94 1.93 9.77
9/8/2021 8:45:00 AM 13.93 57.074 0.05 6.96 1.83 9.8
9/8/2021 9:00:00 AM 13.96 57.128 0.049 6.97 2.44 9.83
9/8/2021 9:15:00 AM 14.01 57.218 0.049 7 2.89 9.86
9/8/2021 9:30:00 AM 14.1 57.38 0.048 7.02 3.21 9.89
9/8/2021 9:45:00 AM 14.19 57.542 0.047 7.03 4.05 9.9
9/8/2021 10:00:00 AM 14.3 57.74 0.049 7.06 1.71 9.91
9/8/2021 10:15:00 AM 14.39 57.902 0.049 7.07 2.9 9.89
9/8/2021 10:30:00 AM 14.53 58.154 0.046 7.05 2.9 9.89
9/8/2021 10:45:00 AM 14.67 58.406 0.047 7.08 3.72 9.89
9/8/2021 11:00:00 AM 14.76 58.568 0.046 7.1 2.42 9.88
9/8/2021 11:15:00 AM 14.97 58.946 0.049 7.13 1.6 9.86
9/8/2021 11:30:00 AM 15.15 59.27 0.049 7.11 1.84 9.83
9/8/2021 11:45:00 AM 15.22 59.396 0.049 7.12 2.37 9.81
9/8/2021 12:00:00 PM 15.34 59.612 0.049 7.13 1.77 9.8
9/8/2021 12:15:00 PM 15.46 59.828 0.049 7.13 2.69 9.75
9/8/2021 12:30:00 PM 15.53 59.954 0.049 7.13 1.59 9.71
9/8/2021 12:45:00 PM 15.51 59.918 0.049 7.13 3.05 9.66
9/8/2021 1:00:00 PM 15.53 59.954 0.049 7.1 2.15 9.64
9/8/2021 1:15:00 PM 15.58 60.044 0.049 7.11 1.64 9.58
9/8/2021 1:30:00 PM 15.59 60.062 0.049 7.08 2.94 9.52
9/8/2021 1:45:00 PM 15.58 60.044 0.049 7.07 3.22 9.47
9/8/2021 2:00:00 PM 15.61 60.098 0.048 7.03 2.52 9.43
9/8/2021 2:15:00 PM 15.6 60.08 0.048 7.04 1.98 9.46
9/8/2021 2:30:00 PM 15.58 60.044 0.048 7.03 2.05 9.48
9/8/2021 2:45:00 PM 15.62 60.116 0.048 7.05 4.03 9.53
9/8/2021 3:00:00 PM 15.69 60.242 0.048 7.06 3.42 9.54
9/8/2021 3:15:00 PM 15.67 60.206 0.048 7.05 3.75 9.52
9/8/2021 3:30:00 PM 15.67 60.206 0.048 7.04 3.31 9.48
9/8/2021 3:45:00 PM 15.72 60.296 0.048 7.03 4.16 9.5
9/8/2021 4:00:00 PM 15.76 60.368 0.048 7.06 3.06 9.53
9/8/2021 4:15:00 PM 15.77 60.386 0.048 7.05 4.57 9.56
9/8/2021 4:30:00 PM 15.75 60.35 0.048 7.04 2 9.54
9/8/2021 4:45:00 PM 15.75 60.35 0.048 7.06 2.02 9.52
9/8/2021 5:00:00 PM 15.77 60.386 0.048 7.08 2.89 9.52
9/8/2021 5:15:00 PM 15.77 60.386 0.048 7.06 4.19 9.5
9/8/2021 5:30:00 PM 15.75 60.35 0.049 7.07 2.96 9.48
9/8/2021 5:45:00 PM 15.74 60.332 0.048 7.03 4.3 9.49
9/8/2021 6:00:00 PM 15.76 60.368 0.046 7.06 3.43 9.5
9/8/2021 6:15:00 PM 15.73 60.314 0.049 7.04 3.12 9.48
9/8/2021 6:30:00 PM 15.68 60.224 0.049 7.04 2.65 9.44
9/8/2021 6:45:00 PM 15.68 60.224 0.049 7.01 3.16 9.44
9/8/2021 7:00:00 PM 15.65 60.17 0.049 7.03 2 9.43
9/8/2021 7:15:00 PM 15.6 60.08 0.049 7.02 2.06 9.41
9/8/2021 7:30:00 PM 15.56 60.008 0.049 7 2.64 9.38
9/8/2021 7:45:00 PM 15.52 59.936 0.049 6.99 2.38 9.35
9/8/2021 8:00:00 PM 15.48 59.864 0.048 6.95 2.9 9.33
9/8/2021 8:15:00 PM 15.44 59.792 0.047 6.95 4.85 9.32
9/8/2021 8:30:00 PM 15.4 59.72 0.047 6.95 4.52 9.31
9/8/2021 8:45:00 PM 15.36 59.648 0.049 6.95 2.14 9.31
9/8/2021 9:00:00 PM 15.32 59.576 0.049 6.94 4.13 9.31
9/8/2021 9:15:00 PM 15.28 59.504 0.049 6.93 2.9 9.3
9/8/2021 9:30:00 PM 15.24 59.432 0.05 6.91 2.1 9.31
9/8/2021 9:45:00 PM 15.19 59.342 0.05 6.92 2.37 9.32
9/8/2021 10:00:00 PM 15.14 59.252 0.049 6.91 2.98 9.33
9/8/2021 10:15:00 PM 15.09 59.162 0.05 6.93 1.62 9.33
9/8/2021 10:30:00 PM 15.04 59.072 0.05 6.91 2.36 9.34
9/8/2021 10:45:00 PM 15 59 0.05 6.92 2.17 9.35
9/8/2021 11:00:00 PM 14.97 58.946 0.05 6.93 2.13 9.36
9/8/2021 11:15:00 PM 14.93 58.874 0.05 6.91 2.19 9.36
9/8/2021 11:30:00 PM 14.9 58.82 0.05 6.94 2.06 9.37
9/8/2021 11:45:00 PM 14.87 58.766 0.05 6.92 2.59 9.38
9/9/2021 12:00:00 AM 14.85 58.73 0.047 6.93 4.32 9.39
9/9/2021 12:15:00 AM 14.83 58.694 0.05 6.95 1.79 9.39
9/9/2021 12:30:00 AM 14.81 58.658 0.05 6.97 2.8 9.4
9/9/2021 12:45:00 AM 14.79 58.622 0.05 6.95 2.89 9.4
9/9/2021 1:00:00 AM 14.77 58.586 0.049 6.96 4.1 9.42
9/9/2021 1:15:00 AM 14.74 58.532 0.048 6.95 3.44 9.42
9/9/2021 1:30:00 AM 14.71 58.478 0.05 6.97 5.41 9.43
9/9/2021 1:45:00 AM 14.68 58.424 0.05 6.97 3.16 9.43
9/9/2021 2:00:00 AM 14.65 58.37 0.05 6.97 3.7 9.44
9/9/2021 2:15:00 AM 14.62 58.316 0.05 6.97 5.1 9.44
9/9/2021 2:30:00 AM 14.59 58.262 0.049 6.96 3.81 9.45
9/9/2021 2:45:00 AM 14.55 58.19 0.05 6.97 5.88 9.46
9/9/2021 3:00:00 AM 14.52 58.136 0.05 6.97 8.73 9.46
9/9/2021 3:15:00 AM 14.49 58.082 0.05 6.97 3.91 9.47
9/9/2021 3:30:00 AM 14.46 58.028 0.05 6.96 2.65 9.47
9/9/2021 3:45:00 AM 14.43 57.974 0.05 6.96 3.54 9.48
9/9/2021 4:00:00 AM 14.41 57.938 0.05 6.96 3.56 9.49
9/9/2021 4:15:00 AM 14.38 57.884 0.05 6.97 3.9 9.5
9/9/2021 4:30:00 AM 14.36 57.848 0.05 6.96 2.62 9.51
9/9/2021 4:45:00 AM 14.33 57.794 0.05 6.96 3.28 9.51
9/9/2021 5:00:00 AM 14.3 57.74 0.05 6.96 4.4 9.52
9/9/2021 5:15:00 AM 14.27 57.686 0.05 6.96 3.86 9.52
9/9/2021 5:30:00 AM 14.25 57.65 0.05 6.96 3.93 9.53
9/9/2021 5:45:00 AM 14.21 57.578 0.049 6.97 3.59 9.54
9/9/2021 6:00:00 AM 14.18 57.524 0.049 6.96 6.03 9.55
9/9/2021 6:15:00 AM 14.14 57.452 0.048 6.97 3.96 9.56
9/9/2021 6:30:00 AM 14.1 57.38 0.05 6.97 1.99 9.57
9/9/2021 6:45:00 AM 14.07 57.326 0.05 6.97 2.54 9.58
9/9/2021 7:00:00 AM 14.05 57.29 0.05 6.98 2.75 9.58
9/9/2021 7:15:00 AM 14.02 57.236 0.05 6.97 1.86 9.59
9/9/2021 7:30:00 AM 13.99 57.182 0.05 6.97 2.63 9.61
9/9/2021 7:45:00 AM 13.97 57.146 0.048 6.95 6.59 9.63
9/9/2021 8:00:00 AM 13.95 57.11 0.05 6.97 2.52 9.67
9/9/2021 8:15:00 AM 13.93 57.074 0.048 6.98 6.11 9.71
9/9/2021 8:30:00 AM 13.92 57.056 0.047 6.98 4.94 9.74
9/9/2021 8:45:00 AM 13.9 57.02 0.05 6.98 2.2 9.76
9/9/2021 9:00:00 AM 13.89 57.002 0.048 6.97 6.78 9.76
9/9/2021 9:15:00 AM 13.9 57.02 0.05 7.01 6.23 9.8
9/9/2021 9:30:00 AM 13.95 57.11 0.049 7.01 4.9 9.87
9/9/2021 9:45:00 AM 14 57.2 0.05 7.03 4.03 9.91
9/9/2021 10:00:00 AM 14.06 57.308 0.05 7.06 2.07 9.95
9/9/2021 10:15:00 AM 14.14 57.452 0.05 7.08 3.32 9.97
9/9/2021 10:30:00 AM 14.21 57.578 0.049 7.09 4.6 9.96
9/9/2021 10:45:00 AM 14.31 57.758 0.048 7.11 3.87 9.98
9/9/2021 11:00:00 AM 14.4 57.92 0.049 7.09 4.96 9.93
9/9/2021 11:15:00 AM 14.46 58.028 0.049 7.12 5.53 9.92
9/9/2021 11:30:00 AM 14.54 58.172 0.049 7.11 5.55 9.9
9/9/2021 11:45:00 AM 14.69 58.442 0.049 7.17 1.38 9.88
9/9/2021 12:00:00 PM 14.81 58.658 0.049 7.14 3.93 9.88
9/9/2021 12:15:00 PM 14.89 58.802 0.049 7.16 1.67 9.87
9/9/2021 12:30:00 PM 15.01 59.018 0.049 7.18 3.05 9.88
9/9/2021 12:45:00 PM 15.16 59.288 0.048 7.15 8.02 9.85
9/9/2021 1:00:00 PM 15.35 59.63 0.046 7.17 3.79 9.83
9/9/2021 1:15:00 PM 15.48 59.864 0.049 7.17 1.98 9.8
9/9/2021 1:30:00 PM 15.64 60.152 0.049 7.18 1.7 9.76
9/9/2021 1:45:00 PM 15.8 60.44 0.049 7.21 1.85 9.74
9/9/2021 2:00:00 PM 15.94 60.692 0.049 7.18 2.84 9.68
9/9/2021 2:15:00 PM 15.88 60.584 0.049 7.17 2.62 9.64
9/9/2021 2:30:00 PM 15.97 60.746 0.049 7.18 2.19 9.63
9/9/2021 2:45:00 PM 16.3 61.34 0.049 7.19 3.04 9.59
9/9/2021 3:00:00 PM 16.35 61.43 0.049 7.18 1.58 9.56
9/9/2021 3:15:00 PM 16.45 61.61 0.049 7.18 2.29 9.56
9/9/2021 3:30:00 PM 16.56 61.808 0.049 7.19 6.36 9.53
9/9/2021 3:45:00 PM 16.59 61.862 0.049 7.17 5.38 9.47
9/9/2021 4:00:00 PM 16.68 62.024 0.049 7.14 7.53 9.46
9/9/2021 4:15:00 PM 16.78 62.204 0.048 7.22 2.23 9.46
9/9/2021 4:30:00 PM 16.83 62.294 0.048 7.2 1.69 9.45
9/9/2021 4:45:00 PM 16.85 62.33 0.048 7.15 2.61 9.43
9/9/2021 5:00:00 PM 16.88 62.384 0.048 7.16 3.86 9.4
9/9/2021 5:15:00 PM 16.9 62.42 0.048 7.18 10.64 9.38
9/9/2021 5:30:00 PM 16.92 62.456 0.048 7.17 2.78 9.35
9/9/2021 5:45:00 PM 16.89 62.402 0.048 7.15 2.53 9.35
9/9/2021 6:00:00 PM 16.81 62.258 0.048 7.14 2.33 9.34
9/9/2021 6:15:00 PM 16.76 62.168 0.048 7.12 3.22 9.31
9/9/2021 6:30:00 PM 16.68 62.024 0.049 7.13 1.67 9.3
9/9/2021 6:45:00 PM 16.58 61.844 0.049 7.12 3.29 9.28
9/9/2021 7:00:00 PM 16.49 61.682 0.049 7.1 14.6 9.27
9/9/2021 7:15:00 PM 16.4 61.52 0.049 7.08 3.53 9.25
9/9/2021 7:30:00 PM 16.29 61.322 0.049 7.08 3.95 9.23
9/9/2021 7:45:00 PM 16.17 61.106 0.049 7.06 4.38 9.21
9/9/2021 8:00:00 PM 16.06 60.908 0.049 7.03 3.4 9.2
9/9/2021 8:15:00 PM 15.97 60.746 0.049 7.03 9.45 9.21
9/9/2021 8:30:00 PM 15.86 60.548 0.049 7.03 2.74 9.2
9/9/2021 8:45:00 PM 15.76 60.368 0.049 6.99 1.9 9.21
9/9/2021 9:00:00 PM 15.65 60.17 0.049 7.02 12.63 9.24
9/9/2021 9:15:00 PM 15.54 59.972 0.048 6.98 11.31 9.26
9/9/2021 9:30:00 PM 15.44 59.792 0.049 7.01 2.42 9.27
9/9/2021 9:45:00 PM 15.34 59.612 0.049 6.98 3.57 9.29
9/9/2021 10:00:00 PM 15.25 59.45 0.049 7 6.25 9.31
9/9/2021 10:15:00 PM 15.15 59.27 0.049 6.96 18.65 9.33
9/9/2021 10:30:00 PM 15.06 59.108 0.049 6.98 6.79 9.34
9/9/2021 10:45:00 PM 14.97 58.946 0.047 6.95 7.61 9.36
9/9/2021 11:00:00 PM 14.88 58.784 0.047 6.99 10.15 9.38
9/9/2021 11:15:00 PM 14.79 58.622 0.047 6.97 11.24 9.4
9/9/2021 11:30:00 PM 14.71 58.478 0.047 6.95 12.73 9.42
9/9/2021 11:45:00 PM 14.62 58.316 0.05 6.97 3.66 9.44
9/10/2021 12:00:00 AM 14.54 58.172 0.05 6.97 9.38 9.46
9/10/2021 12:15:00 AM 14.46 58.028 0.05 6.95 6.4 9.48
9/10/2021 12:30:00 AM 14.38 57.884 0.05 6.99 7.64 9.51
9/10/2021 12:45:00 AM 14.31 57.758 0.049 6.97 1.36 9.52
9/10/2021 1:00:00 AM 14.24 57.632 0.047 6.97 11.13 9.54
9/10/2021 1:15:00 AM 14.18 57.524 0.047 6.95 7.22 9.54
9/10/2021 1:30:00 AM 14.13 57.434 0.05 6.97 5.39 9.57
9/10/2021 1:45:00 AM 14.08 57.344 0.05 6.98 4.24 9.58
9/10/2021 2:00:00 AM 14.03 57.254 0.05 6.96 11.1 9.59
9/10/2021 2:15:00 AM 14 57.2 0.05 6.97 13.97 9.6
9/10/2021 2:30:00 AM 13.96 57.128 0.05 6.98 9.43 9.61
9/10/2021 2:45:00 AM 13.92 57.056 0.05 6.98 1.99 9.61
9/10/2021 3:00:00 AM 13.87 56.966 0.05 6.98 16.56 9.62
9/10/2021 3:15:00 AM 13.82 56.876 0.05 6.99 7.34 9.64
9/10/2021 3:30:00 AM 13.78 56.804 0.049 6.96 15.09 9.65
9/10/2021 3:45:00 AM 13.73 56.714 0.048 6.97 4.03 9.65
9/10/2021 4:00:00 AM 13.69 56.642 0.048 6.96 15.46 9.66
9/10/2021 4:15:00 AM 13.65 56.57 0.05 6.96 9.14 9.67
9/10/2021 4:30:00 AM 13.6 56.48 0.048 6.97 16.74 9.68
9/10/2021 4:45:00 AM 13.55 56.39 0.048 6.97 15.66 9.69
9/10/2021 5:00:00 AM 13.52 56.336 0.048 6.96 4.76 9.7
9/10/2021 5:15:00 AM 13.47 56.246 0.05 6.98 7.4 9.72
9/10/2021 5:30:00 AM 13.43 56.174 0.049 6.97 4.78 9.73
9/10/2021 5:45:00 AM 13.38 56.084 0.048 6.95 4.25 9.74
9/10/2021 6:00:00 AM 13.33 55.994 0.05 6.96 8.14 9.75
9/10/2021 6:15:00 AM 13.29 55.922 0.05 6.97 2.18 9.77
9/10/2021 6:30:00 AM 13.23 55.814 0.05 6.97 3.12 9.78
9/10/2021 6:45:00 AM 13.16 55.688 0.049 6.95 10.87 9.81
9/10/2021 7:00:00 AM 13.1 55.58 0.05 6.96 12 9.83
9/10/2021 7:15:00 AM 13.05 55.49 0.049 6.96 5.67 9.85
9/10/2021 7:30:00 AM 13.01 55.418 0.047 6.96 8.12 9.9
9/10/2021 7:45:00 AM 12.99 55.382 0.05 6.99 5.36 9.95
9/10/2021 8:00:00 AM 12.97 55.346 0.047 6.99 3.15 9.99
9/10/2021 8:15:00 AM 12.96 55.328 0.049 7 5.25 10.04
9/10/2021 8:30:00 AM 12.99 55.382 0.05 7.02 8.17 10.08
9/10/2021 8:45:00 AM 13.02 55.436 0.047 7.03 5.47 10.12
9/10/2021 9:00:00 AM 13.07 55.526 0.047 7.04 1.44 10.16
9/10/2021 9:15:00 AM 13.12 55.616 0.05 7.06 9.78 10.16
9/10/2021 9:30:00 AM 13.17 55.706 0.048 7.06 4.08 10.18
9/10/2021 9:45:00 AM 13.22 55.796 0.049 7.09 5.52 10.18
9/10/2021 10:00:00 AM 13.25 55.85 0.048 7.07 7.19 10.17
9/10/2021 10:15:00 AM 13.32 55.976 0.047 7.11 17.56 10.17
9/10/2021 10:30:00 AM 13.39 56.102 0.047 7.08 15.92 10.16
9/10/2021 10:45:00 AM 13.45 56.21 0.049 7.11 9.09 10.15
9/10/2021 11:00:00 AM 13.59 56.462 0.049 7.13 4.72 10.17
9/10/2021 11:15:00 AM 13.66 56.588 0.049 7.12 9.54 10.13
9/10/2021 11:30:00 AM 13.81 56.858 0.049 7.12 4.28 10.14
9/10/2021 11:45:00 AM 13.96 57.128 0.049 7.13 6.87 10.11
9/10/2021 12:00:00 PM 14.04 57.272 0.049 7.15 5.43 10.1
9/10/2021 12:15:00 PM 14.13 57.434 0.049 7.15 4.7 10.07
9/10/2021 12:30:00 PM 14.34 57.812 0.049 7.14 9.93 10.04
9/10/2021 12:45:00 PM 14.53 58.154 0.049 7.15 17.13 10.01
9/10/2021 1:00:00 PM 14.66 58.388 0.048 7.14 3.83 9.98
9/10/2021 1:15:00 PM 14.8 58.64 0.046 7.14 12.83 9.95
9/10/2021 1:30:00 PM 14.94 58.892 0.046 7.15 6.02 9.93
9/10/2021 1:45:00 PM 15.15 59.27 0.049 7.18 5.76 9.9
9/10/2021 2:00:00 PM 15.24 59.432 0.049 7.18 12.55 9.87
9/10/2021 2:15:00 PM 15.28 59.504 0.049 7.18 7.72 9.84
9/10/2021 2:30:00 PM 15.38 59.684 0.049 7.18 8.49 9.83
9/10/2021 2:45:00 PM 15.47 59.846 0.049 7.18 12.68 9.82
9/10/2021 3:00:00 PM 15.57 60.026 0.048 7.17 6.7 9.81
9/10/2021 3:15:00 PM 15.73 60.314 0.049 7.2 4.09 9.78
9/10/2021 3:30:00 PM 15.91 60.638 0.048 7.19 3.29 9.76
9/10/2021 3:45:00 PM 16 60.8 0.048 7.18 5.95 9.7
9/10/2021 4:00:00 PM 16.08 60.944 0.049 7.15 7.23 9.67
9/10/2021 4:15:00 PM 16.24 61.232 0.049 7.18 7.29 9.64
9/10/2021 4:30:00 PM 16.29 61.322 0.049 7.17 7.05 9.61
9/10/2021 4:45:00 PM 16.27 61.286 0.049 7.19 11.61 9.59
9/10/2021 5:00:00 PM 16.25 61.25 0.049 7.16 2.95 9.58
9/10/2021 5:15:00 PM 16.25 61.25 0.049 7.15 9.26 9.59
9/10/2021 5:30:00 PM 16.2 61.16 0.049 7.15 6.25 9.56
9/10/2021 5:45:00 PM 16.12 61.016 0.049 7.13 5.66 9.52
9/10/2021 6:00:00 PM 16.04 60.872 0.049 7.13 2.05 9.5
9/10/2021 6:15:00 PM 15.96 60.728 0.048 7.09 7.42 9.47
9/10/2021 6:30:00 PM 15.86 60.548 0.049 7.08 12.72 9.47
9/10/2021 6:45:00 PM 15.77 60.386 0.049 7.09 5.36 9.47
9/10/2021 7:00:00 PM 15.67 60.206 0.049 7.07 2.02 9.46
9/10/2021 7:15:00 PM 15.56 60.008 0.047 7.06 9.94 9.46
9/10/2021 7:30:00 PM 15.45 59.81 0.046 7.04 6.18 9.44
9/10/2021 7:45:00 PM 15.34 59.612 0.046 7.03 4.54 9.44
9/10/2021 8:00:00 PM 15.24 59.432 0.049 7.03 18.95 9.44
9/10/2021 8:15:00 PM 15.15 59.27 0.049 7.02 6.08 9.43
9/10/2021 8:30:00 PM 15.05 59.09 0.047 6.99 3.17 9.43
9/10/2021 8:45:00 PM 14.96 58.928 0.049 7 3.8 9.44
9/10/2021 9:00:00 PM 14.86 58.748 0.047 6.97 2.9 9.46
9/10/2021 9:15:00 PM 14.76 58.568 0.05 6.98 12.94 9.48
9/10/2021 9:30:00 PM 14.65 58.37 0.05 6.99 5.47 9.5
9/10/2021 9:45:00 PM 14.56 58.208 0.047 6.99 3.39 9.54
9/10/2021 10:00:00 PM 14.46 58.028 0.047 6.97 3.8 9.55
9/10/2021 10:15:00 PM 14.36 57.848 0.05 6.97 2.89 9.57
9/10/2021 10:30:00 PM 14.27 57.686 0.049 6.98 5.07 9.59
9/10/2021 10:45:00 PM 14.18 57.524 0.05 6.98 2.94 9.6
9/10/2021 11:00:00 PM 14.09 57.362 0.05 6.97 9.25 9.62
9/10/2021 11:15:00 PM 14 57.2 0.05 6.98 5.43 9.64
9/10/2021 11:30:00 PM 13.91 57.038 0.049 6.95 3.03 9.66
9/10/2021 11:45:00 PM 13.83 56.894 0.047 6.96 2.77 9.68
9/11/2021 12:00:00 AM 13.74 56.732 0.05 6.98 9.33 9.71
9/11/2021 12:15:00 AM 13.66 56.588 0.049 6.97 4.95 9.72
9/11/2021 12:30:00 AM 13.58 56.444 0.047 6.96 7.85 9.75
9/11/2021 12:45:00 AM 13.5 56.3 0.05 6.97 15.04 9.77
9/11/2021 1:00:00 AM 13.42 56.156 0.05 6.97 2.87 9.79
9/11/2021 1:15:00 AM 13.34 56.012 0.05 6.97 16.14 9.81
9/11/2021 1:30:00 AM 13.27 55.886 0.049 6.97 12.96 9.83
9/11/2021 1:45:00 AM 13.19 55.742 0.05 6.97 6.62 9.85
9/11/2021 2:00:00 AM 13.12 55.616 0.05 6.97 2.93 9.86
9/11/2021 2:15:00 AM 13.05 55.49 0.05 6.99 5.25 9.88
9/11/2021 2:30:00 AM 12.98 55.364 0.049 6.96 10.98 9.9
9/11/2021 2:45:00 AM 12.91 55.238 0.048 6.96 2.95 9.9
9/11/2021 3:00:00 AM 12.85 55.13 0.048 6.96 10.68 9.92
9/11/2021 3:15:00 AM 12.78 55.004 0.05 6.95 15.07 9.93
9/11/2021 3:30:00 AM 12.71 54.878 0.05 6.98 12.76 9.96
9/11/2021 3:45:00 AM 12.65 54.77 0.05 6.76 5.45 9.97
9/11/2021 4:00:00 AM 12.59 54.662 0.05 6.91 3.85 9.99
9/11/2021 4:15:00 AM 12.53 54.554 0.049 6.93 6 9.99
9/11/2021 4:30:00 AM 12.48 54.464 0.05 6.93 1.8 10.01
9/11/2021 4:45:00 AM 12.42 54.356 0.048 6.93 8.16 10.04
9/11/2021 5:00:00 AM 12.36 54.248 0.05 6.94 17.86 10.04
9/11/2021 5:15:00 AM 12.29 54.122 0.05 6.95 15.31 10.08
9/11/2021 5:30:00 AM 12.23 54.014 0.05 6.95 6 10.08
9/11/2021 5:45:00 AM 12.17 53.906 0.05 6.95 9.26 10.1
9/11/2021 6:00:00 AM 12.11 53.798 0.049 6.94 6.37 10.12
9/11/2021 6:15:00 AM 12.05 53.69 0.05 6.93 2.94 10.13
9/11/2021 6:30:00 AM 11.99 53.582 0.05 6.94 17.95 10.14
9/11/2021 6:45:00 AM 11.93 53.474 0.051 6.94 7.76 10.17
9/11/2021 7:00:00 AM 11.87 53.366 0.05 6.95 16.32 10.19
9/11/2021 7:15:00 AM 11.82 53.276 0.05 6.96 3.35 10.22
9/11/2021 7:30:00 AM 11.78 53.204 0.05 6.96 21.18 10.26
9/11/2021 7:45:00 AM 11.75 53.15 0.05 6.97 8.34 10.33
9/11/2021 8:00:00 AM 11.72 53.096 0.05 6.99 7.06 10.35
9/11/2021 8:15:00 AM 11.7 53.06 0.049 6.97 16.02 10.36
9/11/2021 8:30:00 AM 11.69 53.042 0.05 7.02 9.84 10.44
9/11/2021 8:45:00 AM 11.72 53.096 0.05 7.01 5.25 10.47
9/11/2021 9:00:00 AM 11.74 53.132 0.05 7.03 9.4 10.5
9/11/2021 9:15:00 AM 11.76 53.168 0.05 7.03 6.54 10.52
9/11/2021 9:30:00 AM 11.79 53.222 0.05 7.05 1.28 10.52
9/11/2021 9:45:00 AM 11.84 53.312 0.047 7.06 17.35 10.52
9/11/2021 10:00:00 AM 11.9 53.42 0.05 7.07 6.29 10.51
9/11/2021 10:15:00 AM 11.99 53.582 0.047 7.05 18.35 10.48
9/11/2021 10:30:00 AM 12.08 53.744 0.047 7.07 4.82 10.48
9/11/2021 10:45:00 AM 12.19 53.942 0.05 7.08 2.63 10.46
9/11/2021 11:00:00 AM 12.34 54.212 0.048 7.08 3.73 10.42
9/11/2021 11:15:00 AM 12.52 54.536 0.05 7.08 5.07 10.4
9/11/2021 11:30:00 AM 12.71 54.878 0.047 7.09 5.94 10.37
9/11/2021 11:45:00 AM 12.91 55.238 0.05 7.12 8.12 10.33
9/11/2021 12:00:00 PM 13.13 55.634 0.05 7.12 1.44 10.29
9/11/2021 12:15:00 PM 13.35 56.03 0.049 7.13 5.61 10.26
9/11/2021 12:30:00 PM 13.57 56.426 0.05 7.13 3.55 10.22
9/11/2021 12:45:00 PM 13.82 56.876 0.049 7.11 1.4 10.18
9/11/2021 1:00:00 PM 14.05 57.29 0.049 7.14 8.62 10.14
9/11/2021 1:15:00 PM 14.18 57.524 0.049 7.14 7.68 10.09
9/11/2021 1:30:00 PM 14.18 57.524 0.049 7.14 6.96 10.06
9/11/2021 1:45:00 PM 14.44 57.992 0.047 7.15 10.29 10.04
9/11/2021 2:00:00 PM 14.78 58.604 0.047 7.17 8.76 9.99
9/11/2021 2:15:00 PM 14.96 58.928 0.049 7.17 8.51 9.96
9/11/2021 2:30:00 PM 14.92 58.856 0.049 7.18 10.17 9.96
9/11/2021 2:45:00 PM 15.11 59.198 0.046 7.17 17.25 9.92
9/11/2021 3:00:00 PM 15.33 59.594 0.049 7.19 8.12 9.88
9/11/2021 3:15:00 PM 15.58 60.044 0.049 7.18 17.34 9.81
9/11/2021 3:30:00 PM 15.71 60.278 0.049 7.19 4.81 9.79
9/11/2021 3:45:00 PM 15.82 60.476 0.049 7.2 5.15 9.76
9/11/2021 4:00:00 PM 15.94 60.692 0.049 7.18 6.28 9.73
9/11/2021 4:15:00 PM 16.08 60.944 0.049 7.17 1.21 9.7
9/11/2021 4:30:00 PM 16.16 61.088 0.049 7.16 10.47 9.67
9/11/2021 4:45:00 PM 16.22 61.196 0.049 7.16 9.08 9.65
9/11/2021 5:00:00 PM 16.29 61.322 0.049 7.17 4.13 9.62
9/11/2021 5:15:00 PM 16.32 61.376 0.049 7.17 15.82 9.59
9/11/2021 5:30:00 PM 16.34 61.412 0.049 7.16 4.79 9.55
9/11/2021 5:45:00 PM 16.33 61.394 0.049 7.14 11.21 9.51
9/11/2021 6:00:00 PM 16.31 61.358 0.049 7.12 6.64 9.48
9/11/2021 6:15:00 PM 16.28 61.304 0.049 7.12 12.54 9.45
9/11/2021 6:30:00 PM 16.23 61.214 0.049 7.1 31.62 9.43
9/11/2021 6:45:00 PM 16.17 61.106 0.049 7.09 8.86 9.42
9/11/2021 7:00:00 PM 16.09 60.962 0.049 7.07 17.89 9.41
9/11/2021 7:15:00 PM 15.99 60.782 0.049 7.07 15.81 9.4
9/11/2021 7:30:00 PM 15.88 60.584 0.048 7.05 23.9 9.4
9/11/2021 7:45:00 PM 15.77 60.386 0.049 7.04 2.5 9.39
9/11/2021 8:00:00 PM 15.66 60.188 0.049 7.04 1.3 9.4
9/11/2021 8:15:00 PM 15.55 59.99 0.048 7.03 18.05 9.41
9/11/2021 8:30:00 PM 15.45 59.81 0.047 7.01 14.01 9.43
9/11/2021 8:45:00 PM 15.35 59.63 0.049 7.03 1.72 9.44
9/11/2021 9:00:00 PM 15.25 59.45 0.05 7.02 4.99 9.46
9/11/2021 9:15:00 PM 15.15 59.27 0.05 7.01 2.34 9.48
9/11/2021 9:30:00 PM 15.05 59.09 0.05 7.03 18.8 9.51
9/11/2021 9:45:00 PM 14.95 58.91 0.047 7.01 639.13 9.53
9/11/2021 10:00:00 PM 14.87 58.766 0.047 7.03 10.12 9.57
9/11/2021 10:15:00 PM 14.79 58.622 0.05 7.01 18.28 9.56
9/11/2021 10:30:00 PM 14.71 58.478 0.05 7.02 18.49 9.58
9/11/2021 10:45:00 PM 14.63 58.334 0.047 7 163.73 9.6
9/11/2021 11:00:00 PM 14.55 58.19 0.05 7.02 4.33 9.64
9/11/2021 11:15:00 PM 14.48 58.064 0.047 7.01 1.69 9.65
9/11/2021 11:30:00 PM 14.41 57.938 0.047 7.02 10.17 9.67
9/11/2021 11:45:00 PM 14.35 57.83 0.047 7 4.32 9.65
9/12/2021 12:00:00 AM 14.29 57.722 0.05 6.99 5.2 9.69
9/12/2021 12:15:00 AM 14.22 57.596 0.05 7 8.11 9.68
9/12/2021 12:30:00 AM 14.17 57.506 0.05 7.01 85.76 9.74
9/12/2021 12:45:00 AM 14.11 57.398 0.05 7.01 211.42 9.73
9/12/2021 1:00:00 AM 14.06 57.308 0.05 7 2.61 9.74
9/12/2021 1:15:00 AM 14.01 57.218 0.05 7 17.37 9.73
9/12/2021 1:30:00 AM 13.97 57.146 0.051 7 10.17 9.74
9/12/2021 1:45:00 AM 13.93 57.074 0.049 7 9.36 9.74
9/12/2021 2:00:00 AM 13.9 57.02 0.048 6.98 5.87 9.75
9/12/2021 2:15:00 AM 13.86 56.948 0.051 6.98 2.41 9.75
9/12/2021 2:30:00 AM 13.83 56.894 0.049 6.99 6.42 9.78
9/12/2021 2:45:00 AM 13.8 56.84 0.051 6.98 8.62 9.75
9/12/2021 3:00:00 AM 13.78 56.804 0.051 6.99 2.48 9.74
9/12/2021 3:15:00 AM 13.75 56.75 0.05 6.98 14.85 9.77
9/12/2021 3:30:00 AM 13.72 56.696 0.051 6.98 260.54 9.77
9/12/2021 3:45:00 AM 13.69 56.642 0.051 6.97 197.81 9.78
9/12/2021 4:00:00 AM 13.66 56.588 0.051 6.98 2.45 9.79
9/12/2021 4:15:00 AM 13.64 56.552 0.051 6.99 2.26 9.79
9/12/2021 4:30:00 AM 13.63 56.534 0.051 6.98 2.36 9.79
9/12/2021 4:45:00 AM 13.61 56.498 0.047 6.98 2.87 9.81
9/12/2021 5:00:00 AM 13.58 56.444 0.048 6.99 4.08 9.83
9/12/2021 5:15:00 AM 13.56 56.408 0.051 6.99 7.34 9.85
9/12/2021 5:30:00 AM 13.54 56.372 0.05 6.97 1.94 9.83
9/12/2021 5:45:00 AM 13.52 56.336 0.051 7 4.8 9.87
9/12/2021 6:00:00 AM 13.5 56.3 0.048 6.98 5.86 9.84
9/12/2021 6:15:00 AM 13.48 56.264 0.051 6.97 13.65 9.84
9/12/2021 6:30:00 AM 13.46 56.228 0.05 6.97 330.94 9.85
9/12/2021 6:45:00 AM 13.45 56.21 0.05 6.99 275.23 9.87
9/12/2021 7:00:00 AM 13.43 56.174 0.051 6.96 61.98 9.86
9/12/2021 7:15:00 AM 13.42 56.156 0.048 6.97 18.14 9.87
9/12/2021 7:30:00 AM 13.41 56.138 0.051 6.99 2.24 9.92
9/12/2021 7:45:00 AM 13.41 56.138 0.049 7.01 79.67 9.94
9/12/2021 8:00:00 AM 13.41 56.138 0.048 6.99 2.4 9.96
9/12/2021 8:15:00 AM 13.43 56.174 0.051 7.01 645.83 10
9/12/2021 8:30:00 AM 13.46 56.228 0.051 7.02 6.3 10.02
9/12/2021 8:45:00 AM 13.5 56.3 0.049 7.03 3.11 10.03
9/12/2021 9:00:00 AM 13.54 56.372 0.05 7.03 113.1 10.04
9/12/2021 9:15:00 AM 13.59 56.462 0.05 7.04 4.63 10.03
9/12/2021 9:30:00 AM 13.63 56.534 0.05 7.04 2.44 10.02
9/12/2021 9:45:00 AM 13.69 56.642 0.05 7.06 18.92 10.02
9/12/2021 10:00:00 AM 13.77 56.786 0.049 7.06 232.69 10.03
9/12/2021 10:15:00 AM 13.84 56.912 0.05 7.07 3.84 10.01
9/12/2021 10:30:00 AM 13.91 57.038 0.049 7.09 11.96 10.01
9/12/2021 10:45:00 AM 14.02 57.236 0.05 7.11 2.48 10.01
9/12/2021 11:00:00 AM 14.12 57.416 0.05 7.11 4.18 9.99
9/12/2021 11:15:00 AM 14.21 57.578 0.049 7.09 9.27 9.99
9/12/2021 11:30:00 AM 14.28 57.704 0.047 7.1 1.89 9.97
9/12/2021 11:45:00 AM 14.37 57.866 0.05 7.13 3.18 9.95
9/12/2021 12:00:00 PM 14.46 58.028 0.049 7.12 2.24 9.94
9/12/2021 12:15:00 PM 14.54 58.172 0.05 7.13 18.41 9.9
9/12/2021 12:30:00 PM 14.61 58.298 0.05 7.13 7.33 9.93
9/12/2021 12:45:00 PM 14.68 58.424 0.05 7.14 37.97 9.9
9/12/2021 1:00:00 PM 14.76 58.568 0.05 7.14 16.57 9.9
9/12/2021 1:15:00 PM 14.83 58.694 0.049 7.15 1.79 9.85
9/12/2021 1:30:00 PM 14.92 58.856 0.049 7.14 2.01 9.87
9/12/2021 1:45:00 PM 15.03 59.054 0.049 7.15 2 9.87
9/12/2021 2:00:00 PM 15.14 59.252 0.049 7.16 5.12 9.88
9/12/2021 2:15:00 PM 15.25 59.45 0.048 7.18 4.26 9.85
9/12/2021 2:30:00 PM 15.45 59.81 0.049 7.19 8.69 9.81
9/12/2021 2:45:00 PM 15.64 60.152 0.049 7.18 1.58 9.79
9/12/2021 3:00:00 PM 15.82 60.476 0.049 7.19 4.56 9.76
9/12/2021 3:15:00 PM 16.01 60.818 0.049 7.21 10.99 9.64
9/12/2021 3:30:00 PM 16.26 61.268 0.049 7.2 65.8 9.68
9/12/2021 3:45:00 PM 16.36 61.448 0.049 7.18 3.89 9.61
9/12/2021 4:00:00 PM 16.42 61.556 0.049 7.19 2 9.57
9/12/2021 4:15:00 PM 16.57 61.826 0.049 7.19 14.86 9.54
9/12/2021 4:30:00 PM 16.76 62.168 0.049 7.2 1.76 9.5
9/12/2021 4:45:00 PM 16.88 62.384 0.049 7.21 3.71 9.47
9/12/2021 5:00:00 PM 16.93 62.474 0.049 7.18 1.96 9.47
9/12/2021 5:15:00 PM 16.98 62.564 0.049 7.18 1.78 9.44
9/12/2021 5:30:00 PM 17.04 62.672 0.049 7.17 1.6 9.41
9/12/2021 5:45:00 PM 17.11 62.798 0.049 7.18 132.16 9.37
9/12/2021 6:00:00 PM 17.13 62.834 0.049 7.17 5.25 9.33
9/12/2021 6:15:00 PM 17.15 62.87 0.049 7.16 11.87 9.31
9/12/2021 6:30:00 PM 17.14 62.852 0.049 7.15 14.49 9.28
9/12/2021 6:45:00 PM 17.09 62.762 0.049 7.12 140.22 9.27
9/12/2021 7:00:00 PM 17.05 62.69 0.049 7.09 382.44 9.24
9/12/2021 7:15:00 PM 17.02 62.636 0.049 7.1 33.22 9.23
9/12/2021 7:30:00 PM 16.96 62.528 0.049 7.07 46.8 9.2
9/12/2021 7:45:00 PM 16.89 62.402 0.049 7.05 214.53 9.21
9/12/2021 8:00:00 PM 16.82 62.276 0.049 7.03 11.62 9.2
9/12/2021 8:15:00 PM 16.75 62.15 0.05 7.01 1.49 9.21
9/12/2021 8:30:00 PM 16.69 62.042 0.05 7.01 5 9.23
9/12/2021 8:45:00 PM 16.63 61.934 0.05 6.98 4.42 9.24
9/12/2021 9:00:00 PM 16.57 61.826 0.05 6.98 4.63 9.27
9/12/2021 9:15:00 PM 16.51 61.718 0.05 6.98 5.5 9.26
9/12/2021 9:30:00 PM 16.45 61.61 0.05 6.97 2.6 9.29
9/12/2021 9:45:00 PM 16.4 61.52 0.05 6.99 1783.78 9.3
9/12/2021 10:00:00 PM 16.35 61.43 0.05 6.98 1.8 9.32
9/12/2021 10:15:00 PM 16.29 61.322 0.05 6.97 7.54 9.33
9/12/2021 10:30:00 PM 16.24 61.232 0.05 6.98 32.49 9.33
9/12/2021 10:45:00 PM 16.2 61.16 0.05 6.97 5.2 9.34
9/12/2021 11:00:00 PM 16.16 61.088 0.05 6.96 964.32 9.32
9/12/2021 11:15:00 PM 16.11 60.998 0.05 6.96 4.92 9.36
9/12/2021 11:30:00 PM 16.06 60.908 0.051 6.95 574.32 9.36
9/12/2021 11:45:00 PM 16.01 60.818 0.05 6.96 1.91 9.36
9/13/2021 12:00:00 AM 15.96 60.728 0.05 6.96 2.79 9.4
9/13/2021 12:15:00 AM 15.92 60.656 0.05 6.96 4.67 9.4
9/13/2021 12:30:00 AM 15.88 60.584 0.05 6.97 133.82 9.42
9/13/2021 12:45:00 AM 15.84 60.512 0.05 6.98 3.6 9.4
9/13/2021 1:00:00 AM 15.8 60.44 0.048 6.94 5.98 9.4
9/13/2021 1:15:00 AM 15.76 60.368 0.048 6.93 2.94 9.45
9/13/2021 1:30:00 AM 15.73 60.314 0.051 6.98 964.7 9.43
9/13/2021 1:45:00 AM 15.71 60.278 0.051 6.98 8.97 9.44
9/13/2021 2:00:00 AM 15.69 60.242 0.05 6.94 13.93 9.46
9/13/2021 2:15:00 AM 15.67 60.206 0.051 6.99 344.77 9.45
9/13/2021 2:30:00 AM 15.67 60.206 0.051 6.99 376.57 9.47
9/13/2021 2:45:00 AM 15.66 60.188 0.051 7 253.97 9.46
9/13/2021 3:00:00 AM 15.64 60.152 0.051 7.01 4.57 9.48
9/13/2021 3:15:00 AM 15.64 60.152 0.05 7.03 183.63 9.48
9/13/2021 3:30:00 AM 15.64 60.152 0.051 6.97 127.86 9.47
9/13/2021 3:45:00 AM 15.61 60.098 0.051 7.02 146.95 9.48
9/13/2021 4:00:00 AM 15.6 60.08 0.051 6.97 432.09 9.47
9/13/2021 4:15:00 AM 15.59 60.062 0.051 7.01 5.2 9.49
9/13/2021 4:30:00 AM 15.58 60.044 0.051 7 7.83 9.48
9/13/2021 4:45:00 AM 15.57 60.026 0.05 6.97 1111.97 9.47
9/13/2021 5:00:00 AM 15.55 59.99 0.051 7.03 141.68 9.49
9/13/2021 5:15:00 AM 15.54 59.972 0.051 6.98 1.69 9.52
9/13/2021 5:30:00 AM 15.52 59.936 0.051 6.98 86.35 9.52
9/13/2021 5:45:00 AM 15.51 59.918 0.051 7 7.62 9.51
9/13/2021 6:00:00 AM 15.5 59.9 0.052 6.99 3.6 9.5
9/13/2021 6:15:00 AM 15.48 59.864 0.051 7 3.95 9.52
9/13/2021 6:30:00 AM 15.47 59.846 0.051 6.99 47.71 9.52
9/13/2021 6:45:00 AM 15.45 59.81 0.051 6.98 2.26 9.51
9/13/2021 7:00:00 AM 15.44 59.792 0.051 7 66.41 9.52
9/13/2021 7:15:00 AM 15.43 59.774 0.051 7 5.63 9.51
9/13/2021 7:30:00 AM 15.42 59.756 0.051 7.01 4.22 9.52
9/13/2021 7:45:00 AM 15.41 59.738 0.051 7 399.44 9.53
9/13/2021 8:00:00 AM 15.41 59.738 0.051 7.02 2.19 9.56
9/13/2021 8:15:00 AM 15.4 59.72 0.051 7.02 5.24 9.55
9/13/2021 8:30:00 AM 15.4 59.72 0.051 7.04 2.33 9.58
9/13/2021 8:45:00 AM 15.4 59.72 0.052 7.04 24.45 9.59
9/13/2021 9:00:00 AM 15.4 59.72 0.051 7.01 6.94 9.58
9/13/2021 9:15:00 AM 15.41 59.738 0.051 7.04 89.97 9.6
9/13/2021 9:30:00 AM 15.41 59.738 0.051 7.02 10.17 9.6
9/13/2021 9:45:00 AM 15.42 59.756 0.051 7.03 3.56 9.61
9/13/2021 10:00:00 AM 15.43 59.774 0.051 7.06 2.3 9.61
9/13/2021 10:15:00 AM 15.44 59.792 0.051 7.03 13.7 9.61
9/13/2021 10:30:00 AM 15.46 59.828 0.051 7.08 141.71 9.62
9/13/2021 10:45:00 AM 15.49 59.882 0.051 7.08 19.82 9.63
9/13/2021 11:00:00 AM 15.5 59.9 0.051 7.07 4.25 9.63
9/13/2021 11:15:00 AM 15.54 59.972 0.051 7.08 5.36 9.64
9/13/2021 11:30:00 AM 15.61 60.098 0.051 7.12 1.87 9.64
9/13/2021 11:45:00 AM 15.66 60.188 0.051 7.13 367.35 9.64
9/13/2021 12:00:00 PM 15.71 60.278 0.05 7.16 253.89 9.64
9/13/2021 12:15:00 PM 15.76 60.368 0.051 7.16 166.9 9.61
9/13/2021 12:30:00 PM 15.83 60.494 0.05 7.16 81.6 9.61
9/13/2021 12:45:00 PM 15.93 60.674 0.05 7.23 3.25 9.6
9/13/2021 1:00:00 PM 16.03 60.854 0.05 7.18 2.41 9.61
9/13/2021 1:15:00 PM 16.16 61.088 0.05 7.19 61.55 9.59
9/13/2021 1:30:00 PM 16.39 61.502 0.05 7.22 39.45 9.56
9/13/2021 1:45:00 PM 16.56 61.808 0.05 7.23 23.7 9.51
9/13/2021 2:00:00 PM 16.75 62.15 0.05 7.22 55.75 9.47
9/13/2021 2:15:00 PM 16.98 62.564 0.05 7.27 3.4 9.44
9/13/2021 2:30:00 PM 17.18 62.924 0.05 7.27 32.69 9.37
9/13/2021 2:45:00 PM 17.34 63.212 0.05 7.28 13.32 9.33
9/13/2021 3:00:00 PM 17.5 63.5 0.049 7.25 484.85 9.32
9/13/2021 3:15:00 PM 17.66 63.788 0.05 7.29 13.98 9.27
9/13/2021 3:30:00 PM 17.74 63.932 0.05 7.27 17.28 9.25
9/13/2021 3:45:00 PM 17.86 64.148 0.05 7.27 57.12 9.25
9/13/2021 4:00:00 PM 17.95 64.31 0.05 7.24 4.51 9.21
9/13/2021 4:15:00 PM 18.04 64.472 0.05 7.26 2.46 9.2
9/13/2021 4:30:00 PM 18.1 64.58 0.05 7.27 413.54 9.18
9/13/2021 4:45:00 PM 18.19 64.742 0.05 7.27 2.8 9.15
9/13/2021 5:00:00 PM 18.25 64.85 0.05 7.27 10.87 9.12
9/13/2021 5:15:00 PM 18.25 64.85 0.05 7.27 2.44 9.11
9/13/2021 5:30:00 PM 18.24 64.832 0.049 7.23 325.15 9.13
9/13/2021 5:45:00 PM 18.23 64.814 0.05 7.23 2.01 9.1
9/13/2021 6:00:00 PM 18.23 64.814 0.05 7.2 61.97 9.08
9/13/2021 6:15:00 PM 18.21 64.778 0.05 7.18 41.15 9.07
9/13/2021 6:30:00 PM 18.17 64.706 0.05 7.16 41.28 9.06
9/13/2021 6:45:00 PM 18.09 64.562 0.05 7.14 8.08 9.04
9/13/2021 7:00:00 PM 18 64.4 0.05 7.11 4.26 9
9/13/2021 7:15:00 PM 17.92 64.256 0.05 7.14 8.25 9.01
9/13/2021 7:30:00 PM 17.83 64.094 0.05 7.08 9.26 8.96
9/13/2021 7:45:00 PM 17.74 63.932 0.05 7.06 11.14 8.94
9/13/2021 8:00:00 PM 17.64 63.752 0.051 7.04 4.51 8.94
9/13/2021 8:15:00 PM 17.55 63.59 0.048 7.03 9.09 8.93
9/13/2021 8:30:00 PM 17.45 63.41 0.051 7.01 7.24 8.96
9/13/2021 8:45:00 PM 17.35 63.23 0.051 7.02 4.5 8.95
9/13/2021 9:00:00 PM 17.27 63.086 0.051 7.01 5.2 8.97
9/13/2021 9:15:00 PM 17.18 62.924 0.051 7.01 4.23 8.99
9/13/2021 9:30:00 PM 17.1 62.78 0.051 7.01 7.57 8.99
9/13/2021 9:45:00 PM 17.03 62.654 0.051 6.98 14.86 9
9/13/2021 10:00:00 PM 16.97 62.546 0.051 6.99 6.82 9.01
9/13/2021 10:15:00 PM 16.91 62.438 0.051 6.99 2.54 9.02
9/13/2021 10:30:00 PM 16.83 62.294 0.051 6.96 7.37 9.04
9/13/2021 10:45:00 PM 16.76 62.168 0.051 6.98 13.56 9.06
9/13/2021 11:00:00 PM 16.71 62.078 0.051 6.97 4.46 9.07
9/13/2021 11:15:00 PM 16.66 61.988 0.051 6.99 5.84 9.08
9/13/2021 11:30:00 PM 16.61 61.898 0.052 6.96 3.17 9.09
9/13/2021 11:45:00 PM 16.56 61.808 0.052 6.98 3.71 9.11
9/14/2021 12:00:00 AM 16.51 61.718 0.052 6.97 5.31 9.11
9/14/2021 12:15:00 AM 16.48 61.664 0.052 6.98 5.54 9.12
9/14/2021 12:30:00 AM 16.45 61.61 0.052 6.96 4.61 9.13
9/14/2021 12:45:00 AM 16.41 61.538 0.052 6.96 7.21 9.14
9/14/2021 1:00:00 AM 16.38 61.484 0.049 6.96 5.08 9.14
9/14/2021 1:15:00 AM 16.35 61.43 0.052 6.98 3.96 9.15
9/14/2021 1:30:00 AM 16.32 61.376 0.052 6.97 3.43 9.16
9/14/2021 1:45:00 AM 16.28 61.304 0.052 6.98 4.01 9.15
9/14/2021 2:00:00 AM 16.25 61.25 0.052 6.97 3.48 9.15
9/14/2021 2:15:00 AM 16.22 61.196 0.052 6.97 4.86 9.16
9/14/2021 2:30:00 AM 16.19 61.142 0.052 6.95 2.96 9.16
9/14/2021 2:45:00 AM 16.16 61.088 0.052 6.96 4.35 9.17
9/14/2021 3:00:00 AM 16.14 61.052 0.052 6.96 5.98 9.17
9/14/2021 3:15:00 AM 16.11 60.998 0.052 6.95 3.27 9.16
9/14/2021 3:30:00 AM 16.08 60.944 0.052 6.96 3.81 9.18
9/14/2021 3:45:00 AM 16.05 60.89 0.051 6.94 4.96 9.18
9/14/2021 4:00:00 AM 16.02 60.836 0.052 6.94 5.85 9.19
9/14/2021 4:15:00 AM 15.99 60.782 0.052 6.95 3.56 9.2
9/14/2021 4:30:00 AM 15.96 60.728 0.052 6.96 3 9.21
9/14/2021 4:45:00 AM 15.93 60.674 0.052 6.95 3.16 9.21
9/14/2021 5:00:00 AM 15.9 60.62 0.053 6.95 3.25 9.22
9/14/2021 5:15:00 AM 15.87 60.566 0.053 6.96 3.88 9.22
9/14/2021 5:30:00 AM 15.83 60.494 0.053 6.93 3.74 9.22
9/14/2021 5:45:00 AM 15.81 60.458 0.05 6.94 8.68 9.23
9/14/2021 6:00:00 AM 15.78 60.404 0.053 6.96 5.17 9.25
9/14/2021 6:15:00 AM 15.76 60.368 0.053 6.95 4.17 9.23
9/14/2021 6:30:00 AM 15.74 60.332 0.053 6.95 5.1 9.24
9/14/2021 6:45:00 AM 15.71 60.278 0.053 6.95 4.74 9.24
9/14/2021 7:00:00 AM 15.69 60.242 0.053 6.98 7.43 9.26
9/14/2021 7:15:00 AM 15.67 60.206 0.053 6.96 4.39 9.26
9/14/2021 7:30:00 AM 15.65 60.17 0.053 6.98 4.08 9.3
9/14/2021 7:45:00 AM 15.63 60.134 0.053 6.97 3.67 9.32
9/14/2021 8:00:00 AM 15.62 60.116 0.053 6.98 3.2 9.34
9/14/2021 8:15:00 AM 15.61 60.098 0.053 7 2.97 9.37
9/14/2021 8:30:00 AM 15.62 60.116 0.053 7 3.38 9.43
9/14/2021 8:45:00 AM 15.63 60.134 0.052 7.01 3.84 9.47
9/14/2021 9:00:00 AM 15.65 60.17 0.051 7.02 6.12 9.55
9/14/2021 9:15:00 AM 15.68 60.224 0.052 7.03 10.88 9.59
9/14/2021 9:30:00 AM 15.73 60.314 0.049 7.05 5.7 9.63
9/14/2021 9:45:00 AM 15.8 60.44 0.052 7.08 4.82 9.67
9/14/2021 10:00:00 AM 15.85 60.53 0.052 7.08 7 9.66
9/14/2021 10:15:00 AM 15.88 60.584 0.052 7.08 8.52 9.66
9/14/2021 10:30:00 AM 15.93 60.674 0.052 7.11 4.12 9.68
9/14/2021 10:45:00 AM 16.02 60.836 0.052 7.1 10.52 9.68
9/14/2021 11:00:00 AM 16.15 61.07 0.051 7.14 5.19 9.71
9/14/2021 11:15:00 AM 16.21 61.178 0.051 7.16 3.6 9.72
9/14/2021 11:30:00 AM 16.26 61.268 0.051 7.14 12.68 9.69
9/14/2021 11:45:00 AM 16.37 61.466 0.051 7.18 7.61 9.69
9/14/2021 12:00:00 PM 16.57 61.826 0.051 7.19 7.25 9.67
9/14/2021 12:15:00 PM 16.73 62.114 0.051 7.2 7.98 9.65
9/14/2021 12:30:00 PM 16.91 62.438 0.051 7.22 10.47 9.63
9/14/2021 12:45:00 PM 17.01 62.618 0.051 7.23 5.65 9.6
9/14/2021 1:00:00 PM 17.12 62.816 0.051 7.22 8.46 9.57
9/14/2021 1:15:00 PM 17.32 63.176 0.051 7.24 21.07 9.54
9/14/2021 1:30:00 PM 17.63 63.734 0.051 7.23 9.52 9.49
9/14/2021 1:45:00 PM 17.79 64.022 0.051 7.25 10 9.47
9/14/2021 2:00:00 PM 17.85 64.13 0.05 7.25 4.9 9.44
9/14/2021 2:15:00 PM 17.94 64.292 0.051 7.24 14.99 9.42
9/14/2021 2:30:00 PM 18.1 64.58 0.051 7.26 62.54 9.38
9/14/2021 2:45:00 PM 18.32 64.976 0.051 7.24 16.47 9.31
9/14/2021 3:00:00 PM 18.51 65.318 0.051 7.26 9.89 9.28
9/14/2021 3:15:00 PM 18.56 65.408 0.05 7.25 3.59 9.26
9/14/2021 3:30:00 PM 18.64 65.552 0.05 7.27 8.93 9.25
9/14/2021 3:45:00 PM 18.68 65.624 0.05 7.26 22.81 9.22
9/14/2021 4:00:00 PM 18.77 65.786 0.05 7.24 108.09 9.17
9/14/2021 4:15:00 PM 18.86 65.948 0.05 7.24 2.06 9.14
9/14/2021 4:30:00 PM 18.89 66.002 0.05 7.23 18.08 9.13
9/14/2021 4:45:00 PM 18.87 65.966 0.05 7.24 10.44 9.09
9/14/2021 5:00:00 PM 18.88 65.984 0.05 7.23 2.05 9.1
9/14/2021 5:15:00 PM 18.9 66.02 0.05 7.23 2.84 9.11
9/14/2021 5:30:00 PM 18.89 66.002 0.05 7.21 12.44 9.08
9/14/2021 5:45:00 PM 18.86 65.948 0.05 7.21 4.2 9.05
9/14/2021 6:00:00 PM 18.82 65.876 0.05 7.21 24.09 9.03
9/14/2021 6:15:00 PM 18.78 65.804 0.05 7.18 2.89 8.99
9/14/2021 6:30:00 PM 18.74 65.732 0.05 7.19 11.55 8.97
9/14/2021 6:45:00 PM 18.69 65.642 0.051 7.18 2.89 8.94
9/14/2021 7:00:00 PM 18.61 65.498 0.05 7.15 20.98 8.9
9/14/2021 7:15:00 PM 18.53 65.354 0.051 7.12 2.87 8.9
9/14/2021 7:30:00 PM 18.43 65.174 0.051 7.11 150.72 8.9
9/14/2021 7:45:00 PM 18.33 64.994 0.051 7.09 6.81 8.87
9/14/2021 8:00:00 PM 18.23 64.814 0.051 7.09 27.47 8.91
9/14/2021 8:15:00 PM 18.13 64.634 0.051 7.06 151.55 8.92
9/14/2021 8:30:00 PM 18.04 64.472 0.051 7.07 2.49 8.94
9/14/2021 8:45:00 PM 17.96 64.328 0.051 7.06 5.06 8.94
9/14/2021 9:00:00 PM 17.87 64.166 0.051 7.06 204.39 8.96
9/14/2021 9:15:00 PM 17.79 64.022 0.052 7.06 2.48 9.01
9/14/2021 9:30:00 PM 17.71 63.878 0.051 7.09 3.5 9.04
9/14/2021 9:45:00 PM 17.63 63.734 0.052 7.08 21.2 9.05
9/14/2021 10:00:00 PM 17.56 63.608 0.052 7.06 28.29 9.03
9/14/2021 10:15:00 PM 17.48 63.464 0.052 7.08 4.42 9.08
9/14/2021 10:30:00 PM 17.41 63.338 0.052 7.07 5.6 9.1
9/14/2021 10:45:00 PM 17.34 63.212 0.05 7.06 37.71 9.08
9/14/2021 11:00:00 PM 17.27 63.086 0.052 7.06 5.96 9.14
9/14/2021 11:15:00 PM 17.21 62.978 0.052 7.07 3.52 9.12
9/14/2021 11:30:00 PM 17.14 62.852 0.052 7.07 16.84 9.15
9/14/2021 11:45:00 PM 17.08 62.744 0.052 7.09 65.31 9.17
9/15/2021 12:00:00 AM 17.02 62.636 0.052 7.06 3.09 9.17
9/15/2021 12:15:00 AM 16.96 62.528 0.052 7.05 16.32 9.19
9/15/2021 12:30:00 AM 16.9 62.42 0.052 7.07 4.68 9.22
9/15/2021 12:45:00 AM 16.84 62.312 0.052 7.07 14.69 9.25
9/15/2021 1:00:00 AM 16.79 62.222 0.052 7.05 327.98 9.22
9/15/2021 1:15:00 AM 16.73 62.114 0.052 7.07 741.66 9.28
9/15/2021 1:30:00 AM 16.68 62.024 0.052 7.06 5.4 9.26
9/15/2021 1:45:00 AM 16.63 61.934 0.051 7.07 16.79 9.26
9/15/2021 2:00:00 AM 16.57 61.826 0.052 7.05 548.49 9.28
9/15/2021 2:15:00 AM 16.53 61.754 0.051 7.06 2.85 9.28
9/15/2021 2:30:00 AM 16.49 61.682 0.052 7.08 4.22 9.32
9/15/2021 2:45:00 AM 16.44 61.592 0.053 7.06 3.67 9.33
9/15/2021 3:00:00 AM 16.4 61.52 0.053 7.06 1.79 9.33
9/15/2021 3:15:00 AM 16.36 61.448 0.053 7.04 122.93 9.32
9/15/2021 3:30:00 AM 16.31 61.358 0.053 7.06 16.01 9.34
9/15/2021 3:45:00 AM 16.27 61.286 0.052 7.05 3.06 9.35
9/15/2021 4:00:00 AM 16.22 61.196 0.052 7.05 13.76 9.37
9/15/2021 4:15:00 AM 16.18 61.124 0.052 7.04 30.13 9.34
9/15/2021 4:30:00 AM 16.14 61.052 0.051 7.05 5.74 9.36
9/15/2021 4:45:00 AM 16.1 60.98 0.05 7.05 7.34 9.36
9/15/2021 5:00:00 AM 16.06 60.908 0.05 7.05 12.75 9.37
9/15/2021 5:15:00 AM 16.02 60.836 0.052 7.07 2.76 9.4
9/15/2021 5:30:00 AM 15.98 60.764 0.05 7.03 12.98 9.39
9/15/2021 5:45:00 AM 15.95 60.71 0.053 7.04 14.94 9.4
9/15/2021 6:00:00 AM 15.91 60.638 0.052 7.06 3 9.42
9/15/2021 6:15:00 AM 15.88 60.584 0.051 7.02 48.35 9.41
9/15/2021 6:30:00 AM 15.86 60.548 0.053 7.03 4.82 9.43
9/15/2021 6:45:00 AM 15.84 60.512 0.053 7.06 364.72 9.45
9/15/2021 7:00:00 AM 15.81 60.458 0.052 7.05 294.07 9.44
9/15/2021 7:15:00 AM 15.79 60.422 0.053 7.04 12.71 9.44
9/15/2021 7:30:00 AM 15.79 60.422 0.053 7.05 15.37 9.46
9/15/2021 7:45:00 AM 15.79 60.422 0.052 7.07 6.08 9.46
9/15/2021 8:00:00 AM 15.79 60.422 0.051 7.07 10.52 9.46
9/15/2021 8:15:00 AM 15.78 60.404 0.05 7.06 63.69 9.47
9/15/2021 8:30:00 AM 15.78 60.404 0.05 7.08 8.85 9.48
9/15/2021 8:45:00 AM 15.79 60.422 0.052 7.07 18.87 9.49
9/15/2021 9:00:00 AM 15.81 60.458 0.052 7.09 55.32 9.5
9/15/2021 9:15:00 AM 15.84 60.512 0.052 7.11 7.07 9.5
9/15/2021 9:30:00 AM 15.92 60.656 0.052 7.14 1.93 9.5
9/15/2021 9:45:00 AM 16 60.8 0.052 7.19 260.23 9.5
9/15/2021 10:00:00 AM 16.11 60.998 0.051 7.2 12.64 9.5
9/15/2021 10:15:00 AM 16.2 61.16 0.051 7.21 13.46 9.47
9/15/2021 10:30:00 AM 16.27 61.286 0.051 7.21 7.58 9.45
9/15/2021 10:45:00 AM 16.4 61.52 0.051 7.23 10.55 9.44
9/15/2021 11:00:00 AM 16.46 61.628 0.051 7.24 7.97 9.41
9/15/2021 11:15:00 AM 16.5 61.7 0.051 7.17 138.42 9.4
9/15/2021 11:30:00 AM 16.6 61.88 0.051 7.16 2.38 9.42
9/15/2021 11:45:00 AM 16.74 62.132 0.051 7.18 5.71 9.36
9/15/2021 12:00:00 PM 16.78 62.204 0.051 7.19 13.11 9.38
9/15/2021 12:15:00 PM 16.79 62.222 0.051 7.19 4.78 9.39
9/15/2021 12:30:00 PM 16.84 62.312 0.051 7.18 2.36 9.38
9/15/2021 12:45:00 PM 16.94 62.492 0.051 7.23 1.93 9.34
9/15/2021 1:00:00 PM 16.96 62.528 0.051 7.22 135.84 9.33
9/15/2021 1:15:00 PM 16.93 62.474 0.051 7.21 5.89 9.31
9/15/2021 1:30:00 PM 16.9 62.42 0.051 7.18 4.04 9.29
9/15/2021 1:45:00 PM 16.91 62.438 0.051 7.15 4.5 9.27
9/15/2021 2:00:00 PM 16.95 62.51 0.051 7.09 171.65 9.24
9/15/2021 2:15:00 PM 16.95 62.51 0.051 7.09 55.62 9.26
9/15/2021 2:30:00 PM 16.98 62.564 0.049 7.11 14.44 9.31
9/15/2021 2:45:00 PM 17.01 62.618 0.051 7.13 1.92 9.34
9/15/2021 3:00:00 PM 16.99 62.582 0.051 7.12 9.36 9.33
9/15/2021 3:15:00 PM 16.99 62.582 0.051 7.11 22.71 9.33
9/15/2021 3:30:00 PM 17.03 62.654 0.051 7.12 18.89 9.34
9/15/2021 3:45:00 PM 17.04 62.672 0.051 7.1 49.57 9.3
9/15/2021 4:00:00 PM 17.02 62.636 0.051 7.11 45.97 9.27
9/15/2021 4:15:00 PM 17 62.6 0.05 7.09 7.73 9.23
9/15/2021 4:30:00 PM 16.96 62.528 0.05 7.08 9.44 9.2
9/15/2021 4:45:00 PM 16.94 62.492 0.05 7.09 5.48 9.18
9/15/2021 5:00:00 PM 16.89 62.402 0.05 7.07 6.52 9.16
9/15/2021 5:15:00 PM 16.85 62.33 0.05 7.07 7.14 9.17
9/15/2021 5:30:00 PM 16.81 62.258 0.05 7.07 8.36 9.16
9/15/2021 5:45:00 PM 16.77 62.186 0.05 7.01 7.29 9.15
9/15/2021 6:00:00 PM 16.73 62.114 0.05 7.01 14.31 9.15
9/15/2021 6:15:00 PM 16.68 62.024 0.05 7.01 8.8 9.17
9/15/2021 6:30:00 PM 16.63 61.934 0.05 7 7.53 9.18
9/15/2021 6:45:00 PM 16.58 61.844 0.051 6.96 6.83 9.17
9/15/2021 7:00:00 PM 16.53 61.754 0.05 7.03 9.12 9.17
9/15/2021 7:15:00 PM 16.48 61.664 0.05 6.96 8.4 9.18
9/15/2021 7:30:00 PM 16.42 61.556 0.051 7.01 8.94 9.17
9/15/2021 7:45:00 PM 16.38 61.484 0.051 6.98 7.92 9.16
9/15/2021 8:00:00 PM 16.33 61.394 0.05 6.99 15.28 9.18
9/15/2021 8:15:00 PM 16.29 61.322 0.051 7 7.9 9.17
9/15/2021 8:30:00 PM 16.25 61.25 0.05 6.97 5.81 9.18
9/15/2021 8:45:00 PM 16.21 61.178 0.05 6.95 7.49 9.19
9/15/2021 9:00:00 PM 16.18 61.124 0.05 6.94 6.61 9.18
9/15/2021 9:15:00 PM 16.14 61.052 0.049 6.96 11.45 9.19
9/15/2021 9:30:00 PM 16.1 60.98 0.051 6.95 16.48 9.2
9/15/2021 9:45:00 PM 16.06 60.908 0.051 6.95 17.07 9.21
9/15/2021 10:00:00 PM 16.02 60.836 0.052 6.93 5.97 9.21
9/15/2021 10:15:00 PM 15.98 60.764 0.051 6.93 11.24 9.22
9/15/2021 10:30:00 PM 15.95 60.71 0.049 6.96 13.24 9.23
9/15/2021 10:45:00 PM 15.92 60.656 0.051 6.95 12.07 9.23
9/15/2021 11:00:00 PM 15.89 60.602 0.052 6.96 14.43 9.25
9/15/2021 11:15:00 PM 15.85 60.53 0.051 6.95 15.53 9.25
9/15/2021 11:30:00 PM 15.81 60.458 0.05 6.95 15.21 9.26
9/15/2021 11:45:00 PM 15.78 60.404 0.052 6.95 12.79 9.27
9/16/2021 12:00:00 AM 15.74 60.332 0.05 6.96 6.52 9.28
9/16/2021 12:15:00 AM 15.7 60.26 0.05 6.95 8.43 9.28
9/16/2021 12:30:00 AM 15.67 60.206 0.05 6.94 11.01 9.29
9/16/2021 12:45:00 AM 15.64 60.152 0.05 6.96 9.53 9.31
9/16/2021 1:00:00 AM 15.61 60.098 0.05 6.99 5.64 9.31
9/16/2021 1:15:00 AM 15.58 60.044 0.052 6.97 6.42 9.32
9/16/2021 1:30:00 AM 15.55 59.99 0.053 6.96 6.35 9.32
9/16/2021 1:45:00 AM 15.53 59.954 0.053 6.96 3.52 9.33
9/16/2021 2:00:00 AM 15.5 59.9 0.05 6.94 7.1 9.33
9/16/2021 2:15:00 AM 15.48 59.864 0.05 6.96 4.86 9.34
9/16/2021 2:30:00 AM 15.45 59.81 0.05 6.96 4.24 9.34
9/16/2021 2:45:00 AM 15.42 59.756 0.053 6.96 3.55 9.35
9/16/2021 3:00:00 AM 15.4 59.72 0.053 6.98 3.21 9.36
9/16/2021 3:15:00 AM 15.38 59.684 0.053 6.98 3.17 9.36
9/16/2021 3:30:00 AM 15.35 59.63 0.053 6.97 3.01 9.37
9/16/2021 3:45:00 AM 15.32 59.576 0.05 6.96 3.67 9.37
9/16/2021 4:00:00 AM 15.29 59.522 0.05 6.94 3.68 9.38
9/16/2021 4:15:00 AM 15.26 59.468 0.053 6.97 2.71 9.39
9/16/2021 4:30:00 AM 15.24 59.432 0.053 6.98 2.72 9.4
9/16/2021 4:45:00 AM 15.21 59.378 0.053 6.98 2.64 9.41
9/16/2021 5:00:00 AM 15.19 59.342 0.053 6.98 2.58 9.4
9/16/2021 5:15:00 AM 15.17 59.306 0.053 7 2.74 9.42
9/16/2021 5:30:00 AM 15.15 59.27 0.051 6.97 4.05 9.42
9/16/2021 5:45:00 AM 15.13 59.234 0.053 6.99 3.06 9.42
9/16/2021 6:00:00 AM 15.1 59.18 0.053 6.99 3.18 9.44
9/16/2021 6:15:00 AM 15.08 59.144 0.053 7 2.57 9.44
9/16/2021 6:30:00 AM 15.05 59.09 0.053 6.98 3.68 9.44
9/16/2021 6:45:00 AM 15.02 59.036 0.053 7 4.01 9.45
9/16/2021 7:00:00 AM 14.99 58.982 0.053 6.99 4.66 9.46
9/16/2021 7:15:00 AM 14.96 58.928 0.053 6.99 3.84 9.47
9/16/2021 7:30:00 AM 14.94 58.892 0.05 7 3.89 9.51
9/16/2021 7:45:00 AM 14.92 58.856 0.053 7.02 2.84 9.54
9/16/2021 8:00:00 AM 14.91 58.838 0.053 7.02 3 9.57
9/16/2021 8:15:00 AM 14.9 58.82 0.053 7.04 2.71 9.62
9/16/2021 8:30:00 AM 14.9 58.82 0.053 7.05 2.89 9.66
9/16/2021 8:45:00 AM 14.91 58.838 0.053 7.07 3.56 9.71
9/16/2021 9:00:00 AM 14.91 58.838 0.051 7.07 4.39 9.74
9/16/2021 9:15:00 AM 14.94 58.892 0.05 7.07 4.81 9.8
9/16/2021 9:30:00 AM 14.97 58.946 0.05 7.1 8.44 9.83
9/16/2021 9:45:00 AM 15.01 59.018 0.052 7.11 3.89 9.87
9/16/2021 10:00:00 AM 15.07 59.126 0.049 7.14 4.78 9.92
9/16/2021 10:15:00 AM 15.12 59.216 0.052 7.16 4.36 9.93
9/16/2021 10:30:00 AM 15.17 59.306 0.052 7.17 2.95 9.93
9/16/2021 10:45:00 AM 15.22 59.396 0.052 7.17 4.01 9.92
9/16/2021 11:00:00 AM 15.27 59.486 0.05 7.17 4.59 9.92
9/16/2021 11:15:00 AM 15.35 59.63 0.049 7.17 5 9.92
9/16/2021 11:30:00 AM 15.47 59.846 0.049 7.18 4.27 9.91
9/16/2021 11:45:00 AM 15.57 60.026 0.052 7.2 4.04 9.89
9/16/2021 12:00:00 PM 15.69 60.242 0.052 7.2 3.2 9.85
9/16/2021 12:15:00 PM 15.8 60.44 0.052 7.19 2.65 9.83
9/16/2021 12:30:00 PM 15.91 60.638 0.052 7.23 2.41 9.82
9/16/2021 12:45:00 PM 16.07 60.926 0.052 7.23 4.96 9.83
9/16/2021 1:00:00 PM 16.18 61.124 0.05 7.24 4.97 9.83
9/16/2021 1:15:00 PM 16.31 61.358 0.052 7.23 5.13 9.82
9/16/2021 1:30:00 PM 16.44 61.592 0.052 7.26 3.32 9.79
9/16/2021 1:45:00 PM 16.6 61.88 0.051 7.23 3.48 9.74
9/16/2021 2:00:00 PM 16.85 62.33 0.051 7.27 6.61 9.68
9/16/2021 2:15:00 PM 17.08 62.744 0.051 7.23 2.86 9.65
9/16/2021 2:30:00 PM 17.27 63.086 0.051 7.24 4.72 9.6
9/16/2021 2:45:00 PM 17.34 63.212 0.051 7.26 3.88 9.56
9/16/2021 3:00:00 PM 17.35 63.23 0.051 7.26 12.11 9.57
9/16/2021 3:15:00 PM 17.38 63.284 0.051 7.22 7.08 9.55
9/16/2021 3:30:00 PM 17.5 63.5 0.051 7.24 3.95 9.53
9/16/2021 3:45:00 PM 17.59 63.662 0.05 7.25 3.69 9.5
9/16/2021 4:00:00 PM 17.56 63.608 0.051 7.31 6.92 9.49
9/16/2021 4:15:00 PM 17.56 63.608 0.051 7.24 3.1 9.48
9/16/2021 4:30:00 PM 17.61 63.698 0.051 7.24 2.43 9.47
9/16/2021 4:45:00 PM 17.7 63.86 0.051 7.24 5.98 9.46
9/16/2021 5:00:00 PM 17.72 63.896 0.051 7.24 8.97 9.42
9/16/2021 5:15:00 PM 17.73 63.914 0.051 7.21 2.05 9.39
9/16/2021 5:30:00 PM 17.73 63.914 0.051 7.23 6.45 9.36
9/16/2021 5:45:00 PM 17.72 63.896 0.051 7.18 3.73 9.32
9/16/2021 6:00:00 PM 17.68 63.824 0.051 7.14 2.71 9.27
9/16/2021 6:15:00 PM 17.63 63.734 0.051 7.16 7.61 9.25
9/16/2021 6:30:00 PM 17.55 63.59 0.052 7.12 7.6 9.21
9/16/2021 6:45:00 PM 17.47 63.446 0.052 7.1 2.49 9.17
9/16/2021 7:00:00 PM 17.4 63.32 0.052 7.09 3.17 9.13
9/16/2021 7:15:00 PM 17.33 63.194 0.052 7.06 4.06 9.1
9/16/2021 7:30:00 PM 17.26 63.068 0.052 7.05 4.37 9.08
9/16/2021 7:45:00 PM 17.19 62.942 0.052 7.04 12.33 9.07
9/16/2021 8:00:00 PM 17.11 62.798 0.052 7.03 2.42 9.07
9/16/2021 8:15:00 PM 17.03 62.654 0.051 6.99 9.08 9.06
9/16/2021 8:30:00 PM 16.95 62.51 0.053 7 6.78 9.07
9/16/2021 8:45:00 PM 16.88 62.384 0.05 6.99 3.16 9.08
9/16/2021 9:00:00 PM 16.81 62.258 0.053 7 9.67 9.09
9/16/2021 9:15:00 PM 16.75 62.15 0.053 6.99 10.84 9.1
9/16/2021 9:30:00 PM 16.69 62.042 0.053 6.99 4.68 9.12
9/16/2021 9:45:00 PM 16.64 61.952 0.053 6.98 2.28 9.13
9/16/2021 10:00:00 PM 16.59 61.862 0.053 6.98 2.46 9.13
9/16/2021 10:15:00 PM 16.54 61.772 0.053 6.96 6.09 9.14
9/16/2021 10:30:00 PM 16.49 61.682 0.053 6.97 2.39 9.14
9/16/2021 10:45:00 PM 16.45 61.61 0.053 6.95 5.77 9.16
9/16/2021 11:00:00 PM 16.41 61.538 0.053 6.97 5.85 9.17
9/16/2021 11:15:00 PM 16.37 61.466 0.053 6.96 2.85 9.17
9/16/2021 11:30:00 PM 16.33 61.394 0.052 6.95 3.75 9.17
9/16/2021 11:45:00 PM 16.3 61.34 0.054 6.95 4.01 9.17
9/17/2021 12:00:00 AM 16.26 61.268 0.054 6.96 4.68 9.19
9/17/2021 12:15:00 AM 16.23 61.214 0.054 6.97 2.1 9.2
9/17/2021 12:30:00 AM 16.21 61.178 0.054 6.96 1.77 9.2
9/17/2021 12:45:00 AM 16.18 61.124 0.053 6.95 4.48 9.2
9/17/2021 1:00:00 AM 16.15 61.07 0.054 6.96 5.54 9.21
9/17/2021 1:15:00 AM 16.13 61.034 0.054 6.95 2.88 9.21
9/17/2021 1:30:00 AM 16.1 60.98 0.053 6.93 5.82 9.2
9/17/2021 1:45:00 AM 16.08 60.944 0.054 6.95 2.19 9.22
9/17/2021 2:00:00 AM 16.06 60.908 0.054 6.95 5.6 9.22
9/17/2021 2:15:00 AM 16.03 60.854 0.054 6.94 3.11 9.23
9/17/2021 2:30:00 AM 16.01 60.818 0.054 6.94 2.14 9.22
9/17/2021 2:45:00 AM 15.99 60.782 0.054 6.95 3.57 9.23
9/17/2021 3:00:00 AM 15.97 60.746 0.054 6.95 3.23 9.22
9/17/2021 3:15:00 AM 15.95 60.71 0.054 6.96 2.28 9.24
9/17/2021 3:30:00 AM 15.93 60.674 0.054 6.92 2.05 9.23
9/17/2021 3:45:00 AM 15.91 60.638 0.053 6.94 3.11 9.24
9/17/2021 4:00:00 AM 15.88 60.584 0.054 6.93 3.78 9.24
9/17/2021 4:15:00 AM 15.86 60.548 0.054 6.95 3.36 9.26
9/17/2021 4:30:00 AM 15.84 60.512 0.054 6.94 2.98 9.25
9/17/2021 4:45:00 AM 15.82 60.476 0.054 6.96 4.8 9.27
9/17/2021 5:00:00 AM 15.8 60.44 0.054 6.94 4.26 9.27
9/17/2021 5:15:00 AM 15.78 60.404 0.054 6.94 2.74 9.28
9/17/2021 5:30:00 AM 15.76 60.368 0.054 6.94 2.04 9.28
9/17/2021 5:45:00 AM 15.73 60.314 0.054 6.93 1.95 9.29
9/17/2021 6:00:00 AM 15.69 60.242 0.054 6.93 3.27 9.3
9/17/2021 6:15:00 AM 15.65 60.17 0.054 6.94 1.9 9.3
9/17/2021 6:30:00 AM 15.62 60.116 0.054 6.94 5.52 9.31
9/17/2021 6:45:00 AM 15.6 60.08 0.054 6.94 1.64 9.32
9/17/2021 7:00:00 AM 15.57 60.026 0.053 6.94 2.57 9.32
9/17/2021 7:15:00 AM 15.55 59.99 0.054 6.94 4.85 9.34
9/17/2021 7:30:00 AM 15.52 59.936 0.052 6.94 2.86 9.36
9/17/2021 7:45:00 AM 15.51 59.918 0.054 6.96 2.21 9.38
9/17/2021 8:00:00 AM 15.5 59.9 0.053 6.94 6.79 9.4
9/17/2021 8:15:00 AM 15.49 59.882 0.054 6.96 2.21 9.44
9/17/2021 8:30:00 AM 15.5 59.9 0.054 6.97 1.9 9.5
9/17/2021 8:45:00 AM 15.5 59.9 0.054 7 1.88 9.54
9/17/2021 9:00:00 AM 15.5 59.9 0.054 6.98 2.33 9.54
9/17/2021 9:15:00 AM 15.5 59.9 0.054 6.98 3.33 9.57
9/17/2021 9:30:00 AM 15.52 59.936 0.053 6.99 2.76 9.59
9/17/2021 9:45:00 AM 15.55 59.99 0.054 7 1.72 9.64
9/17/2021 10:00:00 AM 15.59 60.062 0.051 7.03 4.92 9.68
9/17/2021 10:15:00 AM 15.62 60.116 0.054 7.06 1.8 9.73
9/17/2021 10:30:00 AM 15.66 60.188 0.053 7.08 2.81 9.76
9/17/2021 10:45:00 AM 15.74 60.332 0.053 7.11 1.87 9.79
9/17/2021 11:00:00 AM 15.82 60.476 0.053 7.13 2 9.82
9/17/2021 11:15:00 AM 15.9 60.62 0.052 7.12 2.72 9.81
9/17/2021 11:30:00 AM 15.94 60.692 0.053 7.12 1.94 9.79
9/17/2021 11:45:00 AM 16.04 60.872 0.053 7.18 2.58 9.82
9/17/2021 12:00:00 PM 16.16 61.088 0.053 7.2 1.54 9.83
9/17/2021 12:15:00 PM 16.33 61.394 0.053 7.19 2.03 9.82
9/17/2021 12:30:00 PM 16.48 61.664 0.053 7.22 1.42 9.81
9/17/2021 12:45:00 PM 16.61 61.898 0.053 7.22 1.75 9.78
9/17/2021 1:00:00 PM 16.61 61.898 0.053 7.23 1.64 9.74
9/17/2021 1:15:00 PM 16.64 61.952 0.053 7.24 1.64 9.72
9/17/2021 1:30:00 PM 16.73 62.114 0.053 7.2 2.22 9.69
9/17/2021 1:45:00 PM 16.84 62.312 0.053 7.2 3.44 9.67
9/17/2021 2:00:00 PM 16.91 62.438 0.053 7.23 1.63 9.65
9/17/2021 2:15:00 PM 16.95 62.51 0.053 7.22 1.87 9.64
9/17/2021 2:30:00 PM 17.03 62.654 0.053 7.23 1.47 9.62
9/17/2021 2:45:00 PM 17.12 62.816 0.053 7.24 1.68 9.59
9/17/2021 3:00:00 PM 17.27 63.086 0.052 7.25 1.58 9.59
9/17/2021 3:15:00 PM 17.41 63.338 0.052 7.24 1.37 9.58
9/17/2021 3:30:00 PM 17.5 63.5 0.051 7.28 2.46 9.58
9/17/2021 3:45:00 PM 17.59 63.662 0.052 7.24 1.98 9.56
9/17/2021 4:00:00 PM 17.79 64.022 0.052 7.26 3.74 9.53
9/17/2021 4:15:00 PM 17.92 64.256 0.052 7.26 1.77 9.48
9/17/2021 4:30:00 PM 18 64.4 0.052 7.25 1.54 9.44
9/17/2021 4:45:00 PM 18.11 64.598 0.052 7.25 1.71 9.4
9/17/2021 5:00:00 PM 18.18 64.724 0.052 7.25 1.42 9.35
9/17/2021 5:15:00 PM 18.23 64.814 0.052 7.22 1.42 9.31
9/17/2021 5:30:00 PM 18.28 64.904 0.052 7.25 1.47 9.27
9/17/2021 5:45:00 PM 18.27 64.886 0.052 7.21 1.31 9.2
9/17/2021 6:00:00 PM 18.24 64.832 0.052 7.18 1.47 9.16
9/17/2021 6:15:00 PM 18.18 64.724 0.053 7.16 1.78 9.12
9/17/2021 6:30:00 PM 18.13 64.634 0.053 7.16 1.75 9.09
9/17/2021 6:45:00 PM 18.04 64.472 0.053 7.14 2.82 9.07
9/17/2021 7:00:00 PM 17.93 64.274 0.053 7.13 2.23 9.05
9/17/2021 7:15:00 PM 17.82 64.076 0.053 7.11 2.15 9.03
9/17/2021 7:30:00 PM 17.7 63.86 0.053 7.09 2.32 9.01
9/17/2021 7:45:00 PM 17.59 63.662 0.052 7.07 3.46 8.99
9/17/2021 8:00:00 PM 17.48 63.464 0.053 7.03 1.64 8.99
9/17/2021 8:15:00 PM 17.37 63.266 0.053 7.06 1.8 8.99
9/17/2021 8:30:00 PM 17.26 63.068 0.054 7.05 1.53 8.99
9/17/2021 8:45:00 PM 17.16 62.888 0.054 7.03 1.53 9
9/17/2021 9:00:00 PM 17.07 62.726 0.054 7 1.48 9.01
9/17/2021 9:15:00 PM 16.98 62.564 0.054 7.03 2.56 9.04
9/17/2021 9:30:00 PM 16.88 62.384 0.054 7.01 1.63 9.04
9/17/2021 9:45:00 PM 16.8 62.24 0.054 6.98 1.59 9.05
9/17/2021 10:00:00 PM 16.72 62.096 0.054 7 1.67 9.07
9/17/2021 10:15:00 PM 16.64 61.952 0.054 6.99 1.66 9.09
9/17/2021 10:30:00 PM 16.57 61.826 0.054 6.99 6.08 9.09
9/17/2021 10:45:00 PM 16.5 61.7 0.054 6.98 1.88 9.1
9/17/2021 11:00:00 PM 16.43 61.574 0.051 6.98 3.27 9.13
9/17/2021 11:15:00 PM 16.37 61.466 0.051 6.98 3.35 9.13
9/17/2021 11:30:00 PM 16.32 61.376 0.054 6.96 1.59 9.15
9/17/2021 11:45:00 PM 16.26 61.268 0.053 6.95 2.42 9.16
9/18/2021 12:00:00 AM 16.22 61.196 0.054 6.98 1.79 9.17
9/18/2021 12:15:00 AM 16.19 61.142 0.054 6.97 2.34 9.17
9/18/2021 12:30:00 AM 16.16 61.088 0.054 6.96 2.88 9.18
9/18/2021 12:45:00 AM 16.13 61.034 0.054 6.98 1.61 9.19
9/18/2021 1:00:00 AM 16.1 60.98 0.054 6.97 1.97 9.2
9/18/2021 1:15:00 AM 16.08 60.944 0.054 6.97 4.84 9.2
9/18/2021 1:30:00 AM 16.05 60.89 0.052 6.98 3.67 9.2
9/18/2021 1:45:00 AM 16.03 60.854 0.054 6.97 1.51 9.2
9/18/2021 2:00:00 AM 16.01 60.818 0.054 6.99 1.78 9.21
9/18/2021 2:15:00 AM 15.99 60.782 0.054 6.98 2.77 9.21
9/18/2021 2:30:00 AM 15.97 60.746 0.054 6.97 2.39 9.21
9/18/2021 2:45:00 AM 15.94 60.692 0.054 6.96 6.34 9.22
9/18/2021 3:00:00 AM 15.92 60.656 0.054 6.98 1.72 9.22
9/18/2021 3:15:00 AM 15.9 60.62 0.053 6.95 2.56 9.23
9/18/2021 3:30:00 AM 15.87 60.566 0.054 6.96 2.47 9.23
9/18/2021 3:45:00 AM 15.84 60.512 0.054 6.97 2.89 9.23
9/18/2021 4:00:00 AM 15.81 60.458 0.054 6.97 1.73 9.23
9/18/2021 4:15:00 AM 15.79 60.422 0.053 6.97 2.46 9.24
9/18/2021 4:30:00 AM 15.76 60.368 0.052 6.98 2.19 9.25
9/18/2021 4:45:00 AM 15.72 60.296 0.054 6.96 1.46 9.23
9/18/2021 5:00:00 AM 15.68 60.224 0.055 6.97 1.57 9.26
9/18/2021 5:15:00 AM 15.65 60.17 0.055 6.98 1.63 9.27
9/18/2021 5:30:00 AM 15.61 60.098 0.055 6.97 1.6 9.28
9/18/2021 5:45:00 AM 15.57 60.026 0.055 6.97 2.29 9.3
9/18/2021 6:00:00 AM 15.54 59.972 0.055 6.97 1.78 9.3
9/18/2021 6:15:00 AM 15.5 59.9 0.055 6.98 1.63 9.31
9/18/2021 6:30:00 AM 15.47 59.846 0.055 6.97 1.62 9.31
9/18/2021 6:45:00 AM 15.44 59.792 0.053 6.93 2.6 9.31
9/18/2021 7:00:00 AM 15.41 59.738 0.055 6.97 2.2 9.34
9/18/2021 7:15:00 AM 15.38 59.684 0.053 6.96 2.54 9.34
9/18/2021 7:30:00 AM 15.35 59.63 0.054 6.95 1.99 9.36
9/18/2021 7:45:00 AM 15.33 59.594 0.052 6.97 3.05 9.39
9/18/2021 8:00:00 AM 15.31 59.558 0.054 6.97 1.63 9.43
9/18/2021 8:15:00 AM 15.3 59.54 0.054 6.97 1.54 9.47
9/18/2021 8:30:00 AM 15.29 59.522 0.054 6.99 1.86 9.52
9/18/2021 8:45:00 AM 15.27 59.486 0.054 6.98 1.53 9.53
9/18/2021 9:00:00 AM 15.27 59.486 0.054 7 2.35 9.58
9/18/2021 9:15:00 AM 15.28 59.504 0.053 7 2.4 9.63
9/18/2021 9:30:00 AM 15.3 59.54 0.054 7.02 1.43 9.68
9/18/2021 9:45:00 AM 15.32 59.576 0.054 7.02 1.72 9.7
9/18/2021 10:00:00 AM 15.37 59.666 0.054 7.06 3.02 9.73
9/18/2021 10:15:00 AM 15.47 59.846 0.054 7.1 1.46 9.74
9/18/2021 10:30:00 AM 15.57 60.026 0.054 7.12 1.92 9.74
9/18/2021 10:45:00 AM 15.66 60.188 0.054 7.13 1.71 9.75
9/18/2021 11:00:00 AM 15.75 60.35 0.053 7.13 1.67 9.75
9/18/2021 11:15:00 AM 15.88 60.584 0.053 7.13 2.56 9.75
9/18/2021 11:30:00 AM 16.05 60.89 0.053 7.16 1.45 9.76
9/18/2021 11:45:00 AM 16.24 61.232 0.053 7.18 2.61 9.76
9/18/2021 12:00:00 PM 16.34 61.412 0.053 7.2 2.3 9.76
9/18/2021 12:15:00 PM 16.58 61.844 0.053 7.22 1.42 9.76
9/18/2021 12:30:00 PM 16.75 62.15 0.053 7.22 2.41 9.73
9/18/2021 12:45:00 PM 16.82 62.276 0.053 7.24 1.83 9.7
9/18/2021 1:00:00 PM 16.92 62.456 0.053 7.24 2.1 9.68
9/18/2021 1:15:00 PM 17.13 62.834 0.053 7.24 1.64 9.63
9/18/2021 1:30:00 PM 17.39 63.302 0.053 7.25 1.57 9.61
9/18/2021 1:45:00 PM 17.59 63.662 0.053 7.27 1.93 9.59
9/18/2021 2:00:00 PM 17.68 63.824 0.053 7.29 2.08 9.57
9/18/2021 2:15:00 PM 17.84 64.112 0.053 7.25 1.83 9.53
9/18/2021 2:30:00 PM 18.07 64.526 0.052 7.3 1.63 9.52
9/18/2021 2:45:00 PM 18.24 64.832 0.052 7.28 1.55 9.48
9/18/2021 3:00:00 PM 18.33 64.994 0.052 7.31 1.4 9.45
9/18/2021 3:15:00 PM 18.37 65.066 0.052 7.29 1.32 9.43
9/18/2021 3:30:00 PM 18.43 65.174 0.052 7.33 1.25 9.41
9/18/2021 3:45:00 PM 18.58 65.444 0.052 7.31 1.11 9.36
9/18/2021 4:00:00 PM 18.64 65.552 0.052 7.31 1.24 9.32
9/18/2021 4:15:00 PM 18.67 65.606 0.052 7.3 1.41 9.28
9/18/2021 4:30:00 PM 18.68 65.624 0.052 7.28 1.36 9.26
9/18/2021 4:45:00 PM 18.69 65.642 0.052 7.28 1.35 9.23
9/18/2021 5:00:00 PM 18.66 65.588 0.052 7.24 1.21 9.17
9/18/2021 5:15:00 PM 18.63 65.534 0.052 7.25 1.41 9.14
9/18/2021 5:30:00 PM 18.56 65.408 0.052 7.21 1.52 9.08
9/18/2021 5:45:00 PM 18.54 65.372 0.052 7.2 1.33 9.06
9/18/2021 6:00:00 PM 18.48 65.264 0.053 7.19 1.36 9.04
9/18/2021 6:15:00 PM 18.42 65.156 0.053 7.17 1.63 9.01
9/18/2021 6:30:00 PM 18.34 65.012 0.051 7.14 2.46 9
9/18/2021 6:45:00 PM 18.24 64.832 0.053 7.14 1.4 8.99
9/18/2021 7:00:00 PM 18.12 64.616 0.053 7.13 1.34 8.97
9/18/2021 7:15:00 PM 18 64.4 0.053 7.06 1.54 8.95
9/18/2021 7:30:00 PM 17.89 64.202 0.053 7.11 1.34 8.94
9/18/2021 7:45:00 PM 17.78 64.004 0.052 7.09 2.66 8.93
9/18/2021 8:00:00 PM 17.66 63.788 0.053 7.06 1.43 8.93
9/18/2021 8:15:00 PM 17.56 63.608 0.053 7.09 1.62 8.93
9/18/2021 8:30:00 PM 17.46 63.428 0.053 7.08 1.54 8.94
9/18/2021 8:45:00 PM 17.36 63.248 0.054 7.07 2.04 8.94
9/18/2021 9:00:00 PM 17.27 63.086 0.054 7.06 1.67 8.95
9/18/2021 9:15:00 PM 17.18 62.924 0.054 7.08 1.74 8.97
9/18/2021 9:30:00 PM 17.09 62.762 0.054 7.05 1.68 8.98
9/18/2021 9:45:00 PM 17 62.6 0.054 7.07 1.6 9
9/18/2021 10:00:00 PM 16.91 62.438 0.053 7.03 2.3 9.01
9/18/2021 10:15:00 PM 16.82 62.276 0.054 7.04 1.39 9.03
9/18/2021 10:30:00 PM 16.73 62.114 0.051 7.04 2.53 9.06
9/18/2021 10:45:00 PM 16.65 61.97 0.054 7.05 1.55 9.08
9/18/2021 11:00:00 PM 16.56 61.808 0.054 7.03 1.36 9.08
9/18/2021 11:15:00 PM 16.48 61.664 0.054 7.04 1.41 9.11
9/18/2021 11:30:00 PM 16.4 61.52 0.053 7.03 2.32 9.13
9/18/2021 11:45:00 PM 16.33 61.394 0.051 7.03 2.39 9.14
9/19/2021 12:00:00 AM 16.26 61.268 0.054 7.03 1.34 9.15
9/19/2021 12:15:00 AM 16.2 61.16 0.053 7.03 2.2 9.16
9/19/2021 12:30:00 AM 16.13 61.034 0.051 7.02 2.33 9.18
9/19/2021 12:45:00 AM 16.05 60.89 0.054 7.03 1.65 9.2
9/19/2021 1:00:00 AM 15.98 60.764 0.054 7.03 1.4 9.2
9/19/2021 1:15:00 AM 15.92 60.656 0.054 7.05 1.38 9.22
9/19/2021 1:30:00 AM 15.85 60.53 0.054 7.04 1.38 9.25
9/19/2021 1:45:00 AM 15.8 60.44 0.053 7.03 2.15 9.25
9/19/2021 2:00:00 AM 15.76 60.368 0.054 7.04 1.36 9.27
9/19/2021 2:15:00 AM 15.71 60.278 0.053 7.02 2.31 9.27
9/19/2021 2:30:00 AM 15.68 60.224 0.052 7.03 2.14 9.28
9/19/2021 2:45:00 AM 15.65 60.17 0.054 7.05 1.48 9.29
9/19/2021 3:00:00 AM 15.63 60.134 0.053 7.04 2.11 9.29
9/19/2021 3:15:00 AM 15.61 60.098 0.054 7.04 1.33 9.29
9/19/2021 3:30:00 AM 15.59 60.062 0.054 7.07 1.33 9.31
9/19/2021 3:45:00 AM 15.56 60.008 0.053 7.04 2.28 9.3
9/19/2021 4:00:00 AM 15.53 59.954 0.054 7.05 1.47 9.31
9/19/2021 4:15:00 AM 15.49 59.882 0.053 7.05 2.68 9.34
9/19/2021 4:30:00 AM 15.46 59.828 0.054 7.05 1.36 9.34
9/19/2021 4:45:00 AM 15.42 59.756 0.053 7.05 2.29 9.34
9/19/2021 5:00:00 AM 15.38 59.684 0.054 7.05 1.33 9.35
9/19/2021 5:15:00 AM 15.34 59.612 0.053 7.06 2.18 9.37
9/19/2021 5:30:00 AM 15.29 59.522 0.052 7.04 2.28 9.38
9/19/2021 5:45:00 AM 15.25 59.45 0.054 7.07 1.43 9.37
9/19/2021 6:00:00 AM 15.2 59.36 0.054 7.08 1.44 9.39
9/19/2021 6:15:00 AM 15.16 59.288 0.054 7.06 1.47 9.39
9/19/2021 6:30:00 AM 15.11 59.198 0.054 7.07 1.33 9.41
9/19/2021 6:45:00 AM 15.05 59.09 0.054 7.07 1.46 9.42
9/19/2021 7:00:00 AM 15 59 0.053 7.05 2.16 9.44
9/19/2021 7:15:00 AM 14.95 58.91 0.051 7.07 2.21 9.47
9/19/2021 7:30:00 AM 14.9 58.82 0.051 7.06 2.28 9.5
9/19/2021 7:45:00 AM 14.86 58.748 0.051 7.07 2.25 9.53
9/19/2021 8:00:00 AM 14.82 58.676 0.051 7.07 2.32 9.55
9/19/2021 8:15:00 AM 14.78 58.604 0.054 7.09 1.36 9.63
9/19/2021 8:30:00 AM 14.75 58.55 0.054 7.11 1.35 9.68
9/19/2021 8:45:00 AM 14.73 58.514 0.054 7.12 1.72 9.73
9/19/2021 9:00:00 AM 14.72 58.496 0.054 7.12 1.34 9.78
9/19/2021 9:15:00 AM 14.72 58.496 0.054 7.14 1.36 9.84
9/19/2021 9:30:00 AM 14.72 58.496 0.054 7.15 1.32 9.87
9/19/2021 9:45:00 AM 14.72 58.496 0.054 7.15 1.32 9.91
9/19/2021 10:00:00 AM 14.75 58.55 0.053 7.17 1.38 9.95
9/19/2021 10:15:00 AM 14.8 58.64 0.052 7.16 2.22 9.97
9/19/2021 10:30:00 AM 14.84 58.712 0.053 7.21 1.27 10
9/19/2021 10:45:00 AM 14.87 58.766 0.053 7.22 1.32 10
9/19/2021 11:00:00 AM 14.98 58.964 0.053 7.2 1.34 10
9/19/2021 11:15:00 AM 15.08 59.144 0.052 7.22 2.07 10
9/19/2021 11:30:00 AM 15.17 59.306 0.053 7.24 1.25 10
9/19/2021 11:45:00 AM 15.27 59.486 0.053 7.25 1.28 9.97
9/19/2021 12:00:00 PM 15.38 59.684 0.053 7.26 1.25 9.92
9/19/2021 12:15:00 PM 15.53 59.954 0.053 7.24 1.29 9.89
9/19/2021 12:30:00 PM 15.7 60.26 0.053 7.23 1.28 9.83
9/19/2021 12:45:00 PM 15.87 60.566 0.053 7.25 1.17 9.8
9/19/2021 1:00:00 PM 16.02 60.836 0.052 7.22 2.08 9.74
9/19/2021 1:15:00 PM 16.17 61.106 0.053 7.23 1.26 9.71
9/19/2021 1:30:00 PM 16.33 61.394 0.053 7.24 1.33 9.69
9/19/2021 1:45:00 PM 16.51 61.718 0.053 7.26 1.25 9.66
9/19/2021 2:00:00 PM 16.69 62.042 0.053 7.23 1.21 9.62
9/19/2021 2:15:00 PM 16.86 62.348 0.053 7.26 1.31 9.59
9/19/2021 2:30:00 PM 17.03 62.654 0.053 7.26 1.2 9.54
9/19/2021 2:45:00 PM 17.2 62.96 0.051 7.25 2.02 9.51
9/19/2021 3:00:00 PM 17.35 63.23 0.053 7.27 1.26 9.48
9/19/2021 3:15:00 PM 17.49 63.482 0.05 7.23 2.13 9.45
9/19/2021 3:30:00 PM 17.6 63.68 0.053 7.27 1.22 9.41
9/19/2021 3:45:00 PM 17.72 63.896 0.052 7.27 1.18 9.39
9/19/2021 4:00:00 PM 17.82 64.076 0.052 7.27 1.35 9.37
9/19/2021 4:15:00 PM 17.89 64.202 0.052 7.25 1.2 9.32
9/19/2021 4:30:00 PM 17.95 64.31 0.052 7.24 1.15 9.31
9/19/2021 4:45:00 PM 17.98 64.364 0.052 7.26 1.21 9.28
9/19/2021 5:00:00 PM 17.99 64.382 0.052 7.24 1.28 9.25
9/19/2021 5:15:00 PM 17.97 64.346 0.052 7.21 1.14 9.23
9/19/2021 5:30:00 PM 17.92 64.256 0.052 7.2 1.26 9.2
9/19/2021 5:45:00 PM 17.87 64.166 0.052 7.2 1.24 9.18
9/19/2021 6:00:00 PM 17.8 64.04 0.053 7.22 1.2 9.15
9/19/2021 6:15:00 PM 17.72 63.896 0.053 7.2 1.17 9.14
9/19/2021 6:30:00 PM 17.64 63.752 0.051 7.18 2.28 9.14
9/19/2021 6:45:00 PM 17.54 63.572 0.053 7.16 1.33 9.14
9/19/2021 7:00:00 PM 17.41 63.338 0.053 7.19 1.15 9.14
9/19/2021 7:15:00 PM 17.26 63.068 0.053 7.17 1.16 9.13
9/19/2021 7:30:00 PM 17.1 62.78 0.053 7.19 1.44 9.16
9/19/2021 7:45:00 PM 16.94 62.492 0.051 7.15 2.4 9.16
9/19/2021 8:00:00 PM 16.79 62.222 0.053 7.17 1.3 9.18
9/19/2021 8:15:00 PM 16.65 61.97 0.053 7.14 1.48 9.18
9/19/2021 8:30:00 PM 16.51 61.718 0.054 7.12 1.36 9.22
9/19/2021 8:45:00 PM 16.37 61.466 0.053 7.1 2.22 9.24
9/19/2021 9:00:00 PM 16.24 61.232 0.051 7.09 2.26 9.26
9/19/2021 9:15:00 PM 16.1 60.98 0.054 7.12 1.26 9.28
9/19/2021 9:30:00 PM 15.97 60.746 0.053 7.12 2.39 9.32
9/19/2021 9:45:00 PM 15.85 60.53 0.054 7.08 1.27 9.36
9/19/2021 10:00:00 PM 15.72 60.296 0.054 7.09 1.31 9.39
9/19/2021 10:15:00 PM 15.61 60.098 0.054 7.09 1.3 9.41
9/19/2021 10:30:00 PM 15.49 59.882 0.054 7.08 1.26 9.46
9/19/2021 10:45:00 PM 15.38 59.684 0.053 7.07 2.36 9.45
9/19/2021 11:00:00 PM 15.27 59.486 0.054 7.08 1.36 9.5
9/19/2021 11:15:00 PM 15.17 59.306 0.054 7.09 1.27 9.53
9/19/2021 11:30:00 PM 15.06 59.108 0.054 7.07 1.32 9.52
9/19/2021 11:45:00 PM 14.96 58.928 0.054 7.08 1.26 9.56
9/20/2021 12:00:00 AM 14.87 58.766 0.054 6.94 1.32 9.62
9/20/2021 12:15:00 AM 14.79 58.622 0.054 7.03 1.29 9.6
9/20/2021 12:30:00 AM 14.72 58.496 0.054 7.05 1.41 9.65
9/20/2021 12:45:00 AM 14.67 58.406 0.053 7.04 2.19 9.66
9/20/2021 1:00:00 AM 14.61 58.298 0.054 7.08 1.34 9.66
9/20/2021 1:15:00 AM 14.56 58.208 0.053 7.04 2.25 9.65
9/20/2021 1:30:00 AM 14.52 58.136 0.052 7.06 2.43 9.68
9/20/2021 1:45:00 AM 14.48 58.064 0.052 7.07 2.52 9.7
9/20/2021 2:00:00 AM 14.44 57.992 0.052 7.02 2.25 9.7
9/20/2021 2:15:00 AM 14.39 57.902 0.052 7.07 2.32 9.74
9/20/2021 2:30:00 AM 14.36 57.848 0.052 7.06 2.29 9.73
9/20/2021 2:45:00 AM 14.32 57.776 0.054 7.08 1.32 9.73
9/20/2021 3:00:00 AM 14.28 57.704 0.054 7.06 1.44 9.74
9/20/2021 3:15:00 AM 14.24 57.632 0.053 7.07 2.22 9.75
9/20/2021 3:30:00 AM 14.19 57.542 0.054 7.07 1.36 9.77
9/20/2021 3:45:00 AM 14.15 57.47 0.054 7.06 1.31 9.77
9/20/2021 4:00:00 AM 14.11 57.398 0.054 7.1 1.39 9.75
9/20/2021 4:15:00 AM 14.06 57.308 0.053 7.04 2.26 9.77
9/20/2021 4:30:00 AM 14.01 57.218 0.054 7.07 1.46 9.81
9/20/2021 4:45:00 AM 13.95 57.11 0.054 7.08 1.28 9.82
9/20/2021 5:00:00 AM 13.9 57.02 0.054 7.07 1.52 9.83
9/20/2021 5:15:00 AM 13.84 56.912 0.054 7.06 1.39 9.85
9/20/2021 5:30:00 AM 13.79 56.822 0.054 7.08 1.38 9.86
9/20/2021 5:45:00 AM 13.74 56.732 0.054 7.06 1.41 9.85
9/20/2021 6:00:00 AM 13.68 56.624 0.054 7.07 1.54 9.9
9/20/2021 6:15:00 AM 13.62 56.516 0.053 7.05 2.47 9.89
9/20/2021 6:30:00 AM 13.56 56.408 0.054 7.05 1.31 9.93
9/20/2021 6:45:00 AM 13.5 56.3 0.054 7.05 1.4 9.96
9/20/2021 7:00:00 AM 13.44 56.192 0.054 7.07 1.58 9.95
9/20/2021 7:15:00 AM 13.39 56.102 0.054 7.09 1.55 9.96
9/20/2021 7:30:00 AM 13.33 55.994 0.054 7.06 1.34 10.01
9/20/2021 7:45:00 AM 13.29 55.922 0.054 7.07 1.38 10.04
9/20/2021 8:00:00 AM 13.25 55.85 0.053 7.09 2.29 10.05
9/20/2021 8:15:00 AM 13.21 55.778 0.051 7.06 2.39 10.11
9/20/2021 8:30:00 AM 13.19 55.742 0.051 7.09 2.28 10.13
9/20/2021 8:45:00 AM 13.16 55.688 0.054 7.09 1.26 10.16
9/20/2021 9:00:00 AM 13.13 55.634 0.054 7.11 1.36 10.18
9/20/2021 9:15:00 AM 13.1 55.58 0.054 7.12 1.43 10.18
9/20/2021 9:30:00 AM 13.07 55.526 0.054 7.1 1.33 10.19
9/20/2021 9:45:00 AM 13.08 55.544 0.054 7.11 1.29 10.19
9/20/2021 10:00:00 AM 13.12 55.616 0.054 7.1 1.35 10.19
9/20/2021 10:15:00 AM 13.15 55.67 0.053 7.12 1.28 10.2
9/20/2021 10:30:00 AM 13.19 55.742 0.053 7.11 1.22 10.19
9/20/2021 10:45:00 AM 13.26 55.868 0.053 7.12 1.22 10.19
9/20/2021 11:00:00 AM 13.36 56.048 0.051 7.1 2.12 10.18
9/20/2021 11:15:00 AM 13.49 56.282 0.053 7.13 1.26 10.18
9/20/2021 11:30:00 AM 13.65 56.57 0.053 7.14 1.24 10.15
9/20/2021 11:45:00 AM 13.84 56.912 0.053 7.15 1.32 10.1
9/20/2021 12:00:00 PM 14.05 57.29 0.053 7.16 1.36 10.06
9/20/2021 12:15:00 PM 14.28 57.704 0.053 7.18 1.2 10.02
9/20/2021 12:30:00 PM 14.5 58.1 0.053 7.17 1.39 9.96
9/20/2021 12:45:00 PM 14.72 58.496 0.053 7.17 1.19 9.92
9/20/2021 1:00:00 PM 14.95 58.91 0.053 7.17 1.22 9.87
9/20/2021 1:15:00 PM 15.11 59.198 0.053 7.17 1.16 9.86
9/20/2021 1:30:00 PM 15.28 59.504 0.053 7.13 1.56 9.8
9/20/2021 1:45:00 PM 15.38 59.684 0.053 7.17 1.37 9.8
9/20/2021 2:00:00 PM 15.56 60.008 0.052 7.09 1.21 9.78
9/20/2021 2:15:00 PM 15.75 60.35 0.052 7.2 1.18 9.72
9/20/2021 2:30:00 PM 16.02 60.836 0.052 7.22 1.14 9.69
9/20/2021 2:45:00 PM 16.31 61.358 0.052 7.21 1.16 9.59
9/20/2021 3:00:00 PM 16.51 61.718 0.052 7.21 1.14 9.56
9/20/2021 3:15:00 PM 16.64 61.952 0.052 7.21 1.36 9.56
9/20/2021 3:30:00 PM 16.74 62.132 0.051 7.19 2.2 9.54
9/20/2021 3:45:00 PM 16.89 62.402 0.052 7.18 12.8 9.49
9/20/2021 4:00:00 PM 17.02 62.636 0.052 7.22 1.3 9.42
9/20/2021 4:15:00 PM 17.13 62.834 0.052 7.2 7.61 9.45
9/20/2021 4:30:00 PM 17.26 63.068 0.052 7.19 1.16 9.39
9/20/2021 4:45:00 PM 17.32 63.176 0.052 7.13 1.3 9.38
9/20/2021 5:00:00 PM 17.3 63.14 0.052 7.18 1.32 9.37
9/20/2021 5:15:00 PM 17.27 63.086 0.052 7.22 1.38 9.36
9/20/2021 5:30:00 PM 17.27 63.086 0.052 7.2 1.35 9.36
9/20/2021 5:45:00 PM 17.28 63.104 0.052 7.18 2.08 9.34
9/20/2021 6:00:00 PM 17.29 63.122 0.052 7.21 2.78 9.33
9/20/2021 6:15:00 PM 17.27 63.086 0.052 6.71 1.71 9.32
9/20/2021 6:30:00 PM 17.24 63.032 0.052 7.18 3.42 9.32
9/20/2021 6:45:00 PM 17.19 62.942 0.053 7.12 20.74 9.33
9/20/2021 7:00:00 PM 17.12 62.816 0.053 6.98 3.48 9.33
9/20/2021 7:15:00 PM 17.03 62.654 0.053 7.13 2.56 9.34
9/20/2021 7:30:00 PM 16.93 62.474 0.053 6.65 1.57 9.35
9/20/2021 7:45:00 PM 16.83 62.294 0.053 6.63 2.22 9.38
9/20/2021 8:00:00 PM 16.71 62.078 0.052 6.75 14.61 9.39
9/20/2021 8:15:00 PM 16.6 61.88 0.051 6.68 3.95 9.41
9/20/2021 8:30:00 PM 16.48 61.664 0.054 6.64 11.15 9.45
9/20/2021 8:45:00 PM 16.37 61.466 0.054 7.07 3.21 9.47
9/20/2021 9:00:00 PM 16.27 61.286 0.054 6.66 1.89 9.48
9/20/2021 9:15:00 PM 16.16 61.088 0.054 6.66 11.36 9.5
9/20/2021 9:30:00 PM 16.06 60.908 0.052 6.63 3.19 9.51
9/20/2021 9:45:00 PM 15.97 60.746 0.051 6.66 2.79 9.55
9/20/2021 10:00:00 PM 15.87 60.566 0.051 6.63 4.81 9.56
9/20/2021 10:15:00 PM 15.78 60.404 0.054 6.61 2.61 9.59
9/20/2021 10:30:00 PM 15.69 60.242 0.054 6.59 1.76 9.6
9/20/2021 10:45:00 PM 15.6 60.08 0.054 6.52 3.79 9.61
9/20/2021 11:00:00 PM 15.52 59.936 0.054 6.58 1.56 9.64
9/20/2021 11:15:00 PM 15.44 59.792 0.053 6.61 9.74 9.63
9/20/2021 11:30:00 PM 15.36 59.648 0.051 6.65 2.78 9.65
9/20/2021 11:45:00 PM 15.28 59.504 0.054 6.66 1.42 9.67
9/21/2021 12:00:00 AM 15.2 59.36 0.054 6.69 2.72 9.69
9/21/2021 12:15:00 AM 15.12 59.216 0.054 6.64 2.35 9.7
9/21/2021 12:30:00 AM 15.06 59.108 0.053 6.65 2.56 9.7
9/21/2021 12:45:00 AM 15 59 0.054 6.81 1.92 9.72
9/21/2021 1:00:00 AM 14.94 58.892 0.054 6.66 2.09 9.74
9/21/2021 1:15:00 AM 14.88 58.784 0.054 6.65 5.26 9.76
9/21/2021 1:30:00 AM 14.82 58.676 0.054 6.6 2.58 9.77
9/21/2021 1:45:00 AM 14.77 58.586 0.054 6.64 1.78 9.78
9/21/2021 2:00:00 AM 14.72 58.496 0.053 6.68 3.56 9.78
9/21/2021 2:15:00 AM 14.67 58.406 0.054 6.66 2.54 9.8
9/21/2021 2:30:00 AM 14.62 58.316 0.055 6.71 1.89 9.81
9/21/2021 2:45:00 AM 14.58 58.244 0.055 7.15 1.83 9.81
9/21/2021 3:00:00 AM 14.53 58.154 0.055 7.11 2.28 9.82
9/21/2021 3:15:00 AM 14.48 58.064 0.055 6.67 5.48 9.84
9/21/2021 3:30:00 AM 14.44 57.992 0.053 6.66 3.79 9.85
9/21/2021 3:45:00 AM 14.41 57.938 0.055 6.69 1.53 9.85
9/21/2021 4:00:00 AM 14.37 57.866 0.055 6.66 2.49 9.86
9/21/2021 4:15:00 AM 14.34 57.812 0.052 6.63 2.72 9.87
9/21/2021 4:30:00 AM 14.31 57.758 0.055 6.64 1.82 9.88
9/21/2021 4:45:00 AM 14.28 57.704 0.055 6.6 1.97 9.88
9/21/2021 5:00:00 AM 14.25 57.65 0.055 6.64 2.11 9.91
9/21/2021 5:15:00 AM 14.24 57.632 0.055 6.6 2.3 9.92
9/21/2021 5:30:00 AM 14.24 57.632 0.055 6.6 2.03 9.92
9/21/2021 5:45:00 AM 14.23 57.614 0.052 6.6 5.64 9.91
9/21/2021 6:00:00 AM 14.22 57.596 0.052 6.77 3.56 9.91
9/21/2021 6:15:00 AM 14.22 57.596 0.055 6.62 2.34 9.92
9/21/2021 6:30:00 AM 14.22 57.596 0.052 6.63 3.49 9.92
9/21/2021 6:45:00 AM 14.22 57.596 0.055 6.62 9.49 9.93
9/21/2021 7:00:00 AM 14.22 57.596 0.055 6.61 3.8 9.94
9/21/2021 7:15:00 AM 14.21 57.578 0.055 6.67 14.54 9.93
9/21/2021 7:30:00 AM 14.21 57.578 0.055 6.62 2.37 9.95
9/21/2021 7:45:00 AM 14.22 57.596 0.055 6.63 8.03 9.95
9/21/2021 8:00:00 AM 14.23 57.614 0.054 6.64 2.69 9.95
9/21/2021 8:15:00 AM 14.24 57.632 0.054 6.64 2.36 9.96
9/21/2021 8:30:00 AM 14.26 57.668 0.054 6.63 2.12 9.96
9/21/2021 8:45:00 AM 14.31 57.758 0.053 6.62 17.51 9.94
9/21/2021 9:00:00 AM 14.36 57.848 0.054 6.65 4.91 9.93
9/21/2021 9:15:00 AM 14.37 57.866 0.054 6.66 4.22 9.93
9/21/2021 9:30:00 AM 14.4 57.92 0.053 6.65 4.25 9.93
9/21/2021 9:45:00 AM 14.45 58.01 0.054 6.63 2.71 9.92
9/21/2021 10:00:00 AM 14.51 58.118 0.054 6.6 2.98 9.91
9/21/2021 10:15:00 AM 14.57 58.226 0.053 6.64 3.54 9.9
9/21/2021 10:30:00 AM 14.66 58.388 0.053 6.61 6.22 9.89
9/21/2021 10:45:00 AM 14.76 58.568 0.052 6.71 15 9.88
9/21/2021 11:00:00 AM 14.82 58.676 0.053 6.65 2.68 9.87
9/21/2021 11:15:00 AM 14.93 58.874 0.053 6.63 12.59 9.83
9/21/2021 11:30:00 AM 15.01 59.018 0.052 6.68 7.87 9.82
9/21/2021 11:45:00 AM 15.06 59.108 0.053 6.83 2.1 9.79
9/21/2021 12:00:00 PM 15.15 59.27 0.053 6.69 7.35 9.78
9/21/2021 12:15:00 PM 15.29 59.522 0.053 6.61 4.05 9.76
9/21/2021 12:30:00 PM 15.44 59.792 0.053 6.67 3.06 9.73
9/21/2021 12:45:00 PM 15.51 59.918 0.053 6.65 5.83 9.72
9/21/2021 1:00:00 PM 15.56 60.008 0.053 6.55 2.58 9.7
9/21/2021 1:15:00 PM 15.62 60.116 0.051 6.69 4.24 9.7
9/21/2021 1:30:00 PM 15.69 60.242 0.053 6.69 3.41 9.68
9/21/2021 1:45:00 PM 15.81 60.458 0.053 6.66 2.64 9.65
9/21/2021 2:00:00 PM 15.93 60.674 0.053 6.67 5.42 9.62
9/21/2021 2:15:00 PM 16.01 60.818 0.052 6.67 5.01 9.6
9/21/2021 2:30:00 PM 16.04 60.872 0.052 6.56 8.22 9.59
9/21/2021 2:45:00 PM 16.06 60.908 0.052 6.61 5.26 9.59
9/21/2021 3:00:00 PM 16.08 60.944 0.052 6.67 7.43 9.58
9/21/2021 3:15:00 PM 16.12 61.016 0.052 6.62 9.49 9.57
9/21/2021 3:30:00 PM 16.17 61.106 0.052 6.63 6.34 9.56
9/21/2021 3:45:00 PM 16.17 61.106 0.052 6.65 8.31 9.56
9/21/2021 4:00:00 PM 16.17 61.106 0.052 6.63 11.03 9.56
9/21/2021 4:15:00 PM 16.19 61.142 0.05 6.62 8.04 9.55
9/21/2021 4:30:00 PM 16.2 61.16 0.052 6.57 5.11 9.56
9/21/2021 4:45:00 PM 16.19 61.142 0.052 6.62 3.38 9.55
9/21/2021 5:00:00 PM 16.19 61.142 0.052 6.63 3.21 9.55
9/21/2021 5:15:00 PM 16.18 61.124 0.052 6.63 17.21 9.56
9/21/2021 5:30:00 PM 16.17 61.106 0.053 6.62 5.51 9.56
9/21/2021 5:45:00 PM 16.14 61.052 0.053 6.63 18.34 9.56
9/21/2021 6:00:00 PM 16.1 60.98 0.053 6.64 5.99 9.56
9/21/2021 6:15:00 PM 16.07 60.926 0.053 6.62 3.39 9.57
9/21/2021 6:30:00 PM 16.04 60.872 0.053 6.61 2.74 9.58
9/21/2021 6:45:00 PM 16 60.8 0.053 6.62 3.88 9.58
9/21/2021 7:00:00 PM 15.95 60.71 0.053 6.62 3.12 9.58
9/21/2021 7:15:00 PM 15.91 60.638 0.053 6.61 3.25 9.58
9/21/2021 7:30:00 PM 15.86 60.548 0.052 6.61 4 9.57
9/21/2021 7:45:00 PM 15.82 60.476 0.054 6.63 3.78 9.6
9/21/2021 8:00:00 PM 15.78 60.404 0.054 6.61 4.57 9.61
9/21/2021 8:15:00 PM 15.73 60.314 0.054 6.64 4.74 9.61
9/21/2021 8:30:00 PM 15.69 60.242 0.054 6.62 4.43 9.62
9/21/2021 8:45:00 PM 15.66 60.188 0.053 6.62 5.89 9.61
9/21/2021 9:00:00 PM 15.63 60.134 0.054 6.64 4.31 9.64
9/21/2021 9:15:00 PM 15.6 60.08 0.054 6.63 4.01 9.64
9/21/2021 9:30:00 PM 15.57 60.026 0.054 6.64 3.43 9.64
9/21/2021 9:45:00 PM 15.55 59.99 0.053 6.62 6.15 9.63
9/21/2021 10:00:00 PM 15.53 59.954 0.053 6.64 5.16 9.63
9/21/2021 10:15:00 PM 15.51 59.918 0.054 6.65 5.09 9.66
9/21/2021 10:30:00 PM 15.48 59.864 0.054 6.64 4.15 9.66
9/21/2021 10:45:00 PM 15.47 59.846 0.054 6.67 5.46 9.67
9/21/2021 11:00:00 PM 15.45 59.81 0.054 6.64 4.89 9.67
9/21/2021 11:15:00 PM 15.43 59.774 0.054 6.64 4.02 9.67
9/21/2021 11:30:00 PM 15.42 59.756 0.054 6.64 7.83 9.67
9/21/2021 11:45:00 PM 15.41 59.738 0.053 6.61 4.57 9.65
9/22/2021 12:00:00 AM 15.4 59.72 0.054 6.64 11.08 9.67
9/22/2021 12:15:00 AM 15.38 59.684 0.054 6.66 13.18 9.67
9/22/2021 12:30:00 AM 15.36 59.648 0.055 6.64 4.93 9.67
9/22/2021 12:45:00 AM 15.35 59.63 0.055 6.66 2.74 9.68
9/22/2021 1:00:00 AM 15.34 59.612 0.055 6.66 2.51 9.67
9/22/2021 1:15:00 AM 15.32 59.576 0.052 6.64 3.5 9.66
9/22/2021 1:30:00 AM 15.31 59.558 0.055 6.63 2.4 9.66
9/22/2021 1:45:00 AM 15.29 59.522 0.055 6.64 2.05 9.65
9/22/2021 2:00:00 AM 15.28 59.504 0.053 6.63 3.55 9.64
9/22/2021 2:15:00 AM 15.26 59.468 0.052 6.61 2.69 9.65
9/22/2021 2:30:00 AM 15.25 59.45 0.055 6.65 2.25 9.66
9/22/2021 2:45:00 AM 15.25 59.45 0.055 6.83 1.54 9.67
9/22/2021 3:00:00 AM 15.24 59.432 0.055 6.85 3.64 9.65
9/22/2021 3:15:00 AM 15.23 59.414 0.055 7.19 1.49 9.64
9/22/2021 3:30:00 AM 15.22 59.396 0.055 6.8 1.39 9.65
9/22/2021 3:45:00 AM 15.21 59.378 0.055 7.14 1.48 9.63
9/22/2021 4:00:00 AM 15.2 59.36 0.054 7.07 2.51 9.62
9/22/2021 4:15:00 AM 15.19 59.342 0.055 7.1 1.49 9.62
9/22/2021 4:30:00 AM 15.18 59.324 0.055 6.77 1.52 9.63
9/22/2021 4:45:00 AM 15.18 59.324 0.052 6.97 2.65 9.62
9/22/2021 5:00:00 AM 15.17 59.306 0.055 7.11 1.6 9.63
9/22/2021 5:15:00 AM 15.16 59.288 0.054 7.11 2.43 9.6
9/22/2021 5:30:00 AM 15.16 59.288 0.055 7.1 1.38 9.63
9/22/2021 5:45:00 AM 15.16 59.288 0.055 7.1 1.6 9.61
9/22/2021 6:00:00 AM 15.15 59.27 0.055 7.12 1.45 9.62
9/22/2021 6:15:00 AM 15.15 59.27 0.055 7.17 1.33 9.6
9/22/2021 6:30:00 AM 15.13 59.234 0.055 7.11 1.65 9.56
9/22/2021 6:45:00 AM 15.12 59.216 0.055 7.11 4.18 9.63
9/22/2021 7:00:00 AM 15.12 59.216 0.055 7.1 1.52 9.64
9/22/2021 7:15:00 AM 15.12 59.216 0.052 6.92 2.51 9.6
9/22/2021 7:30:00 AM 15.11 59.198 0.055 6.71 1.51 9.64
9/22/2021 7:45:00 AM 15.1 59.18 0.055 7.11 1.57 9.64
9/22/2021 8:00:00 AM 15.1 59.18 0.055 7.12 2.13 9.65
9/22/2021 8:15:00 AM 15.11 59.198 0.054 7.17 2.47 9.65
9/22/2021 8:30:00 AM 15.12 59.216 0.055 6.67 1.34 9.65
9/22/2021 8:45:00 AM 15.13 59.234 0.055 7.22 1.8 9.66
9/22/2021 9:00:00 AM 15.15 59.27 0.055 7.15 1.43 9.66
9/22/2021 9:15:00 AM 15.16 59.288 0.055 6.83 1.97 9.66
9/22/2021 9:30:00 AM 15.18 59.324 0.054 6.71 1.42 9.66
9/22/2021 9:45:00 AM 15.2 59.36 0.054 6.73 1.87 9.66
9/22/2021 10:00:00 AM 15.23 59.414 0.054 7.19 1.48 9.66
9/22/2021 10:15:00 AM 15.28 59.504 0.054 7.14 1.44 9.64
9/22/2021 10:30:00 AM 15.33 59.594 0.054 7.16 1.41 9.64
9/22/2021 10:45:00 AM 15.37 59.666 0.054 7.16 1.35 9.64
9/22/2021 11:00:00 AM 15.4 59.72 0.054 6.73 1.78 9.63
9/22/2021 11:15:00 AM 15.44 59.792 0.054 7.17 1.33 9.62
9/22/2021 11:30:00 AM 15.47 59.846 0.054 6.74 1.38 9.62
9/22/2021 11:45:00 AM 15.53 59.954 0.053 7.16 1.19 9.61
9/22/2021 12:00:00 PM 15.57 60.026 0.053 7.19 1.35 9.6
9/22/2021 12:15:00 PM 15.61 60.098 0.053 7.14 1.54 9.6
9/22/2021 12:30:00 PM 15.65 60.17 0.053 7.16 1.24 9.6
9/22/2021 12:45:00 PM 15.74 60.332 0.053 7.15 1.23 9.6
9/22/2021 1:00:00 PM 15.81 60.458 0.053 7.16 1.22 9.65
9/22/2021 1:15:00 PM 15.87 60.566 0.053 7.2 1.3 9.63
9/22/2021 1:30:00 PM 15.9 60.62 0.053 7.17 1.4 9.64
9/22/2021 1:45:00 PM 15.94 60.692 0.053 7.2 1.46 9.67
9/22/2021 2:00:00 PM 15.98 60.764 0.053 7.22 1.34 9.64
9/22/2021 2:15:00 PM 16.02 60.836 0.053 7.21 1.51 9.67
9/22/2021 2:30:00 PM 16.06 60.908 0.052 7.24 1.74 9.65
9/22/2021 2:45:00 PM 16.08 60.944 0.052 7.19 1.47 9.63
9/22/2021 3:00:00 PM 16.14 61.052 0.052 7.23 1.9 9.62
9/22/2021 3:15:00 PM 16.18 61.124 0.052 7.26 2.17 9.63
9/22/2021 3:30:00 PM 16.21 61.178 0.052 7.26 3.05 9.62
9/22/2021 3:45:00 PM 16.23 61.214 0.052 7.25 2.65 9.6
9/22/2021 4:00:00 PM 16.25 61.25 0.052 7.22 3.48 9.58
9/22/2021 4:15:00 PM 16.25 61.25 0.052 7.2 2.94 9.53
9/22/2021 4:30:00 PM 16.25 61.25 0.052 7.14 3.18 9.47
9/22/2021 4:45:00 PM 16.25 61.25 0.052 7.11 2.71 9.42
9/22/2021 5:00:00 PM 16.25 61.25 0.052 7.12 2.59 9.43
9/22/2021 5:15:00 PM 16.27 61.286 0.052 7.14 3.66 9.47
9/22/2021 5:30:00 PM 16.24 61.232 0.051 7.15 4.74 9.43
9/22/2021 5:45:00 PM 16.22 61.196 0.051 7.09 5.32 9.36
9/22/2021 6:00:00 PM 16.21 61.178 0.052 7.04 4.37 9.32
9/22/2021 6:15:00 PM 16.19 61.142 0.052 7.02 4.66 9.29
9/22/2021 6:30:00 PM 16.15 61.07 0.052 7.14 4.35 9.26
9/22/2021 6:45:00 PM 16.12 61.016 0.052 7.05 15.21 9.23
9/22/2021 7:00:00 PM 16.1 60.98 0.052 7.1 14.87 9.21
9/22/2021 7:15:00 PM 16.07 60.926 0.051 7.07 5.94 9.19
9/22/2021 7:30:00 PM 16.04 60.872 0.052 7.08 9.13 9.17
9/22/2021 7:45:00 PM 16.03 60.854 0.05 7 11.77 9.16
9/22/2021 8:00:00 PM 16.02 60.836 0.053 7.04 8.76 9.15
9/22/2021 8:15:00 PM 16 60.8 0.053 7.05 14.98 9.15
9/22/2021 8:30:00 PM 15.99 60.782 0.053 7.04 6.6 9.15
9/22/2021 8:45:00 PM 15.98 60.764 0.053 7.05 11.64 9.15
9/22/2021 9:00:00 PM 15.97 60.746 0.052 7.03 8.46 9.15
9/22/2021 9:15:00 PM 15.95 60.71 0.05 7.02 6.82 9.14
9/22/2021 9:30:00 PM 15.93 60.674 0.053 7.02 17.7 9.15
9/22/2021 9:45:00 PM 15.92 60.656 0.053 7.08 5.47 9.15
9/22/2021 10:00:00 PM 15.91 60.638 0.053 7.01 5.88 9.15
9/22/2021 10:15:00 PM 15.92 60.656 0.052 7.04 6.93 9.15
9/22/2021 10:30:00 PM 15.92 60.656 0.053 7.04 4.82 9.15
9/22/2021 10:45:00 PM 15.93 60.674 0.05 7.04 6.08 9.15
9/22/2021 11:00:00 PM 15.92 60.656 0.053 7.06 4.71 9.14
9/22/2021 11:15:00 PM 15.93 60.674 0.052 7.03 5.81 9.14
9/22/2021 11:30:00 PM 15.93 60.674 0.053 7.06 4.7 9.15
9/22/2021 11:45:00 PM 15.92 60.656 0.053 7.06 4.46 9.15
9/23/2021 12:00:00 AM 15.92 60.656 0.053 7.06 4.35 9.14
9/23/2021 12:15:00 AM 15.95 60.71 0.053 7.07 4.63 9.15
9/23/2021 12:30:00 AM 15.97 60.746 0.052 7.07 4.51 9.14
9/23/2021 12:45:00 AM 15.96 60.728 0.052 7.07 4.92 9.14
9/23/2021 1:00:00 AM 15.96 60.728 0.052 7.08 4.88 9.14
9/23/2021 1:15:00 AM 15.94 60.692 0.052 7.06 4.68 9.14
9/23/2021 1:30:00 AM 15.94 60.692 0.052 7.07 5.04 9.14
9/23/2021 1:45:00 AM 15.92 60.656 0.049 7.09 6.49 9.15
9/23/2021 2:00:00 AM 15.89 60.602 0.051 7.09 7.33 9.15
9/23/2021 2:15:00 AM 15.86 60.548 0.049 7.04 9.24 9.15
9/23/2021 2:30:00 AM 15.83 60.494 0.051 7.04 8.01 9.15
9/23/2021 2:45:00 AM 15.79 60.422 0.049 7.03 8.29 9.16
9/23/2021 3:00:00 AM 15.75 60.35 0.049 6.99 9.11 9.17
9/23/2021 3:15:00 AM 15.71 60.278 0.051 7.04 9.53 9.18
9/23/2021 3:30:00 AM 15.67 60.206 0.051 7.02 10.68 9.19
9/23/2021 3:45:00 AM 15.64 60.152 0.051 6.97 11.78 9.2
9/23/2021 4:00:00 AM 15.61 60.098 0.05 7.01 13.86 9.21
9/23/2021 4:15:00 AM 15.57 60.026 0.048 6.98 15.94 9.21
9/23/2021 4:30:00 AM 15.53 59.954 0.049 6.96 20.62 9.22
9/23/2021 4:45:00 AM 15.49 59.882 0.048 6.92 25.73 9.23
9/23/2021 5:00:00 AM 15.44 59.792 0.048 6.89 28.15 9.23
9/23/2021 5:15:00 AM 15.38 59.684 0.046 6.84 30.76 9.24
9/23/2021 5:30:00 AM 15.34 59.612 0.046 6.84 36.42 9.24
9/23/2021 5:45:00 AM 15.32 59.576 0.025 6.8 40.33 9.23
9/23/2021 6:00:00 AM 15.28 59.504 0.042 6.81 50.52 9.24
9/23/2021 6:15:00 AM 15.22 59.396 0.042 6.76 61.16 9.26
9/23/2021 6:30:00 AM 15.18 59.324 0.043 6.74 58.34 9.27
9/23/2021 6:45:00 AM 15.14 59.252 0.04 6.67 58.23 9.28
9/23/2021 7:00:00 AM 15.11 59.198 0.041 6.62 64.81 9.3
9/23/2021 7:15:00 AM 15.08 59.144 0.038 6.63 63.52 9.31
9/23/2021 7:30:00 AM 15.04 59.072 0.04 6.61 67.31 9.32
9/23/2021 7:45:00 AM 14.99 58.982 0.039 6.6 67.94 9.33
9/23/2021 8:00:00 AM 14.94 58.892 0.039 6.6 67.69 9.34
9/23/2021 8:15:00 AM 14.9 58.82 0.036 6.58 62.04 9.35
9/23/2021 8:30:00 AM 14.85 58.73 0.038 6.57 64.11 9.36
9/23/2021 8:45:00 AM 14.8 58.64 0.038 6.59 60.96 9.37
9/23/2021 9:00:00 AM 14.76 58.568 0.038 6.6 59.43 9.38
9/23/2021 9:15:00 AM 14.72 58.496 0.038 6.59 58.69 9.39
9/23/2021 9:30:00 AM 14.68 58.424 0.037 6.57 59.83 9.41
9/23/2021 9:45:00 AM 14.63 58.334 0.037 6.57 63.47 9.41
9/23/2021 10:00:00 AM 14.59 58.262 0.037 6.57 65.13 9.42
9/23/2021 10:15:00 AM 14.55 58.19 0.037 6.55 68.14 9.44
9/23/2021 10:30:00 AM 14.52 58.136 0.036 6.57 65.62 9.44
9/23/2021 10:45:00 AM 14.49 58.082 0.037 6.53 74.24 9.46
9/23/2021 11:00:00 AM 14.46 58.028 0.037 6.53 75.07 9.46
9/23/2021 11:15:00 AM 14.44 57.992 0.037 6.52 78.57 9.46
9/23/2021 11:30:00 AM 14.42 57.956 0.037 6.45 83.18 9.47
9/23/2021 11:45:00 AM 14.41 57.938 0.036 6.47 80.01 9.48
9/23/2021 12:00:00 PM 14.4 57.92 0.035 6.46 78.2 9.49
9/23/2021 12:15:00 PM 14.41 57.938 0.037 6.47 81.44 9.5
9/23/2021 12:30:00 PM 14.42 57.956 0.035 6.47 72.4 9.5
9/23/2021 12:45:00 PM 14.44 57.992 0.036 6.49 69.98 9.51
9/23/2021 1:00:00 PM 14.45 58.01 0.037 6.51 73.99 9.51
9/23/2021 1:15:00 PM 14.46 58.028 0.037 6.51 71.23 9.51
9/23/2021 1:30:00 PM 14.47 58.046 0.037 6.46 69.67 9.52
9/23/2021 1:45:00 PM 14.42 57.956 0.037 6.49 64.23 9.52
9/23/2021 2:00:00 PM 14.44 57.992 0.038 6.48 67.06 9.53
9/23/2021 2:15:00 PM 14.44 57.992 0.038 6.49 65.21 9.53
9/23/2021 2:30:00 PM 14.42 57.956 0.036 6.44 59.47 9.54
9/23/2021 2:45:00 PM 14.38 57.884 0.038 6.5 74.53 9.54
9/23/2021 3:00:00 PM 14.34 57.812 0.038 6.5 60.28 9.55
9/23/2021 3:15:00 PM 14.35 57.83 0.038 6.5 59.66 9.55
9/23/2021 3:30:00 PM 14.34 57.812 0.038 6.51 59.22 9.55
9/23/2021 3:45:00 PM 14.29 57.722 0.037 6.51 55.51 9.56
9/23/2021 4:00:00 PM 14.22 57.596 0.038 6.52 57.12 9.57
9/23/2021 4:15:00 PM 14.15 57.47 0.038 6.54 53.34 9.59
9/23/2021 4:30:00 PM 14.09 57.362 0.038 6.51 52.65 9.6
9/23/2021 4:45:00 PM 14.03 57.254 0.036 6.53 50.14 9.61
9/23/2021 5:00:00 PM 13.98 57.164 0.039 6.55 49.27 9.62
9/23/2021 5:15:00 PM 13.93 57.074 0.039 6.59 48.33 9.63
9/23/2021 5:30:00 PM 13.88 56.984 0.039 6.56 45.96 9.65
9/23/2021 5:45:00 PM 13.82 56.876 0.039 6.56 44.26 9.66
9/23/2021 6:00:00 PM 13.76 56.768 0.038 6.57 41.12 9.67
9/23/2021 6:15:00 PM 13.69 56.642 0.039 6.57 42.86 9.69
9/23/2021 6:30:00 PM 13.62 56.516 0.039 6.56 41.65 9.69
9/23/2021 6:45:00 PM 13.56 56.408 0.039 6.58 40.26 9.71
9/23/2021 7:00:00 PM 13.49 56.282 0.039 6.56 40.4 9.72
9/23/2021 7:15:00 PM 13.43 56.174 0.039 6.58 40.18 9.73
9/23/2021 7:30:00 PM 13.37 56.066 0.038 6.55 38.18 9.74
9/23/2021 7:45:00 PM 13.3 55.94 0.037 6.57 35.6 9.76
9/23/2021 8:00:00 PM 13.22 55.796 0.037 6.56 35.69 9.78
9/23/2021 8:15:00 PM 13.15 55.67 0.039 6.6 34.59 9.8
9/23/2021 8:30:00 PM 13.09 55.562 0.038 6.58 33.16 9.82
9/23/2021 8:45:00 PM 13.01 55.418 0.039 6.63 33.42 9.84
9/23/2021 9:00:00 PM 12.94 55.292 0.039 6.54 32.78 9.86
9/23/2021 9:15:00 PM 12.87 55.166 0.039 6.44 32.32 9.87
9/23/2021 9:30:00 PM 12.81 55.058 0.039 6.55 31.1 9.88
9/23/2021 9:45:00 PM 12.74 54.932 0.039 6.6 29.54 9.9
9/23/2021 10:00:00 PM 12.69 54.842 0.039 6.58 28.47 9.91
9/23/2021 10:15:00 PM 12.63 54.734 0.039 6.61 27.69 9.93
9/23/2021 10:30:00 PM 12.57 54.626 0.038 6.54 24.32 9.95
9/23/2021 10:45:00 PM 12.52 54.536 0.039 6.59 30.53 9.96
9/23/2021 11:00:00 PM 12.48 54.464 0.039 6.59 26.05 9.97
9/23/2021 11:15:00 PM 12.43 54.374 0.039 6.59 25.39 9.98
9/23/2021 11:30:00 PM 12.37 54.266 0.037 6.58 24.56 9.99
9/23/2021 11:45:00 PM 12.32 54.176 0.037 6.55 23.63 10
9/24/2021 12:00:00 AM 12.27 54.086 0.04 6.6 23.75 10.01
9/24/2021 12:15:00 AM 12.22 53.996 0.04 6.59 23.09 10.02
9/24/2021 12:30:00 AM 12.18 53.924 0.04 6.58 23.03 10.04
9/24/2021 12:45:00 AM 12.14 53.852 0.04 6.56 22.21 10.04
9/24/2021 1:00:00 AM 12.1 53.78 0.039 6.57 21.42 10.05
9/24/2021 1:15:00 AM 12.06 53.708 0.037 6.59 20.28 10.06
9/24/2021 1:30:00 AM 12.03 53.654 0.037 6.6 21.35 10.08
9/24/2021 1:45:00 AM 12 53.6 0.037 6.57 21.66 10.08
9/24/2021 2:00:00 AM 11.97 53.546 0.04 6.58 20.71 10.09
9/24/2021 2:15:00 AM 11.94 53.492 0.04 6.6 20.62 10.1
9/24/2021 2:30:00 AM 11.92 53.456 0.038 6.62 19.5 10.11
9/24/2021 2:45:00 AM 11.89 53.402 0.037 6.6 19.48 10.12
9/24/2021 3:00:00 AM 11.88 53.384 0.037 6.59 19.21 10.13
9/24/2021 3:15:00 AM 11.86 53.348 0.037 6.59 18.58 10.13
9/24/2021 3:30:00 AM 11.84 53.312 0.04 6.64 18.36 10.14
9/24/2021 3:45:00 AM 11.82 53.276 0.038 6.6 19.23 10.14
9/24/2021 4:00:00 AM 11.8 53.24 0.038 6.61 18.54 10.15
9/24/2021 4:15:00 AM 11.79 53.222 0.04 6.59 18.06 10.16
9/24/2021 4:30:00 AM 11.77 53.186 0.04 6.61 18.14 10.16
9/24/2021 4:45:00 AM 11.75 53.15 0.04 6.6 17.23 10.17
9/24/2021 5:00:00 AM 11.73 53.114 0.04 6.61 17.54 10.17
9/24/2021 5:15:00 AM 11.7 53.06 0.04 6.63 17.38 10.18
9/24/2021 5:30:00 AM 11.68 53.024 0.038 6.61 17.13 10.19
9/24/2021 5:45:00 AM 11.65 52.97 0.04 6.62 16.52 10.2
9/24/2021 6:00:00 AM 11.63 52.934 0.04 6.61 16.66 10.2
9/24/2021 6:15:00 AM 11.61 52.898 0.038 6.61 16.94 10.21
9/24/2021 6:30:00 AM 11.59 52.862 0.04 6.64 16.15 10.22
9/24/2021 6:45:00 AM 11.57 52.826 0.04 6.62 15.83 10.22
9/24/2021 7:00:00 AM 11.55 52.79 0.039 6.63 16.66 10.23
9/24/2021 7:15:00 AM 11.54 52.772 0.04 6.62 15.31 10.24
9/24/2021 7:30:00 AM 11.53 52.754 0.039 6.62 15.8 10.25
9/24/2021 7:45:00 AM 11.51 52.718 0.038 6.63 16.02 10.25
9/24/2021 8:00:00 AM 11.5 52.7 0.04 6.63 14.72 10.26
9/24/2021 8:15:00 AM 11.48 52.664 0.038 6.68 14.9 10.27
9/24/2021 8:30:00 AM 11.48 52.664 0.04 6.64 14.19 10.28
9/24/2021 8:45:00 AM 11.47 52.646 0.04 6.69 14.35 10.29
9/24/2021 9:00:00 AM 11.48 52.664 0.04 6.65 14.11 10.3
9/24/2021 9:15:00 AM 11.5 52.7 0.04 6.67 13.92 10.31
9/24/2021 9:30:00 AM 11.5 52.7 0.04 6.65 14.31 10.32
9/24/2021 9:45:00 AM 11.52 52.736 0.039 6.64 14.58 10.32
9/24/2021 10:00:00 AM 11.53 52.754 0.04 6.66 13.71 10.33
9/24/2021 10:15:00 AM 11.57 52.826 0.039 6.66 13.96 10.33
9/24/2021 10:30:00 AM 11.6 52.88 0.04 6.68 12.97 10.33
9/24/2021 10:45:00 AM 11.62 52.916 0.04 6.65 12.96 10.32
9/24/2021 11:00:00 AM 11.66 52.988 0.038 6.69 13.44 10.32
9/24/2021 11:15:00 AM 11.71 53.078 0.038 6.69 12.95 10.32
9/24/2021 11:30:00 AM 11.76 53.168 0.04 6.69 12.02 10.32
9/24/2021 11:45:00 AM 11.85 53.33 0.038 6.68 12.55 10.3
9/24/2021 12:00:00 PM 11.92 53.456 0.039 6.65 13.01 10.29
9/24/2021 12:15:00 PM 11.97 53.546 0.038 6.68 12.1 10.28
9/24/2021 12:30:00 PM 12.01 53.618 0.038 6.68 11.99 10.26
9/24/2021 12:45:00 PM 12.08 53.744 0.038 6.7 12.64 10.25
9/24/2021 1:00:00 PM 12.14 53.852 0.04 6.68 11.72 10.24
9/24/2021 1:15:00 PM 12.25 54.05 0.039 6.67 12.77 10.22
9/24/2021 1:30:00 PM 12.33 54.194 0.038 6.7 12.52 10.2
9/24/2021 1:45:00 PM 12.4 54.32 0.04 6.71 11.66 10.18
9/24/2021 2:00:00 PM 12.45 54.41 0.04 6.72 11.29 10.17
9/24/2021 2:15:00 PM 12.5 54.5 0.04 6.71 11.75 10.16
9/24/2021 2:30:00 PM 12.54 54.572 0.04 6.72 11.49 10.15
9/24/2021 2:45:00 PM 12.6 54.68 0.04 6.69 10.97 10.13
9/24/2021 3:00:00 PM 12.66 54.788 0.04 6.72 11.28 10.12
9/24/2021 3:15:00 PM 12.68 54.824 0.04 6.69 11.17 10.11
9/24/2021 3:30:00 PM 12.71 54.878 0.039 6.73 12.12 10.1
9/24/2021 3:45:00 PM 12.74 54.932 0.038 6.71 11.57 10.1
9/24/2021 4:00:00 PM 12.75 54.95 0.04 6.7 11.39 10.09
9/24/2021 4:15:00 PM 12.75 54.95 0.039 6.69 11.63 10.08
9/24/2021 4:30:00 PM 12.74 54.932 0.04 6.71 10.99 10.07
9/24/2021 4:45:00 PM 12.72 54.896 0.04 6.69 10.97 10.07
9/24/2021 5:00:00 PM 12.71 54.878 0.04 6.71 12.35 10.07
9/24/2021 5:15:00 PM 12.7 54.86 0.04 6.7 11.2 10.07
9/24/2021 5:30:00 PM 12.69 54.842 0.04 6.71 10.79 10.07
9/24/2021 5:45:00 PM 12.67 54.806 0.04 6.71 11.15 10.07
9/24/2021 6:00:00 PM 12.64 54.752 0.04 6.71 10.63 10.07
9/24/2021 6:15:00 PM 12.6 54.68 0.041 6.7 10.52 10.07
9/24/2021 6:30:00 PM 12.55 54.59 0.041 6.69 10.54 10.07
9/24/2021 6:45:00 PM 12.5 54.5 0.041 6.68 10.38 10.07
9/24/2021 7:00:00 PM 12.45 54.41 0.041 6.7 10.5 10.07
9/24/2021 7:15:00 PM 12.39 54.302 0.04 6.67 11.45 10.08
9/24/2021 7:30:00 PM 12.34 54.212 0.041 6.68 10.38 10.08
9/24/2021 7:45:00 PM 12.29 54.122 0.041 6.68 10.14 10.09
9/24/2021 8:00:00 PM 12.24 54.032 0.041 6.69 10.22 10.09
9/24/2021 8:15:00 PM 12.19 53.942 0.04 6.67 10.71 10.1
9/24/2021 8:30:00 PM 12.14 53.852 0.041 6.66 9.92 10.12
9/24/2021 8:45:00 PM 12.09 53.762 0.041 6.69 10.25 10.12
9/24/2021 9:00:00 PM 12.03 53.654 0.041 6.67 10.06 10.14
9/24/2021 9:15:00 PM 11.97 53.546 0.041 6.69 9.7 10.16
9/24/2021 9:30:00 PM 11.91 53.438 0.04 6.68 10.34 10.17
9/24/2021 9:45:00 PM 11.84 53.312 0.041 6.66 9.45 10.19
9/24/2021 10:00:00 PM 11.78 53.204 0.04 6.66 10.41 10.2
9/24/2021 10:15:00 PM 11.72 53.096 0.041 6.69 9.25 10.22
9/24/2021 10:30:00 PM 11.66 52.988 0.039 6.66 10.35 10.24
9/24/2021 10:45:00 PM 11.6 52.88 0.039 6.66 10.25 10.25
9/24/2021 11:00:00 PM 11.54 52.772 0.039 6.67 10.29 10.26
9/24/2021 11:15:00 PM 11.48 52.664 0.041 6.67 8.85 10.28
9/24/2021 11:30:00 PM 11.42 52.556 0.041 6.68 8.58 10.3
9/24/2021 11:45:00 PM 11.37 52.466 0.041 6.69 8.42 10.31
9/25/2021 12:00:00 AM 11.32 52.376 0.041 6.67 8.54 10.32
9/25/2021 12:15:00 AM 11.28 52.304 0.04 6.64 9.3 10.32
9/25/2021 12:30:00 AM 11.24 52.232 0.039 6.67 9.12 10.33
9/25/2021 12:45:00 AM 11.2 52.16 0.039 6.67 9.06 10.34
9/25/2021 1:00:00 AM 11.17 52.106 0.04 6.67 8.91 10.34
9/25/2021 1:15:00 AM 11.13 52.034 0.041 6.67 8.57 10.36
9/25/2021 1:30:00 AM 11.1 51.98 0.041 6.67 8.33 10.36
9/25/2021 1:45:00 AM 11.06 51.908 0.041 6.69 8.21 10.37
9/25/2021 2:00:00 AM 11.03 51.854 0.041 6.67 8.32 10.38
9/25/2021 2:15:00 AM 10.99 51.782 0.041 6.68 8.11 10.39
9/25/2021 2:30:00 AM 10.96 51.728 0.041 6.67 7.87 10.4
9/25/2021 2:45:00 AM 10.93 51.674 0.041 6.68 7.5 10.4
9/25/2021 3:00:00 AM 10.9 51.62 0.041 6.67 7.71 10.41
9/25/2021 3:15:00 AM 10.87 51.566 0.041 6.69 7.49 10.42
9/25/2021 3:30:00 AM 10.84 51.512 0.041 6.68 7.61 10.42
9/25/2021 3:45:00 AM 10.81 51.458 0.041 6.69 7.55 10.43
9/25/2021 4:00:00 AM 10.78 51.404 0.04 6.66 8.33 10.44
9/25/2021 4:15:00 AM 10.76 51.368 0.041 6.66 7.35 10.45
9/25/2021 4:30:00 AM 10.74 51.332 0.041 6.68 7.25 10.46
9/25/2021 4:45:00 AM 10.72 51.296 0.041 6.67 7.09 10.46
9/25/2021 5:00:00 AM 10.7 51.26 0.041 6.66 7.23 10.47
9/25/2021 5:15:00 AM 10.68 51.224 0.041 6.66 7.75 10.48
9/25/2021 5:30:00 AM 10.66 51.188 0.041 6.66 7.65 10.48
9/25/2021 5:45:00 AM 10.64 51.152 0.041 6.7 7.43 10.49
9/25/2021 6:00:00 AM 10.63 51.134 0.041 6.68 7.23 10.49
9/25/2021 6:15:00 AM 10.62 51.116 0.041 6.67 7.36 10.5
9/25/2021 6:30:00 AM 10.6 51.08 0.041 6.69 7.41 10.5
9/25/2021 6:45:00 AM 10.59 51.062 0.041 6.68 7.01 10.51
9/25/2021 7:00:00 AM 10.57 51.026 0.041 6.68 7.01 10.51
9/25/2021 7:15:00 AM 10.55 50.99 0.041 6.69 6.89 10.52
9/25/2021 7:30:00 AM 10.53 50.954 0.041 6.69 6.74 10.53
9/25/2021 7:45:00 AM 10.51 50.918 0.041 6.68 6.64 10.54
9/25/2021 8:00:00 AM 10.49 50.882 0.041 6.7 6.63 10.56
9/25/2021 8:15:00 AM 10.47 50.846 0.041 6.7 6.74 10.57
9/25/2021 8:30:00 AM 10.46 50.828 0.041 6.69 6.44 10.58
9/25/2021 8:45:00 AM 10.45 50.81 0.041 6.69 6.51 10.59
9/25/2021 9:00:00 AM 10.45 50.81 0.041 6.71 6.47 10.6
9/25/2021 9:15:00 AM 10.46 50.828 0.041 6.71 6.15 10.62
9/25/2021 9:30:00 AM 10.46 50.828 0.041 6.72 6.06 10.62
9/25/2021 9:45:00 AM 10.46 50.828 0.041 6.7 6.1 10.62
9/25/2021 10:00:00 AM 10.48 50.864 0.041 6.71 6.26 10.62
9/25/2021 10:15:00 AM 10.52 50.936 0.04 6.69 7.28 10.62
9/25/2021 10:30:00 AM 10.56 51.008 0.041 6.71 6.14 10.62
9/25/2021 10:45:00 AM 10.62 51.116 0.041 6.72 6.14 10.61
9/25/2021 11:00:00 AM 10.69 51.242 0.041 6.72 5.94 10.59
9/25/2021 11:15:00 AM 10.77 51.386 0.041 6.72 6.06 10.58
9/25/2021 11:30:00 AM 10.87 51.566 0.04 6.73 7.15 10.56
9/25/2021 11:45:00 AM 10.97 51.746 0.041 6.74 5.86 10.54
9/25/2021 12:00:00 PM 11.07 51.926 0.04 6.73 6.66 10.52
9/25/2021 12:15:00 PM 11.18 52.124 0.041 6.75 5.67 10.5
9/25/2021 12:30:00 PM 11.28 52.304 0.041 6.75 5.65 10.49
9/25/2021 12:45:00 PM 11.4 52.52 0.041 6.74 5.69 10.47
9/25/2021 1:00:00 PM 11.51 52.718 0.04 6.75 6.8 10.45
9/25/2021 1:15:00 PM 11.62 52.916 0.039 6.75 6.55 10.43
9/25/2021 1:30:00 PM 11.74 53.132 0.041 6.77 5.4 10.4
9/25/2021 1:45:00 PM 11.84 53.312 0.041 6.75 5.77 10.37
9/25/2021 2:00:00 PM 11.94 53.492 0.041 6.77 5.61 10.34
9/25/2021 2:15:00 PM 12.05 53.69 0.039 6.76 6.43 10.31
9/25/2021 2:30:00 PM 12.14 53.852 0.041 6.77 5.56 10.29
9/25/2021 2:45:00 PM 12.22 53.996 0.041 6.78 5.47 10.27
9/25/2021 3:00:00 PM 12.29 54.122 0.04 6.76 6.54 10.25
9/25/2021 3:15:00 PM 12.35 54.23 0.041 6.78 5.25 10.23
9/25/2021 3:30:00 PM 12.4 54.32 0.041 6.78 5.31 10.22
9/25/2021 3:45:00 PM 12.44 54.392 0.041 6.77 5.52 10.2
9/25/2021 4:00:00 PM 12.46 54.428 0.041 6.78 5.26 10.19
9/25/2021 4:15:00 PM 12.47 54.446 0.04 6.78 6.74 10.18
9/25/2021 4:30:00 PM 12.47 54.446 0.039 6.77 6.63 10.18
9/25/2021 4:45:00 PM 12.47 54.446 0.039 6.77 6.53 10.17
9/25/2021 5:00:00 PM 12.47 54.446 0.039 6.77 6.34 10.16
9/25/2021 5:15:00 PM 12.46 54.428 0.041 6.78 5.27 10.15
9/25/2021 5:30:00 PM 12.44 54.392 0.041 6.77 5.18 10.14
9/25/2021 5:45:00 PM 12.43 54.374 0.041 6.77 5.28 10.13
9/25/2021 6:00:00 PM 12.41 54.338 0.041 6.76 5.28 10.13
9/25/2021 6:15:00 PM 12.39 54.302 0.041 6.77 5.15 10.13
9/25/2021 6:30:00 PM 12.36 54.248 0.041 6.76 5.15 10.12
9/25/2021 6:45:00 PM 12.33 54.194 0.041 6.76 5.28 10.11
9/25/2021 7:00:00 PM 12.29 54.122 0.041 6.75 5.15 10.1
9/25/2021 7:15:00 PM 12.25 54.05 0.041 6.76 5.24 10.1
9/25/2021 7:30:00 PM 12.22 53.996 0.04 6.74 6.44 10.1
9/25/2021 7:45:00 PM 12.18 53.924 0.042 6.74 5.33 10.1
9/25/2021 8:00:00 PM 12.15 53.87 0.042 6.73 5.44 10.1
9/25/2021 8:15:00 PM 12.12 53.816 0.042 6.74 5.37 10.1
9/25/2021 8:30:00 PM 12.09 53.762 0.042 6.74 5.62 10.11
9/25/2021 8:45:00 PM 12.06 53.708 0.041 6.74 6.29 10.12
9/25/2021 9:00:00 PM 12.03 53.654 0.039 6.72 6.39 10.12
9/25/2021 9:15:00 PM 12 53.6 0.042 6.76 5.45 10.13
9/25/2021 9:30:00 PM 11.97 53.546 0.042 6.76 5.18 10.13
9/25/2021 9:45:00 PM 11.94 53.492 0.041 6.69 6.32 10.14
9/25/2021 10:00:00 PM 11.9 53.42 0.042 6.75 5.32 10.16
9/25/2021 10:15:00 PM 11.87 53.366 0.041 6.74 6.2 10.16
9/25/2021 10:30:00 PM 11.84 53.312 0.042 6.74 5.18 10.18
9/25/2021 10:45:00 PM 11.81 53.258 0.042 6.72 5.2 10.18
9/25/2021 11:00:00 PM 11.78 53.204 0.042 6.7 5.28 10.19
9/25/2021 11:15:00 PM 11.75 53.15 0.042 6.69 5.26 10.2
9/25/2021 11:30:00 PM 11.72 53.096 0.042 6.72 5.24 10.21
9/25/2021 11:45:00 PM 11.69 53.042 0.041 6.72 6.25 10.22
9/26/2021 12:00:00 AM 11.65 52.97 0.042 6.73 5.24 10.23
9/26/2021 12:15:00 AM 11.62 52.916 0.042 6.74 4.98 10.24
9/26/2021 12:30:00 AM 11.59 52.862 0.041 6.71 6.35 10.24
9/26/2021 12:45:00 AM 11.55 52.79 0.042 6.72 4.86 10.25
9/26/2021 1:00:00 AM 11.52 52.736 0.042 6.74 4.97 10.26
9/26/2021 1:15:00 AM 11.48 52.664 0.042 6.71 4.86 10.27
9/26/2021 1:30:00 AM 11.45 52.61 0.042 6.73 4.91 10.27
9/26/2021 1:45:00 AM 11.41 52.538 0.042 6.72 4.88 10.28
9/26/2021 2:00:00 AM 11.37 52.466 0.042 6.72 4.88 10.29
9/26/2021 2:15:00 AM 11.33 52.394 0.041 6.7 6.09 10.3
9/26/2021 2:30:00 AM 11.3 52.34 0.041 6.73 5.78 10.3
9/26/2021 2:45:00 AM 11.26 52.268 0.041 6.73 5.98 10.31
9/26/2021 3:00:00 AM 11.22 52.196 0.04 6.73 6.03 10.32
9/26/2021 3:15:00 AM 11.18 52.124 0.04 6.72 6.07 10.33
9/26/2021 3:30:00 AM 11.14 52.052 0.04 6.73 5.85 10.34
9/26/2021 3:45:00 AM 11.1 51.98 0.04 6.71 5.69 10.35
9/26/2021 4:00:00 AM 11.07 51.926 0.039 6.73 6.03 10.35
9/26/2021 4:15:00 AM 11.04 51.872 0.042 6.72 4.84 10.36
9/26/2021 4:30:00 AM 11.01 51.818 0.042 6.74 4.68 10.37
9/26/2021 4:45:00 AM 10.99 51.782 0.041 6.74 5.66 10.38
9/26/2021 5:00:00 AM 10.96 51.728 0.042 6.76 4.5 10.38
9/26/2021 5:15:00 AM 10.93 51.674 0.042 6.74 4.54 10.39
9/26/2021 5:30:00 AM 10.89 51.602 0.042 6.75 4.54 10.4
9/26/2021 5:45:00 AM 10.86 51.548 0.042 6.74 4.53 10.41
9/26/2021 6:00:00 AM 10.83 51.494 0.042 6.75 4.62 10.42
9/26/2021 6:15:00 AM 10.8 51.44 0.042 6.76 4.49 10.43
9/26/2021 6:30:00 AM 10.76 51.368 0.042 6.75 4.57 10.44
9/26/2021 6:45:00 AM 10.73 51.314 0.041 6.75 5.58 10.45
9/26/2021 7:00:00 AM 10.69 51.242 0.042 6.74 4.29 10.45
9/26/2021 7:15:00 AM 10.66 51.188 0.042 6.77 4.37 10.47
9/26/2021 7:30:00 AM 10.64 51.152 0.04 6.73 5.51 10.48
9/26/2021 7:45:00 AM 10.61 51.098 0.042 6.77 4.31 10.49
9/26/2021 8:00:00 AM 10.58 51.044 0.042 6.75 4.31 10.51
9/26/2021 8:15:00 AM 10.55 50.99 0.042 6.74 4.37 10.53
9/26/2021 8:30:00 AM 10.53 50.954 0.042 6.76 4.15 10.54
9/26/2021 8:45:00 AM 10.5 50.9 0.042 6.75 4.14 10.55
9/26/2021 9:00:00 AM 10.49 50.882 0.04 6.75 5.23 10.57
9/26/2021 9:15:00 AM 10.48 50.864 0.042 6.76 4.1 10.57
9/26/2021 9:30:00 AM 10.5 50.9 0.042 6.77 4.07 10.58
9/26/2021 9:45:00 AM 10.52 50.936 0.042 6.79 4.08 10.58
9/26/2021 10:00:00 AM 10.56 51.008 0.042 6.78 3.96 10.58
9/26/2021 10:15:00 AM 10.61 51.098 0.042 6.79 4.25 10.58
9/26/2021 10:30:00 AM 10.67 51.206 0.041 6.8 4.99 10.57
9/26/2021 10:45:00 AM 10.73 51.314 0.042 6.77 3.96 10.57
9/26/2021 11:00:00 AM 10.81 51.458 0.042 6.81 4.01 10.56
9/26/2021 11:15:00 AM 10.89 51.602 0.041 6.8 4.99 10.54
9/26/2021 11:30:00 AM 10.99 51.782 0.042 6.81 3.82 10.53
9/26/2021 11:45:00 AM 11.08 51.944 0.042 6.81 3.66 10.53
9/26/2021 12:00:00 PM 11.18 52.124 0.042 6.82 3.68 10.52
9/26/2021 12:15:00 PM 11.28 52.304 0.042 6.83 3.8 10.5
9/26/2021 12:30:00 PM 11.35 52.43 0.041 6.81 4.87 10.48
9/26/2021 12:45:00 PM 11.43 52.574 0.04 6.8 4.91 10.47
9/26/2021 1:00:00 PM 11.54 52.772 0.04 6.8 4.8 10.45
9/26/2021 1:15:00 PM 11.68 53.024 0.042 6.84 3.82 10.42
9/26/2021 1:30:00 PM 11.82 53.276 0.042 6.83 3.71 10.39
9/26/2021 1:45:00 PM 11.93 53.474 0.042 6.84 3.82 10.36
9/26/2021 2:00:00 PM 12.02 53.636 0.042 6.8 3.74 10.34
9/26/2021 2:15:00 PM 12.09 53.762 0.042 6.85 3.89 10.32
9/26/2021 2:30:00 PM 12.16 53.888 0.042 6.87 3.71 10.29
9/26/2021 2:45:00 PM 12.22 53.996 0.042 6.84 3.69 10.27
9/26/2021 3:00:00 PM 12.32 54.176 0.042 6.86 3.66 10.26
9/26/2021 3:15:00 PM 12.41 54.338 0.042 6.85 3.71 10.25
9/26/2021 3:30:00 PM 12.43 54.374 0.042 6.86 3.63 10.23
9/26/2021 3:45:00 PM 12.43 54.374 0.042 6.89 3.66 10.21
9/26/2021 4:00:00 PM 12.43 54.374 0.042 6.87 3.7 10.2
9/26/2021 4:15:00 PM 12.46 54.428 0.041 6.85 4.82 10.2
9/26/2021 4:30:00 PM 12.53 54.554 0.04 6.84 4.65 10.19
9/26/2021 4:45:00 PM 12.58 54.644 0.042 6.87 3.66 10.17
9/26/2021 5:00:00 PM 12.6 54.68 0.041 6.86 4.92 10.15
9/26/2021 5:15:00 PM 12.59 54.662 0.042 6.86 3.68 10.14
9/26/2021 5:30:00 PM 12.56 54.608 0.042 6.84 3.74 10.14
9/26/2021 5:45:00 PM 12.53 54.554 0.042 6.85 3.7 10.14
9/26/2021 6:00:00 PM 12.49 54.482 0.042 6.83 3.53 10.13
9/26/2021 6:15:00 PM 12.44 54.392 0.042 6.82 3.57 10.13
9/26/2021 6:30:00 PM 12.4 54.32 0.042 6.85 3.57 10.13
9/26/2021 6:45:00 PM 12.35 54.23 0.042 6.83 3.84 10.12
9/26/2021 7:00:00 PM 12.3 54.14 0.042 6.81 3.65 10.12
9/26/2021 7:15:00 PM 12.24 54.032 0.042 6.82 3.8 10.12
9/26/2021 7:30:00 PM 12.17 53.906 0.042 6.81 3.67 10.12
9/26/2021 7:45:00 PM 12.11 53.798 0.042 6.81 3.71 10.12
9/26/2021 8:00:00 PM 12.05 53.69 0.042 6.79 3.74 10.13
9/26/2021 8:15:00 PM 11.99 53.582 0.042 6.79 3.83 10.14
9/26/2021 8:30:00 PM 11.93 53.474 0.042 6.78 3.91 10.15
9/26/2021 8:45:00 PM 11.88 53.384 0.042 6.8 3.76 10.17
9/26/2021 9:00:00 PM 11.82 53.276 0.042 6.81 3.85 10.18
9/26/2021 9:15:00 PM 11.77 53.186 0.042 6.79 3.66 10.19
9/26/2021 9:30:00 PM 11.71 53.078 0.042 6.77 3.68 10.2
9/26/2021 9:45:00 PM 11.66 52.988 0.042 6.79 5.05 10.22
9/26/2021 10:00:00 PM 11.62 52.916 0.042 6.8 3.75 10.23
9/26/2021 10:15:00 PM 11.58 52.844 0.042 6.79 3.65 10.24
9/26/2021 10:30:00 PM 11.54 52.772 0.042 6.78 3.62 10.25
9/26/2021 10:45:00 PM 11.49 52.682 0.042 6.8 3.65 10.27
9/26/2021 11:00:00 PM 11.45 52.61 0.043 6.79 3.75 10.27
9/26/2021 11:15:00 PM 11.42 52.556 0.043 6.78 3.5 10.28
9/26/2021 11:30:00 PM 11.38 52.484 0.043 6.79 3.6 10.29
9/26/2021 11:45:00 PM 11.34 52.412 0.043 6.79 3.64 10.3
9/27/2021 12:00:00 AM 11.3 52.34 0.043 6.8 3.66 10.31
9/27/2021 12:15:00 AM 11.25 52.25 0.043 6.8 3.64 10.32
9/27/2021 12:30:00 AM 11.21 52.178 0.043 6.79 3.59 10.33
9/27/2021 12:45:00 AM 11.16 52.088 0.043 6.8 3.6 10.34
9/27/2021 1:00:00 AM 11.12 52.016 0.042 6.78 4.96 10.35
9/27/2021 1:15:00 AM 11.08 51.944 0.043 6.81 3.56 10.36
9/27/2021 1:30:00 AM 11.05 51.89 0.043 6.81 3.55 10.37
9/27/2021 1:45:00 AM 11.01 51.818 0.04 6.8 4.73 10.38
9/27/2021 2:00:00 AM 10.97 51.746 0.043 6.81 3.53 10.39
9/27/2021 2:15:00 AM 10.94 51.692 0.042 6.79 4.72 10.39
9/27/2021 2:30:00 AM 10.9 51.62 0.043 6.8 3.46 10.4
9/27/2021 2:45:00 AM 10.87 51.566 0.043 6.79 3.56 10.41
9/27/2021 3:00:00 AM 10.85 51.53 0.043 6.8 3.43 10.42
9/27/2021 3:15:00 AM 10.83 51.494 0.042 6.77 4.76 10.42
9/27/2021 3:30:00 AM 10.81 51.458 0.04 6.79 4.64 10.43
9/27/2021 3:45:00 AM 10.8 51.44 0.04 6.79 4.72 10.43
9/27/2021 4:00:00 AM 10.79 51.422 0.043 6.8 3.44 10.44
9/27/2021 4:15:00 AM 10.78 51.404 0.043 6.79 3.46 10.44
9/27/2021 4:30:00 AM 10.77 51.386 0.043 6.8 3.47 10.44
9/27/2021 4:45:00 AM 10.77 51.386 0.043 6.81 3.47 10.45
9/27/2021 5:00:00 AM 10.76 51.368 0.043 6.79 3.39 10.45
9/27/2021 5:15:00 AM 10.76 51.368 0.043 6.8 3.4 10.45
9/27/2021 5:30:00 AM 10.77 51.386 0.043 6.79 3.5 10.45
9/27/2021 5:45:00 AM 10.77 51.386 0.043 6.76 3.31 10.45
9/27/2021 6:00:00 AM 10.78 51.404 0.042 6.78 4.56 10.45
9/27/2021 6:15:00 AM 10.78 51.404 0.043 6.82 3.27 10.45
9/27/2021 6:30:00 AM 10.78 51.404 0.043 6.81 3.35 10.45
9/27/2021 6:45:00 AM 10.78 51.404 0.043 6.8 3.47 10.45
9/27/2021 7:00:00 AM 10.77 51.386 0.04 6.78 4.63 10.45
9/27/2021 7:15:00 AM 10.76 51.368 0.043 6.77 3.31 10.45
9/27/2021 7:30:00 AM 10.75 51.35 0.043 6.8 3.31 10.46
9/27/2021 7:45:00 AM 10.74 51.332 0.04 6.8 4.49 10.47
9/27/2021 8:00:00 AM 10.73 51.314 0.04 6.79 4.42 10.48
9/27/2021 8:15:00 AM 10.73 51.314 0.04 6.79 4.4 10.49
9/27/2021 8:30:00 AM 10.73 51.314 0.043 6.81 3.23 10.5
9/27/2021 8:45:00 AM 10.74 51.332 0.043 6.8 3.27 10.52
9/27/2021 9:00:00 AM 10.75 51.35 0.043 6.82 3.15 10.52
9/27/2021 9:15:00 AM 10.78 51.404 0.043 6.83 3.09 10.53
9/27/2021 9:30:00 AM 10.81 51.458 0.042 6.81 4.23 10.53
9/27/2021 9:45:00 AM 10.86 51.548 0.043 6.84 3.03 10.53
9/27/2021 10:00:00 AM 10.91 51.638 0.042 6.84 4.25 10.52
9/27/2021 10:15:00 AM 10.97 51.746 0.042 6.84 4.28 10.52
9/27/2021 10:30:00 AM 11.05 51.89 0.043 6.88 3.06 10.52
9/27/2021 10:45:00 AM 11.14 52.052 0.042 6.87 4 10.5
9/27/2021 11:00:00 AM 11.23 52.214 0.042 6.84 4.19 10.5
9/27/2021 11:15:00 AM 11.33 52.394 0.043 6.88 2.9 10.49
9/27/2021 11:30:00 AM 11.44 52.592 0.042 6.91 4.25 10.47
9/27/2021 11:45:00 AM 11.55 52.79 0.043 6.87 2.89 10.46
9/27/2021 12:00:00 PM 11.67 53.006 0.043 6.87 2.99 10.44
9/27/2021 12:15:00 PM 11.79 53.222 0.043 6.91 2.97 10.42
9/27/2021 12:30:00 PM 11.9 53.42 0.043 6.91 2.95 10.39
9/27/2021 12:45:00 PM 12.03 53.654 0.041 6.9 3.98 10.37
9/27/2021 1:00:00 PM 12.15 53.87 0.043 6.91 2.96 10.34
9/27/2021 1:15:00 PM 12.28 54.104 0.043 6.93 2.82 10.32
9/27/2021 1:30:00 PM 12.4 54.32 0.043 6.91 2.87 10.3
9/27/2021 1:45:00 PM 12.52 54.536 0.042 6.9 4.24 10.27
9/27/2021 2:00:00 PM 12.63 54.734 0.043 6.89 2.88 10.25
9/27/2021 2:15:00 PM 12.74 54.932 0.043 6.95 2.83 10.22
9/27/2021 2:30:00 PM 12.83 55.094 0.043 6.94 2.92 10.2
9/27/2021 2:45:00 PM 12.93 55.274 0.042 6.94 4.24 10.17
9/27/2021 3:00:00 PM 13.01 55.418 0.043 6.94 2.93 10.15
9/27/2021 3:15:00 PM 13.1 55.58 0.042 6.94 4.17 10.12
9/27/2021 3:30:00 PM 13.19 55.742 0.043 6.95 2.81 10.1
9/27/2021 3:45:00 PM 13.28 55.904 0.041 6.93 4.01 10.08
9/27/2021 4:00:00 PM 13.37 56.066 0.043 6.95 2.91 10.05
9/27/2021 4:15:00 PM 13.44 56.192 0.043 6.94 2.78 10.03
9/27/2021 4:30:00 PM 13.5 56.3 0.042 6.91 4.07 10.01
9/27/2021 4:45:00 PM 13.54 56.372 0.042 6.93 4.09 9.99
9/27/2021 5:00:00 PM 13.56 56.408 0.041 6.93 4.04 9.98
9/27/2021 5:15:00 PM 13.58 56.444 0.043 6.93 2.89 9.97
9/27/2021 5:30:00 PM 13.58 56.444 0.041 6.91 4.23 9.95
9/27/2021 5:45:00 PM 13.57 56.426 0.04 6.92 4.12 9.94
9/27/2021 6:00:00 PM 13.55 56.39 0.043 6.91 2.83 9.93
9/27/2021 6:15:00 PM 13.51 56.318 0.043 6.9 2.82 9.91
9/27/2021 6:30:00 PM 13.47 56.246 0.042 6.9 4.19 9.9
9/27/2021 6:45:00 PM 13.42 56.156 0.043 6.89 2.88 9.89
9/27/2021 7:00:00 PM 13.37 56.066 0.042 6.87 4.12 9.87
9/27/2021 7:15:00 PM 13.3 55.94 0.043 6.89 2.92 9.87
9/27/2021 7:30:00 PM 13.24 55.832 0.042 6.85 4.15 9.87
9/27/2021 7:45:00 PM 13.18 55.724 0.041 6.82 4.09 9.86
9/27/2021 8:00:00 PM 13.12 55.616 0.043 6.84 2.93 9.87
9/27/2021 8:15:00 PM 13.06 55.508 0.042 6.82 4.09 9.88
9/27/2021 8:30:00 PM 13.01 55.418 0.043 6.83 3.05 9.89
9/27/2021 8:45:00 PM 12.95 55.31 0.042 6.82 4.21 9.9
9/27/2021 9:00:00 PM 12.88 55.184 0.043 6.8 2.92 9.92
9/27/2021 9:15:00 PM 12.82 55.076 0.043 6.81 3.02 9.92
9/27/2021 9:30:00 PM 12.76 54.968 0.042 6.81 4.15 9.94
9/27/2021 9:45:00 PM 12.7 54.86 0.043 6.81 2.92 9.95
9/27/2021 10:00:00 PM 12.64 54.752 0.042 6.81 4.22 9.97
9/27/2021 10:15:00 PM 12.58 54.644 0.041 6.78 4.19 9.97
9/27/2021 10:30:00 PM 12.52 54.536 0.043 6.81 3.03 9.99
9/27/2021 10:45:00 PM 12.46 54.428 0.043 6.79 3.03 10
9/27/2021 11:00:00 PM 12.4 54.32 0.043 6.8 2.96 10.01
9/27/2021 11:15:00 PM 12.34 54.212 0.042 6.78 4.22 10.03
9/27/2021 11:30:00 PM 12.29 54.122 0.041 6.79 4.35 10.04
9/27/2021 11:45:00 PM 12.23 54.014 0.041 6.79 4.16 10.05
9/28/2021 12:00:00 AM 12.17 53.906 0.041 6.79 4.41 10.07
9/28/2021 12:15:00 AM 12.12 53.816 0.043 6.78 2.92 10.08
9/28/2021 12:30:00 AM 12.07 53.726 0.043 6.79 2.82 10.09
9/28/2021 12:45:00 AM 12.02 53.636 0.041 6.8 4.17 10.1
9/28/2021 1:00:00 AM 11.98 53.564 0.043 6.78 2.92 10.11
9/28/2021 1:15:00 AM 11.94 53.492 0.043 6.8 2.91 10.12
9/28/2021 1:30:00 AM 11.9 53.42 0.043 6.77 2.83 10.13
9/28/2021 1:45:00 AM 11.87 53.366 0.043 6.78 2.82 10.15
9/28/2021 2:00:00 AM 11.84 53.312 0.043 6.79 2.9 10.15
9/28/2021 2:15:00 AM 11.82 53.276 0.043 6.78 2.85 10.16
9/28/2021 2:30:00 AM 11.8 53.24 0.043 6.8 2.87 10.16
9/28/2021 2:45:00 AM 11.79 53.222 0.043 6.78 2.81 10.17
9/28/2021 3:00:00 AM 11.77 53.186 0.043 6.79 2.85 10.17
9/28/2021 3:15:00 AM 11.76 53.168 0.043 6.76 2.87 10.17
9/28/2021 3:30:00 AM 11.76 53.168 0.043 6.78 2.75 10.18
9/28/2021 3:45:00 AM 11.75 53.15 0.043 6.78 2.74 10.18
9/28/2021 4:00:00 AM 11.73 53.114 0.043 6.79 2.78 10.18
9/28/2021 4:15:00 AM 11.72 53.096 0.043 6.78 2.79 10.18
9/28/2021 4:30:00 AM 11.71 53.078 0.043 6.78 2.75 10.18
9/28/2021 4:45:00 AM 11.7 53.06 0.044 6.79 2.76 10.19
9/28/2021 5:00:00 AM 11.68 53.024 0.043 6.77 3.95 10.19
9/28/2021 5:15:00 AM 11.67 53.006 0.044 6.76 2.78 10.19
9/28/2021 5:30:00 AM 11.65 52.97 0.044 6.77 2.84 10.19
9/28/2021 5:45:00 AM 11.63 52.934 0.044 6.77 2.65 10.2
9/28/2021 6:00:00 AM 11.62 52.916 0.044 6.75 2.82 10.2
9/28/2021 6:15:00 AM 11.6 52.88 0.042 6.77 3.92 10.2
9/28/2021 6:30:00 AM 11.59 52.862 0.044 6.77 2.83 10.21
9/28/2021 6:45:00 AM 11.58 52.844 0.044 6.76 2.7 10.21
9/28/2021 7:00:00 AM 11.57 52.826 0.044 6.77 2.64 10.21
9/28/2021 7:15:00 AM 11.57 52.826 0.044 6.78 2.75 10.22
9/28/2021 7:30:00 AM 11.57 52.826 0.041 6.77 3.83 10.23
9/28/2021 7:45:00 AM 11.58 52.844 0.044 6.77 2.69 10.23
9/28/2021 8:00:00 AM 11.58 52.844 0.044 6.76 2.88 10.24
9/28/2021 8:15:00 AM 11.59 52.862 0.044 6.68 2.75 10.24
9/28/2021 8:30:00 AM 11.62 52.916 0.043 6.87 2.86 10.25
9/28/2021 8:45:00 AM 11.62 52.916 0.043 6.86 3.15 10.24
9/28/2021 9:00:00 AM 11.63 52.934 0.043 6.84 3.06 10.24
9/28/2021 9:15:00 AM 11.63 52.934 0.044 6.84 3.04 10.24
9/28/2021 9:30:00 AM 11.65 52.97 0.044 6.86 3.18 10.25
9/28/2021 9:45:00 AM 11.68 53.024 0.043 6.85 4.35 10.29
9/28/2021 10:00:00 AM 11.72 53.096 0.043 6.86 2.9 10.32
9/28/2021 10:15:00 AM 11.74 53.132 0.043 6.87 2.63 10.32
9/28/2021 10:30:00 AM 11.77 53.186 0.043 6.87 2.72 10.3
9/28/2021 10:45:00 AM 11.8 53.24 0.042 6.86 3.83 10.32
9/28/2021 11:00:00 AM 11.82 53.276 0.043 6.88 2.58 10.31
9/28/2021 11:15:00 AM 11.86 53.348 0.042 6.89 3.96 10.32
9/28/2021 11:30:00 AM 11.9 53.42 0.044 6.88 2.88 10.34
9/28/2021 11:45:00 AM 11.95 53.51 0.043 6.9 2.79 10.34
9/28/2021 12:00:00 PM 12.01 53.618 0.042 6.88 4.29 10.3
9/28/2021 12:15:00 PM 12.03 53.654 0.043 6.91 3.15 10.29
9/28/2021 12:30:00 PM 12.04 53.672 0.044 6.93 3.37 10.27
9/28/2021 12:45:00 PM 12.07 53.726 0.043 6.95 4.39 10.26
9/28/2021 1:00:00 PM 12.1 53.78 0.044 6.92 3.15 10.27
9/28/2021 1:15:00 PM 12.12 53.816 0.044 6.91 3.15 10.27
9/28/2021 1:30:00 PM 12.16 53.888 0.043 6.94 3.16 10.29
9/28/2021 1:45:00 PM 12.21 53.978 0.043 6.94 3.19 10.3
9/28/2021 2:00:00 PM 12.28 54.104 0.043 6.96 2.94 10.3
9/28/2021 2:15:00 PM 12.36 54.248 0.043 6.92 2.82 10.3
9/28/2021 2:30:00 PM 12.42 54.356 0.042 6.96 4.04 10.29
9/28/2021 2:45:00 PM 12.5 54.5 0.043 6.96 2.61 10.3
9/28/2021 3:00:00 PM 12.59 54.662 0.043 6.97 2.71 10.29
9/28/2021 3:15:00 PM 12.7 54.86 0.043 6.97 2.61 10.27
9/28/2021 3:30:00 PM 12.75 54.95 0.041 7.02 3.95 10.24
9/28/2021 3:45:00 PM 12.82 55.076 0.041 6.98 3.52 10.22
9/28/2021 4:00:00 PM 12.88 55.184 0.043 7.02 2.68 10.2
9/28/2021 4:15:00 PM 12.93 55.274 0.042 6.96 3.94 10.19
9/28/2021 4:30:00 PM 12.97 55.346 0.041 6.97 3.77 10.17
9/28/2021 4:45:00 PM 12.98 55.364 0.043 7 2.58 10.16
9/28/2021 5:00:00 PM 12.98 55.364 0.042 6.99 4.26 10.14
9/28/2021 5:15:00 PM 12.98 55.364 0.041 7 4.05 10.14
9/28/2021 5:30:00 PM 12.96 55.328 0.043 6.95 2.39 10.11
9/28/2021 5:45:00 PM 12.93 55.274 0.042 6.94 4 10.1
9/28/2021 6:00:00 PM 12.85 55.13 0.043 6.93 2.67 10.09
9/28/2021 6:15:00 PM 12.78 55.004 0.042 6.94 3.99 10.09
9/28/2021 6:30:00 PM 12.7 54.86 0.043 6.94 2.61 10.09
9/28/2021 6:45:00 PM 12.64 54.752 0.043 6.93 2.75 10.09
9/28/2021 7:00:00 PM 12.57 54.626 0.043 6.88 2.7 10.09
9/28/2021 7:15:00 PM 12.52 54.536 0.043 6.88 2.61 10.08
9/28/2021 7:30:00 PM 12.45 54.41 0.043 6.87 2.63 10.08
9/28/2021 7:45:00 PM 12.39 54.302 0.043 6.86 2.57 10.08
9/28/2021 8:00:00 PM 12.32 54.176 0.043 6.88 2.78 10.09
9/28/2021 8:15:00 PM 12.25 54.05 0.043 6.88 2.72 10.1
9/28/2021 8:30:00 PM 12.19 53.942 0.043 6.86 2.79 10.12
9/28/2021 8:45:00 PM 12.13 53.834 0.043 6.88 2.65 10.13
9/28/2021 9:00:00 PM 12.06 53.708 0.043 6.87 2.58 10.14
9/28/2021 9:15:00 PM 12 53.6 0.043 6.86 2.91 10.16
9/28/2021 9:30:00 PM 11.94 53.492 0.043 6.82 2.64 10.17
9/28/2021 9:45:00 PM 11.88 53.384 0.042 6.86 4.09 10.2
9/28/2021 10:00:00 PM 11.82 53.276 0.043 6.83 2.77 10.21
9/28/2021 10:15:00 PM 11.76 53.168 0.043 6.84 2.9 10.22
9/28/2021 10:30:00 PM 11.7 53.06 0.044 6.83 2.73 10.24
9/28/2021 10:45:00 PM 11.64 52.952 0.043 6.84 2.89 10.26
9/28/2021 11:00:00 PM 11.58 52.844 0.043 6.84 2.94 10.27
9/28/2021 11:15:00 PM 11.53 52.754 0.043 6.84 2.83 10.29
9/28/2021 11:30:00 PM 11.48 52.664 0.043 6.84 4.13 10.3
9/28/2021 11:45:00 PM 11.42 52.556 0.043 6.81 2.93 10.31
9/29/2021 12:00:00 AM 11.37 52.466 0.043 6.78 4.58 10.33
9/29/2021 12:15:00 AM 11.32 52.376 0.044 6.85 2.76 10.34
9/29/2021 12:30:00 AM 11.27 52.286 0.044 6.85 2.71 10.35
9/29/2021 12:45:00 AM 11.23 52.214 0.043 6.8 2.82 10.36
9/29/2021 1:00:00 AM 11.19 52.142 0.044 6.81 2.68 10.37
9/29/2021 1:15:00 AM 11.15 52.07 0.043 6.82 4.05 10.39
9/29/2021 1:30:00 AM 11.11 51.998 0.044 6.8 2.57 10.39
9/29/2021 1:45:00 AM 11.07 51.926 0.043 6.81 2.94 10.4
9/29/2021 2:00:00 AM 11.03 51.854 0.043 6.81 3.18 10.41
9/29/2021 2:15:00 AM 10.99 51.782 0.043 6.85 2.65 10.42
9/29/2021 2:30:00 AM 10.95 51.71 0.044 6.82 2.84 10.43
9/29/2021 2:45:00 AM 10.9 51.62 0.043 6.81 2.75 10.44
9/29/2021 3:00:00 AM 10.86 51.548 0.043 6.82 2.87 10.46
9/29/2021 3:15:00 AM 10.81 51.458 0.042 6.83 5.14 10.47
9/29/2021 3:30:00 AM 10.77 51.386 0.041 6.83 4.04 10.48
9/29/2021 3:45:00 AM 10.72 51.296 0.041 6.83 4.87 10.48
9/29/2021 4:00:00 AM 10.68 51.224 0.041 6.84 4.86 10.5
9/29/2021 4:15:00 AM 10.64 51.152 0.044 6.83 2.75 10.51
9/29/2021 4:30:00 AM 10.6 51.08 0.042 6.83 4.54 10.52
9/29/2021 4:45:00 AM 10.57 51.026 0.044 6.84 2.61 10.53
9/29/2021 5:00:00 AM 10.53 50.954 0.042 6.84 4.96 10.54
9/29/2021 5:15:00 AM 10.48 50.864 0.043 6.83 3.43 10.55
9/29/2021 5:30:00 AM 10.43 50.774 0.043 6.83 2.99 10.57
9/29/2021 5:45:00 AM 10.38 50.684 0.042 6.83 4.48 10.59
9/29/2021 6:00:00 AM 10.33 50.594 0.044 6.83 2.72 10.6
9/29/2021 6:15:00 AM 10.29 50.522 0.044 6.84 2.78 10.61
9/29/2021 6:30:00 AM 10.24 50.432 0.044 6.84 2.91 10.62
9/29/2021 6:45:00 AM 10.2 50.36 0.044 6.83 3.12 10.63
9/29/2021 7:00:00 AM 10.16 50.288 0.043 6.84 3.3 10.65
9/29/2021 7:15:00 AM 10.12 50.216 0.043 6.84 3.02 10.66
9/29/2021 7:30:00 AM 10.08 50.144 0.043 6.86 3.02 10.68
9/29/2021 7:45:00 AM 10.03 50.054 0.044 6.86 2.93 10.7
9/29/2021 8:00:00 AM 9.99 49.982 0.043 6.86 3.29 10.72
9/29/2021 8:15:00 AM 9.95 49.91 0.043 6.86 4.12 10.75
9/29/2021 8:30:00 AM 9.92 49.856 0.043 6.85 3.59 10.77
9/29/2021 8:45:00 AM 9.9 49.82 0.043 6.85 3.13 10.79
9/29/2021 9:00:00 AM 9.89 49.802 0.043 6.85 3.8 10.8
9/29/2021 9:15:00 AM 9.89 49.802 0.043 6.88 3.21 10.82
9/29/2021 9:30:00 AM 9.9 49.82 0.043 6.88 3.27 10.83
9/29/2021 9:45:00 AM 9.93 49.874 0.043 6.9 2.85 10.84
9/29/2021 10:00:00 AM 9.97 49.946 0.043 6.9 2.78 10.85
9/29/2021 10:15:00 AM 10.03 50.054 0.043 6.92 2.53 10.84
9/29/2021 10:30:00 AM 10.11 50.198 0.044 6.91 2.71 10.84
9/29/2021 10:45:00 AM 10.2 50.36 0.043 6.92 2.74 10.83
9/29/2021 11:00:00 AM 10.31 50.558 0.043 6.9 2.41 10.82
9/29/2021 11:15:00 AM 10.43 50.774 0.043 6.98 2.81 10.8
9/29/2021 11:30:00 AM 10.55 50.99 0.042 6.9 4.67 10.78
9/29/2021 11:45:00 AM 10.69 51.242 0.043 6.92 3.14 10.75
9/29/2021 12:00:00 PM 10.84 51.512 0.043 7 2.55 10.73
9/29/2021 12:15:00 PM 10.96 51.728 0.043 7.03 2.65 10.7
9/29/2021 12:30:00 PM 11.07 51.926 0.041 6.99 4.6 10.68
9/29/2021 12:45:00 PM 11.23 52.214 0.043 7.01 3.14 10.66
9/29/2021 1:00:00 PM 11.31 52.358 0.043 7.04 3.12 10.64
9/29/2021 1:15:00 PM 11.5 52.7 0.043 7.02 3.21 10.62
9/29/2021 1:30:00 PM 11.67 53.006 0.043 6.99 2.95 10.58
9/29/2021 1:45:00 PM 11.82 53.276 0.043 7 2.7 10.54
9/29/2021 2:00:00 PM 11.89 53.402 0.043 6.98 2.74 10.52
9/29/2021 2:15:00 PM 12.07 53.726 0.043 6.98 2.99 10.48
9/29/2021 2:30:00 PM 12.1 53.78 0.043 6.94 2.9 10.44
9/29/2021 2:45:00 PM 12.2 53.96 0.042 6.98 4.26 10.42
9/29/2021 3:00:00 PM 12.21 53.978 0.042 6.96 4.34 10.41
9/29/2021 3:15:00 PM 12.24 54.032 0.04 6.99 4.42 10.4
9/29/2021 3:30:00 PM 12.28 54.104 0.043 6.98 3.08 10.38
9/29/2021 3:45:00 PM 12.31 54.158 0.043 6.98 3.01 10.36
9/29/2021 4:00:00 PM 12.4 54.32 0.042 6.98 4.4 10.34
9/29/2021 4:15:00 PM 12.51 54.518 0.04 6.96 4.62 10.33
9/29/2021 4:30:00 PM 12.54 54.572 0.043 6.98 2.74 10.31
9/29/2021 4:45:00 PM 12.56 54.608 0.043 6.97 2.45 10.29
9/29/2021 5:00:00 PM 12.57 54.626 0.041 6.97 4.83 10.27
9/29/2021 5:15:00 PM 12.55 54.59 0.042 6.98 4.61 10.27
9/29/2021 5:30:00 PM 12.5 54.5 0.043 6.99 2.45 10.26
9/29/2021 5:45:00 PM 12.46 54.428 0.042 6.97 6.45 10.25
9/29/2021 6:00:00 PM 12.38 54.284 0.042 6.97 4.54 10.26
9/29/2021 6:15:00 PM 12.33 54.194 0.042 6.98 6.32 10.25
9/29/2021 6:30:00 PM 12.28 54.104 0.043 6.94 3.24 10.25
9/29/2021 6:45:00 PM 12.24 54.032 0.043 6.96 2.63 10.24
9/29/2021 7:00:00 PM 12.21 53.978 0.043 6.95 2.82 10.22
9/29/2021 7:15:00 PM 12.18 53.924 0.042 6.93 5.51 10.21
9/29/2021 7:30:00 PM 12.13 53.834 0.041 6.96 4.9 10.21
9/29/2021 7:45:00 PM 12.08 53.744 0.044 6.96 2.85 10.21
9/29/2021 8:00:00 PM 12.02 53.636 0.043 6.88 5.23 10.22
9/29/2021 8:15:00 PM 11.95 53.51 0.041 6.95 4.93 10.23
9/29/2021 8:30:00 PM 11.88 53.384 0.044 6.94 3.43 10.24
9/29/2021 8:45:00 PM 11.81 53.258 0.044 6.91 3.31 10.26
9/29/2021 9:00:00 PM 11.74 53.132 0.044 6.93 3.35 10.28
9/29/2021 9:15:00 PM 11.68 53.024 0.044 6.92 3.8 10.29
9/29/2021 9:30:00 PM 11.61 52.898 0.044 6.92 3.75 10.3
9/29/2021 9:45:00 PM 11.54 52.772 0.044 6.88 3.72 10.32
9/29/2021 10:00:00 PM 11.48 52.664 0.044 6.86 5.81 10.33
9/29/2021 10:15:00 PM 11.42 52.556 0.044 6.87 3.16 10.34
9/29/2021 10:30:00 PM 11.35 52.43 0.044 6.88 3.06 10.37
9/29/2021 10:45:00 PM 11.29 52.322 0.043 6.87 5.67 10.38
9/29/2021 11:00:00 PM 11.23 52.214 0.044 6.88 4.03 10.39
9/29/2021 11:15:00 PM 11.18 52.124 0.044 6.87 3.72 10.41
9/29/2021 11:30:00 PM 11.13 52.034 0.044 6.87 4.03 10.42
9/29/2021 11:45:00 PM 11.09 51.962 0.044 6.87 3.93 10.43
9/30/2021 12:00:00 AM 11.06 51.908 0.044 6.88 3.7 10.44
9/30/2021 12:15:00 AM 11.02 51.836 0.044 6.88 5.25 10.45
9/30/2021 12:30:00 AM 10.98 51.764 0.044 6.88 4.16 10.46
9/30/2021 12:45:00 AM 10.95 51.71 0.044 6.86 4.21 10.47
9/30/2021 1:00:00 AM 10.93 51.674 0.044 6.88 3.45 10.48
9/30/2021 1:15:00 AM 10.89 51.602 0.042 6.87 6.57 10.49
9/30/2021 1:30:00 AM 10.87 51.566 0.044 6.88 3.65 10.5
9/30/2021 1:45:00 AM 10.85 51.53 0.044 6.89 5.5 10.5
9/30/2021 2:00:00 AM 10.82 51.476 0.044 6.86 3.64 10.51
9/30/2021 2:15:00 AM 10.78 51.404 0.044 6.89 3.17 10.52
9/30/2021 2:30:00 AM 10.75 51.35 0.044 6.88 4.06 10.52
9/30/2021 2:45:00 AM 10.71 51.278 0.044 6.84 4.91 10.54
9/30/2021 3:00:00 AM 10.66 51.188 0.044 6.86 3.81 10.55
9/30/2021 3:15:00 AM 10.62 51.116 0.044 6.86 4.78 10.55
9/30/2021 3:30:00 AM 10.57 51.026 0.044 6.88 8.98 10.57
9/30/2021 3:45:00 AM 10.52 50.936 0.043 6.87 9.21 10.58
9/30/2021 4:00:00 AM 10.47 50.846 0.044 6.86 4.7 10.6
9/30/2021 4:15:00 AM 10.42 50.756 0.044 6.86 4.81 10.61
9/30/2021 4:30:00 AM 10.38 50.684 0.044 6.85 4.96 10.61
9/30/2021 4:45:00 AM 10.33 50.594 0.044 6.84 4.19 10.63
9/30/2021 5:00:00 AM 10.29 50.522 0.043 6.86 6.67 10.64
9/30/2021 5:15:00 AM 10.24 50.432 0.044 6.85 5.08 10.66
9/30/2021 5:30:00 AM 10.21 50.378 0.042 6.84 7.55 10.67
9/30/2021 5:45:00 AM 10.18 50.324 0.044 6.87 7.21 10.67
9/30/2021 6:00:00 AM 10.15 50.27 0.043 6.84 6.32 10.68
9/30/2021 6:15:00 AM 10.12 50.216 0.044 6.84 4.99 10.69
9/30/2021 6:30:00 AM 10.1 50.18 0.044 6.87 5.16 10.7
9/30/2021 6:45:00 AM 10.07 50.126 0.043 6.87 5.88 10.71
9/30/2021 7:00:00 AM 10.06 50.108 0.044 6.85 3.49 10.71
9/30/2021 7:15:00 AM 10.05 50.09 0.044 6.86 4.92 10.72
9/30/2021 7:30:00 AM 10.04 50.072 0.044 6.86 4.1 10.73
9/30/2021 7:45:00 AM 10.03 50.054 0.044 6.87 9.42 10.75
9/30/2021 8:00:00 AM 10.02 50.036 0.044 6.88 4.46 10.78
9/30/2021 8:15:00 AM 10.03 50.054 0.044 6.87 4.92 10.81
9/30/2021 8:30:00 AM 10.03 50.054 0.043 6.88 7.43 10.83
9/30/2021 8:45:00 AM 10.05 50.09 0.044 6.91 6.28 10.85
9/30/2021 9:00:00 AM 10.08 50.144 0.044 6.89 3.91 10.88
9/30/2021 9:15:00 AM 10.12 50.216 0.044 6.93 4.15 10.89
9/30/2021 9:30:00 AM 10.17 50.306 0.044 6.93 4.52 10.9
9/30/2021 9:45:00 AM 10.21 50.378 0.044 6.93 4.26 10.91
9/30/2021 10:00:00 AM 10.29 50.522 0.044 6.94 6.81